House Roll Call Vote History
2005-2006 Session
RCS # Sort1 Sort2 Doc. Subject/Motion Date Result Aye No Not Voting Exc. Abs. Exc. Vote Total Votes
5 Adoption Of Temporary Rules For The 2005 Session. M3 Previous\Question 1/26/2005 1:14 PM PASSED 112 8 0 0 0 120
6 Adoption of Temporary 2005 Session Rules Motion 12 1/26/2005 1:14 PM PASSED 114 5 1 0 0 119
48 M12 Journal\Approval 3/10/2005 11:16 AM PASSED 96 2 7 15 0 98
1106 QUORUM CALL - CONTESTED ELECTION. Motion 12 8/23/2005 2:28 PM PASSED 114 3 0 3 0 117
1104 QUORUM CALL Motion 12 8/23/2005 2:17 PM PASSED 110 2 5 3 0 112
1105 H 1796 HJR 1796 CONFIRM APPOINTMENTS TO THE STATE BOARD OF EDUCATION. Second Reading 8/23/2005 2:21 PM PASSED 115 1 1 3 0 116
1011 H 1349 HB 1349 RAISE CEILING ON FEES/BOARD OF PHARMACY. Third Reading 8/11/2005 8:59 PM PASSED 80 15 12 13 0 95
857 H 687 HB 687 PIRATING MOVIES. A1 Gibson\Third Reading 7/18/2005 7:38 PM PASSED 110 0 3 7 0 110
858 H 687 HB 687 PIRATING MOVIES. Third Reading 7/18/2005 7:39 PM PASSED 110 0 3 7 0 110
1013 H 1795 HJR 1795 JOINT SESSION - CONFIRMATION OF THE APPOINTMENTS BY THE GOVERNOR OF NEW MEMBERS TO THE STATE GOVERNOR OF NEW MEMBERS TO THE STATE BOARD OF EDUCATION. Second Reading 8/22/2005 5:47 PM PASSED 111 1 4 4 0 112
1014 H 217 HB 217 DRIVING FROM/LEAVING SCENE OF ACCIDENT. C Rpt Adopt 8/22/2005 5:52 PM PASSED 115 0 1 4 0 115
1015 H 691 HB 691 CARRBORO MOTOR VEHICLE TAX. R2 Ruled Mat'l\M11 Concur 8/22/2005 5:54 PM PASSED 86 29 1 4 0 115
1016 H 328 HB 328 OMNIBUS LOCAL LAWS. M11 Concur 8/22/2005 5:56 PM PASSED 101 14 1 4 0 115
1017 H 787 HB 787 VARIOUS LOCAL ACTS. R2 Ruled Mat'l\M11 Concur 8/22/2005 5:57 PM PASSED 113 2 1 4 0 115
1018 H 1261 HB 1261 WIRELESS TELEPHONE SERVICE. R2 Ruled Mat'l\M11 Concur 8/22/2005 6:08 PM PASSED 78 35 3 4 0 113
1019 H 254 HB 254 GRANT ANTICIPATION REVENUE VEHICLE BOND ISSUANCE. M11 Concur 8/22/2005 6:15 PM PASSED 81 33 2 4 0 114
861 H 1615 HJR 1615 HONOR JOHN D. HALL FORMER MEMBER OF THE GENERAL ASSEMBLY. Second Reading 7/18/2005 8:05 PM PASSED 111 0 2 7 0 111
863 H 1791 HR 1791 HONOR AMERICANS WITH DISABILITIES. Second Reading 7/19/2005 2:34 PM PASSED 117 0 2 1 0 117
996 H 1323 HB 1323 ESTABLISH NC INNOCENCE INQUIRY COMMISSION. Third Reading 8/11/2005 8:59 PM PASSED 80 23 4 13 0 103
684 H 248 HB 248 CHARLOTTE INTERSTATE LOOP. Third Reading 6/15/2005 8:59 PM PASSED 79 36 3 2 0 115
1021 H 576 HB 576 PROCUREMENT OF PROFESSIONAL SERVICES. M11 Not Concur 8/22/2005 6:20 PM PASSED 114 0 2 4 0 114
1022 H 613 HB 613 UPDATE CERTIFICATION/LICENSURE/ RECREATIONAL THERAPY. RECREATIONAL THERAPY. M11 Concur 8/22/2005 6:23 PM PASSED 98 17 1 4 0 115
700 H 672 HB 672 REDUCE HOLDING PERIOD FOR UNCLAIMED PROPERTY. M11 Concur 6/21/2005 2:17 PM PASSED 115 0 2 3 0 115
1107 H 691 HB 691 CARRBORO MOTOR VEHICLE TAX. R3 Ruled Mat'l\M11 Concur 8/23/2005 4:25 PM PASSED 75 26 15 4 0 101
1108 H 1034 HB 1034 ROCKINGHAM COUNTY SCHOOL ELECTIONS. M11 Concur 8/23/2005 4:28 PM PASSED 113 0 3 4 0 113
1109 H 1793 HJR 1793 HONOR THE LIFE AND MEMORY OF DR. BARBARA KINARD PHILLIPS. Second Reading 8/23/2005 4:43 PM PASSED 115 0 1 4 0 115
1110 H 1078 HB 1078 ANGIER WEEDED LOT ORDINANCE. M11 Not Concur 8/23/2005 4:45 PM PASSED 111 2 4 3 0 113
1111 H 766 HB 766 ENHANCE PASSENGER TRAMWAY SAFETY ACT. R3 Ruled Mat'l\M11 Concur 8/23/2005 4:47 PM PASSED 113 0 4 3 0 113
1112 H 787 HB 787 VARIOUS LOCAL ACTS. R3 Ruled Mat'l\M11 Concur 8/23/2005 4:48 PM PASSED 113 1 3 3 0 114
1113 H 1261 HB 1261 WIRELESS TELEPHONE SERVICE. R3 Ruled Mat'l\M11 Concur 8/23/2005 4:49 PM PASSED 96 18 3 3 0 114
1114 H 1095 HB 1095 ENVIRONMENTAL REPORTS AMENDMENTS. R2 Ruled Mat'l\M11 Concur 8/23/2005 4:52 PM PASSED 116 0 1 3 0 116
1115 H 630 HB 630 MANUFACTURED HOMES ESCROW ACCOUNTS. M11 Concur 8/23/2005 4:53 PM PASSED 117 0 0 3 0 117
86 H 743 HB 743 EAST SPENCER ANNEXATION. Second Reading 3/31/2005 1:58 PM PASSED 110 0 2 7 0 110
87 H 828 HB 828 BELVILLE DEANNEXATION. Second Reading 3/31/2005 1:59 PM PASSED 110 0 2 7 0 110
88 H 97 HB 97 TERMINATING PARENTAL RIGHTS/MURDER OF PARENT BY PARENT. Second Reading 3/31/2005 2:03 PM PASSED 110 0 1 8 0 110
89 H 231 HB 231 STATE CONTROLLER/COMPLIANCE REVIEW/PUBLIC RECORDS. Second Reading 3/31/2005 2:05 PM PASSED 110 0 1 8 0 110
90 H 404 HB 404 REPEAL DUPLICATIVE SCHOOL ACCREDITATION REQUIREMENT. Second Reading 3/31/2005 2:07 PM PASSED 110 0 1 8 0 110
91 H 576 HB 576 SIMPLY BID PROCESS/SMALL COMMUNITY COLLEGE PROJECTS. Second Reading 3/31/2005 2:10 PM PASSED 109 0 2 8 0 109
92 H 583 HB 583 COMMUNITY COLLEGE/LEAD AGENCY FOR JOB TRAINING. Second Reading 3/31/2005 2:16 PM PASSED 109 1 1 8 0 110
93 H 1103 HJR 1103 HONOR LIFE AND MEMORY OF FRANK EDWIN RHODES, FORMER MEMBER OF THE GENERAL ASSEMBLY. THE GENERAL ASSEMBLY. Second Reading 4/4/2005 7:33 PM PASSED 104 0 2 13 0 104
95 H 446 HB 446 ROANOKE RAPIDS ANNEXATION/ EXTRATERRITORIAL JURISDICTION/WELDON ANNEX. JURISDICTION/WELDON ANNEX. Third Reading 4/4/2005 7:36 PM PASSED 103 0 3 13 0 103
96 H 631 HB 631 MAGGIE VALLEY SATELLITE ANNEXATIONS. Third Reading 4/4/2005 7:36 PM PASSED 103 0 3 13 0 103
97 H 743 HB 743 EAST SPENCER ANNEXATION. Third Reading 4/4/2005 7:36 PM PASSED 103 0 3 13 0 103
98 H 828 HB 828 BELVILLE DEANNEXATION. Third Reading 4/4/2005 7:36 PM PASSED 103 0 3 13 0 103
99 H 422 HB 422 FORSYTH FISHING ALLOWANCE. Second Reading 4/4/2005 7:37 PM PASSED 103 0 3 13 0 103
100 H 825 HB 825 INCREASE KENANSVILLE ALCOHOL BEVERAGE CONTROL BOARD MEMBERS. Second Reading 4/4/2005 7:39 PM PASSED 104 0 2 13 0 104
160 H 871 HB 871 EMERALD ISLE CANAL DREDGING FEE. Second Reading 4/13/2005 4:07 PM PASSED 106 9 1 4 0 115
161 H 986 HB 986 GREENVILLE/SURF CITY SATELLITE ANNEXATIONS. A1 Hunter\Second Reading 4/13/2005 4:10 PM PASSED 115 0 1 4 0 115
162 H 1080 HB 1080 DORTCHES DEANNEXATION. Second Reading 4/13/2005 4:12 PM PASSED 114 0 2 4 0 114
164 H 399 HB 399 UNIFIED GOVERNMENT. Third Reading 4/13/2005 4:17 PM PASSED 114 1 1 4 0 115
165 H 449 HB 449 GIFT TAX CHANGES. Comm Amend #1\Second Reading 4/13/2005 4:18 PM PASSED 116 0 0 4 0 116
166 H 449 HB 449 GIFT TAX CHANGES. Second Reading 4/13/2005 4:20 PM PASSED 115 0 1 4 0 115
167 H 510 HB 510 ENFORCEMENT OF POWER OF ATTORNEY. Third Reading 4/13/2005 4:22 PM PASSED 116 0 0 4 0 116
168 H 637 HB 637 SALARY SUPPLEMENT/CERTAIN EDUCATION PROGRAMS. Second Reading 4/13/2005 4:24 PM PASSED 114 1 1 4 0 115
169 H 699 HB 699 STATE PROPERTY/GOVERNMENTAL OPERATIONS NOTICE. Second Reading 4/13/2005 4:26 PM PASSED 114 1 1 4 0 115
170 H 707 HB 707 AMEND STAR-RATED LICENSURE/CHILD CARE FACILITIES. Second Reading 4/13/2005 4:28 PM PASSED 114 1 1 4 0 115
171 H 822 HB 822 BLAKELY DECISION/CONFORM STATE LAW. Second Reading 4/13/2005 4:37 PM PASSED 115 0 1 4 0 115
172 H 1060 HB 1060 HOSPITAL LICENSE/CONFORMING CHANGE. Second Reading 4/13/2005 4:39 PM PASSED 114 0 2 4 0 114
250 H 691 HB 691 CARRBORO MOTOR VEHICLE TAX. Second Reading 4/27/2005 4:28 PM PASSED 86 28 0 6 0 114
251 H 1037 HB 1037 INCREASE WRIGHTSVILLE BEACH MOTOR VEHICLE TAX. Second Reading 4/27/2005 4:28 PM PASSED 86 28 0 6 0 114
252 H 488 HB 488 CARY CHARTER REWRITE. Second Reading 4/27/2005 4:29 PM PASSED 113 0 1 6 0 113
253 H 803 HB 803 MANUFACTURED HOUSING LICENSE AMENDMENTS. Third Reading 4/27/2005 4:32 PM PASSED 100 14 0 6 0 114
254 H 447 HB 447 LAW ENFORCEMENT OFFICERS CREDITABLE SERVICE/WORKERS' COMPENSATION. COMPENSATION. Second Reading 4/27/2005 4:36 PM PASSED 114 0 0 6 0 114
255 H 654 HB 654 CONFIDENTIAL INSURANCE MARKET/FINANCIAL DOCUMENTS Second Reading 4/27/2005 4:41 PM PASSED 110 3 1 6 0 113
256 H 655 HB 655 BETTER INSURANCE/ANNUITY DISCLOSURE. Second Reading 4/27/2005 4:45 PM PASSED 114 0 0 6 0 114
257 H 1061 HB 1061 CURRITUCK PROPERTY CONVEYANCE Second Reading 4/27/2005 4:53 PM PASSED 98 16 0 6 0 114
258 H 737 HB 737 IMPROVE HEALTH INSURANCE UNDERWRITING. Second Reading 4/27/2005 4:55 PM PASSED 114 0 0 6 0 114
259 H 810 HB 810 AMEND CERTAIN LAND SURVEYOR LICENSURE REQUIREMENTS. Second Reading 4/27/2005 4:59 PM PASSED 114 0 0 6 0 114
260 H 819 HB 819 REGIONAL COUNCILS OF GOVERNMENT. A1 Saunders\Second Reading 4/27/2005 5:01 PM PASSED 114 0 0 6 0 114
261 H 819 HB 819 REGIONAL COUNCILS OF GOVERNMENT. Second Reading 4/27/2005 5:02 PM PASSED 111 1 2 6 0 112
262 H 836 HB 836 DUTIES OF SCHOOL COUNSELORS. Second Reading 4/27/2005 5:04 PM PASSED 106 7 1 6 0 113
263 H 914 HB 914 STATE BUDGET ACT. Second Reading\M12 Suspend Ru\les To Offer A\n Amendment 4/27/2005 5:10 PM FAILED 44 67 3 6 0 111
356 H 672 HB 672 REDUCE HOLDING PERIOD FOR UNCLAIMED PROPERTY. Third Reading 5/11/2005 4:22 PM PASSED 103 13 1 3 0 116
357 H 1237 HB 1237 CHANGE LOCAL GOVERNMENTAL RETIREMENT BOARD. Third Reading 5/11/2005 4:23 PM PASSED 116 0 1 3 0 116
358 H 630 HB 630 MANUFACTURED HOMES ESCROW ACCOUNTS. A1 McGee\Second Reading 5/11/2005 4:27 PM PASSED 107 9 1 3 0 116
359 H 630 HB 630 MANUFACTURED HOMES ESCROW ACCOUNTS. Second Reading 5/11/2005 4:29 PM PASSED 115 0 2 3 0 115
362 H 670 HB 670 COMMERCIAL DRIVERS LICENSES/FEDERAL COMPLIANCE. Second Reading 5/11/2005 4:40 PM PASSED 114 0 3 3 0 114
363 H 677 HB 677 TREASURER'S DESIGNEE ON COMMUNITY COLLEGE BOARD. Second Reading 5/11/2005 4:41 PM PASSED 116 1 0 3 0 117
364 H 698 HB 698 AMEND FOREST DEVELOPMENT ACT. Second Reading 5/11/2005 4:43 PM PASSED 115 0 2 3 0 115
365 H 710 HB 710 RETIREMENT SYSTEMS TECHNICAL CORRECTIONS. Second Reading 5/11/2005 4:45 PM PASSED 113 0 4 3 0 113
366 H 786 HB 786 MOTOR VEHICLE DEALER TECHNICAL CORRECTIONS. Second Reading 5/11/2005 4:48 PM PASSED 115 0 2 3 0 115
367 H 1342 HB 1342 SPECIAL DIPLOMAS FOR WAR VETERANS. Second Reading 5/11/2005 5:04 PM PASSED 116 0 1 3 0 116
368 H 1217 HB 1217 NOTARY FEE INCREASE Second Reading\M6 Reconsider 5/12/2005 2:27 PM PASSED 61 44 3 12 0 105
432 H 395 HB 395 DIVISION OF FOREST RESOURCES/EMERGENCY RESPONSE. RESPONSE. Second Reading 5/18/2005 4:26 PM PASSED 116 0 1 3 0 116
433 H 673 HB 673 INTERSTATE INSURANCE PRODUCT REGULATION COMPACT. Second Reading 5/18/2005 5:36 PM PASSED 99 0 17 4 0 99
434 H 643 HB 643 SPEED AND TRAFFIC DEFEATING DEVICES. Second Reading 5/18/2005 5:56 PM PASSED 79 32 5 4 0 111
435 H 779 HB 779 INCREASE THE PENALTY FOR TRUANCY. Second Reading 5/18/2005 6:02 PM PASSED 108 2 6 4 0 110
436 H 1024 HB 1024 INSTANT RUNOFF VOTING PILOT. A1 Luebke\Second Reading 5/18/2005 6:04 PM PASSED 110 1 5 4 0 111
437 H 1024 HB 1024 INSTANT RUNOFF VOTING PILOT. Second Reading 5/18/2005 6:13 PM PASSED 79 32 5 4 0 111
438 H 1128 HB 1128 CAMPAIGN FINANCE AMENDMENTS. A1 Stam\Second Reading 5/18/2005 6:49 PM PASSED 113 0 3 4 0 113
439 H 1128 HB 1128 CAMPAIGN FINANCE AMENDMENTS. Second Reading 5/18/2005 6:52 PM PASSED 100 12 4 4 0 112
441 H 1076 HB 1076 ALTERNATIVE LEARNING PROGRAMS/SCHOOL PROPOSALS. A1 Wright\Second Reading 5/19/2005 12:34 PM PASSED 115 0 1 4 0 115
442 H 1076 HB 1076 ALTERNATIVE LEARNING PROGRAMS/SCHOOL PROPOSALS. Second Reading 5/19/2005 12:35 PM PASSED 115 0 1 4 0 115
443 H 1226 HB 1226 INSPECTION OF CORRECTIONAL FACILITIES. Second Reading 5/19/2005 12:51 PM PASSED 115 0 1 4 0 115
444 H 1301 HB 1301 PHYSICAL THERAPY BOARD/COMPETENCY OF LICENSEES. Second Reading 5/19/2005 12:52 PM PASSED 115 0 1 4 0 115
445 H 1310 HB 1310 TESTING REQUIREMENTS/TEACHER EDUCATION STUDENTS. Second Reading 5/19/2005 12:55 PM PASSED 115 0 1 4 0 115
446 H 1400 HB 1400 SCHOOL BUS SAFETY ACT. Second Reading 5/19/2005 12:57 PM PASSED 116 0 0 4 0 116
840 H 737 HB 737 IMPROVE HEALTH INSURANCE UNDERWRITING. M11 Concur 7/14/2005 12:39 PM PASSED 111 0 1 8 0 111
841 H 1236 HB 1236 INSURANCE BOARD OF GOVERNORS MEMBERSHIP. M11 Concur 7/14/2005 12:40 PM PASSED 110 0 2 8 0 110
1097 H 1207 HB 1207 2005 SPEAKER'S APPOINTMENTS. A1 Culpepper\Second Reading 8/22/2005 9:59 PM PASSED 112 1 4 3 0 113
1098 H 1207 HB 1207 2005 SPEAKER'S APPOINTMENTS. Second Reading 8/22/2005 9:59 PM PASSED 110 5 2 3 0 115
1099 H 1283 HB 1283 IMPROVE ENVIRONMENTAL ENFORCEMENT A1 Goforth\Second Reading 8/22/2005 9:59 PM PASSED 104 10 3 3 0 114
1100 H 1283 HB 1283 IMPROVE ENVIRONMENTAL ENFORCEMENT Second Reading 8/22/2005 9:59 PM FAILED 46 68 3 3 0 114
851 H 1004 HB 1004 EXTEND JDIG AND BILL LEE ACT. M11 Not Concur 7/14/2005 1:23 PM PASSED 110 0 1 9 0 110
852 H 1631 HB 1631 EXTEND CONTINUING BUDGET AUTHORITY. A1 Crawford\Second Reading 7/18/2005 7:24 PM PASSED 110 0 4 6 0 110
853 H 1631 HB 1631 EXTEND CONTINUING BUDGET AUTHORITY. A2 Stam\Second Reading 7/18/2005 7:30 PM FAILED 45 66 3 6 0 111
854 H 1631 HB 1631 EXTEND CONTINUING BUDGET AUTHORITY. Second Reading 7/18/2005 7:31 PM PASSED 111 0 3 6 0 111
855 H 1787 HR 1787 CURRENT SAFEGUARDS LIMITING THE INCREASE IN IMPORTS OF CHINESE TEXTILES/TRADE ADJUSTMENT ASSISTANCE TEXTILES/TRADE ADJUSTMENT ASSISTANCE PROGRAM. R2 For Adopt 7/18/2005 7:35 PM PASSED 107 0 6 7 0 107
677 H 723 HB 723 UNIVERSITY OF NORTH CAROLINA/CRIMINAL RECORD CHECKS/FEE. Second Reading 6/14/2005 4:43 PM PASSED 113 0 3 4 0 113
678 H 248 HB 248 CHARLOTTE INTERSTATE LOOP. Second Reading 6/14/2005 5:01 PM PASSED 84 26 6 4 0 110
681 H 723 HB 723 UNIVERSITY OF NORTH CAROLINA/CRIMINAL RECORD CHECKS/FEE. Third Reading 6/15/2005 8:59 PM PASSED 113 0 4 3 0 113
1103 H 105 HB 105 MOTOR FUEL TAX CHANGES AND REVENUE LAWS TECHNICAL CHANGES. R2 Ruled Mat'l\M11 Concur 8/22/2005 9:59 PM FAILED 50 63 4 3 0 113
1436 H 853 HB 853 RECIPROCITY/OPTIONAL RETIREMENT SYSTEM. Second Reading 6/27/2006 3:00 PM PASSED 116 1 2 1 0 117
1437 H 1987 HB 1987 HEALTH PLANS/CHANGES TO BASIC AND STANDARD. Second Reading 6/27/2006 3:03 PM PASSED 117 0 2 1 0 117
1438 H 2223 HB 2223 CHARLOTTE FIREFIGHTERS' RETIREMENT CHANGES. Second Reading 6/27/2006 3:05 PM PASSED 116 0 3 1 0 116
1439 H 2651 HB 2651 ROTH 401K ACCOUNTS/LAW ENFORCEMENT OFFICERS. Second Reading 6/27/2006 3:08 PM PASSED 117 0 2 1 0 117
1441 H 2890 HJR 2890 HONOR THE LIFE AND MEMORY OF HUGH MORTON. Second Reading 6/28/2006 2:48 PM PASSED 116 0 2 2 0 116
1442 H 688 HB 688 CERTIFY ON-SITE WASTEWATER CONTRACTORS. M11 Concur 6/28/2006 3:10 PM PASSED 117 0 1 2 0 117
1443 H 836 HB 836 DUTIES OF SCHOOL COUNSELORS. M11 Concur 6/28/2006 3:13 PM PASSED 116 0 2 2 0 116
1444 H 1074 HB 1074 CLARIFY SCHOOL ADMISSIONS PROCEDURES. M11 Concur 6/28/2006 3:16 PM PASSED 115 0 3 2 0 115
1445 H 2259 HB 2259 ELKIN/PILOT MOUNTAIN/DOBSON OCCUPANCY TAX. Third Reading 6/28/2006 3:20 PM PASSED 92 25 1 2 0 117
1447 H 2477 HB 2477 DURHAM COUNTY OCCUPANCY TAX MODIFICATION. Third Reading 6/28/2006 3:23 PM PASSED 87 28 3 2 0 115
1451 H 2339 HB 2339 LINCOLN COUNTY TAX CERTIFICATION. Second Reading 6/28/2006 3:28 PM PASSED 115 0 3 2 0 115
1452 H 2638 HB 2638 DOBSON SATELLITE ANNEXATIONS. Second Reading 6/28/2006 3:30 PM PASSED 113 1 4 2 0 114
1459 H 2879 HR 2879 URGE THE U.S. DEPARTMENT OF EDUCATION TO RESPOND ON THE FINAL REGULATIONS FOR STUDENTS WITH REGULATIONS FOR STUDENTS WITH DISABILITIES. R2 For Adopt 6/29/2006 3:39 PM PASSED 97 0 15 8 0 97
1460 H 126 HB 126 GUN PERMIT/OSHA TECHNICAL CHANGES. M11 Concur 6/29/2006 3:41 PM PASSED 103 0 9 8 0 103
1461 H 771 HB 771 UNC/DUAL OFFICE HOLDING. M11 Not Concur 6/29/2006 3:43 PM PASSED 105 0 6 8 1 105
1462 H 1343 HB 1343 DENTAL INTERN PERMITS. M11 Concur 6/29/2006 3:44 PM PASSED 106 0 6 8 0 106
1463 H 1908 HB 1908 REWRITE SPECIAL EDUCATION LAWS. M11 Concur 6/29/2006 3:45 PM PASSED 105 0 7 8 0 105
1464 H 1432 HB 1432 NOTARY PUBLIC CORRECTIONS. M11 Concur 6/29/2006 3:50 PM PASSED 108 0 4 8 0 108
1455 H 128 HB 128 ELECTION CHANGES. M11 Not Concur 6/28/2006 3:38 PM PASSED 114 0 4 2 0 114
1456 H 2102 HB 2102 LEASE STATE PROPERTY TO ONSLOW COUNTY. Second Reading 6/28/2006 3:42 PM PASSED 116 0 2 2 0 116
1457 H 2551 HB 2551 EXEMPTION FOR BALER TWINE FROM SALES TAX. Second Reading 6/28/2006 3:45 PM PASSED 109 5 2 2 2 114
1470 H 2339 HB 2339 LINCOLN COUNTY TAX CERTIFICATION. Third Reading 6/29/2006 4:06 PM PASSED 109 0 3 8 0 109
1471 H 2638 HB 2638 DOBSON SATELLITE ANNEXATIONS. Third Reading 6/29/2006 4:06 PM PASSED 109 0 3 8 0 109
1473 H 2041 HB 2041 CIVILIAN TRAFFIC INVESTIGATORS. Second Reading 6/29/2006 4:59 PM PASSED 93 6 11 10 0 99
1474 H 2094 HB 2094 SUNSET BEACH AND OCEAN ISLE BEACH/STATE HEALTH PLAN. Second Reading 6/29/2006 4:59 PM PASSED 93 6 11 10 0 99
1478 H 2351 HB 2351 CONTINUING APPROPRIATIONS. Second Reading 6/29/2006 5:11 PM PASSED 107 0 4 9 0 107
71 H 857 HB 857 EXTEND DEADLINE FOR MASTER PLAN. Second Reading 3/24/2005 12:18 PM PASSED 110 0 2 7 0 110
72 H 578 HJR 578 HONOR LIFE AND MEMORY OF REVEREND SHERLEY W. EDWARDS. Second Reading 3/28/2005 7:41 PM PASSED 100 0 8 11 0 100
73 H 520 HJR 520 HONOR ASHLEY B. FUTRELL. Second Reading 3/29/2005 4:03 PM PASSED 116 0 1 2 0 116
75 H 9 HB 9 THOMASVILLE DEANNEXATION. Second Reading 3/29/2005 4:06 PM PASSED 117 0 0 2 0 117
76 H 476 HB 476 WILSON/GREENE BOUNDARY SETTLEMENT. Second Reading 3/29/2005 4:06 PM PASSED 117 0 0 2 0 117
77 H 498 HB 498 TAYLORSVILLE SATELLITE ANNEXATIONS. Second Reading 3/29/2005 4:06 PM PASSED 117 0 0 2 0 117
78 H 490 HB 490 FALSE REPORT/DESTRUCTIVE DEVICE. Second Reading 3/29/2005 4:08 PM PASSED 117 0 0 2 0 117
79 H 252 HJR 252 HONOR HIGHWAY PATROL ANNIVERSARY. Second Reading 3/31/2005 1:47 PM PASSED 113 0 0 6 0 113
81 H 9 HB 9 THOMASVILLE DEANNEXATION. Third Reading 3/31/2005 1:51 PM PASSED 112 0 1 6 0 112
82 H 476 HB 476 WILSON/GREENE BOUNDARY SETTLEMENT. Third Reading 3/31/2005 1:51 PM PASSED 112 0 1 6 0 112
83 H 498 HB 498 TAYLORSVILLE SATELLITE ANNEXATIONS. Third Reading 3/31/2005 1:53 PM PASSED 111 0 2 6 0 111
84 H 446 HB 446 ROANOKE RAPIDS ANNEXATION/ EXTRATERRITORIAL JURISDICTION/WELDON EXTRATERRITORIAL JURISDICTION/WELDON ANNEX. Second Reading 3/31/2005 1:55 PM PASSED 110 0 2 7 0 110
85 H 631 HB 631 MAGGIE VALLEY SATELLITE ANNEXATIONS. Second Reading 3/31/2005 1:57 PM PASSED 109 1 2 7 0 110
144 H 399 HB 399 UNIFIED GOVERNMENT. Second Reading 4/12/2005 3:06 PM PASSED 115 2 1 2 0 117
145 H 236 HB 236 FEDERAL JURISDICTION OVER LAND. A1 Culpepper\Second Reading 4/12/2005 3:14 PM PASSED 118 0 0 2 0 118
146 H 236 HB 236 FEDERAL JURISDICTION OVER LAND. Second Reading 4/12/2005 3:15 PM PASSED 109 9 0 2 0 118
147 H 869 HB 869 PUBLIC HOSPITAL AMENDMENTS. Second Reading 4/12/2005 3:17 PM PASSED 117 0 1 2 0 117
149 H 125 HB 125 WEST JEFFERSON OCCUPANCY TAX. Third Reading 4/13/2005 3:58 PM PASSED 94 20 2 4 0 114
150 H 351 HB 351 MODIFY PASQUOTANK/ELIZABETH CITY OCCUPANCY TAX. Third Reading 4/13/2005 3:58 PM PASSED 94 20 2 4 0 114
151 H 540 HB 540 HALIFAX AND ROANOKE RAPIDS OCCUPANCY TAXES. Third Reading 4/13/2005 3:58 PM PASSED 94 20 2 4 0 114
152 H 544 HB 544 MADISON COUNTY OCCUPANCY TAX. Third Reading 4/13/2005 3:58 PM PASSED 94 20 2 4 0 114
153 H 843 HB 843 DUPLIN OCCUPANCY TAX. Third Reading 4/13/2005 3:58 PM PASSED 94 20 2 4 0 114
155 H 278 HB 278 WALKERTOWN DEANNEXATIONS. Third Reading 4/13/2005 4:00 PM PASSED 115 0 1 4 0 115
156 H 370 HB 370 LANDIS SATELLITE ANNEXATIONS. Third Reading 4/13/2005 4:00 PM PASSED 115 0 1 4 0 115
157 H 478 HB 478 TOBACCOVILLE DEANNEXATION. Third Reading 4/13/2005 4:00 PM PASSED 115 0 1 4 0 115
158 H 350 HB 350 HOLDEN BEACH CANAL DREDGING FEE. Third Reading 4/13/2005 4:01 PM PASSED 108 8 0 4 0 116
159 H 871 HB 871 EMERALD ISLE CANAL DREDGING FEE. Comm Amend #1\Second Reading 4/13/2005 4:06 PM PASSED 114 2 0 4 0 116
222 H 1016 HB 1016 DISPOSE OF FIREARMS/BENEFIT LAW ENFORCEMENT. Second Reading 4/20/2005 4:32 PM PASSED 115 0 1 4 0 115
223 H 1032 HB 1032 PLACING STUDENTS IN SECLUSION. A1 Blust\Second Reading 4/20/2005 4:55 PM FAILED 26 88 2 4 0 114
224 H 1032 HB 1032 PLACING STUDENTS IN SECLUSION. Second Reading 4/20/2005 4:55 PM PASSED 113 2 1 4 0 115
1256 H 1836 HJR 1836 HONOR ASU FOOTBALL TEAM. Second Reading 5/10/2006 11:43 AM PASSED 117 0 2 1 0 117
1257 H 1807 HJR 1807 CONFIRMATION OF THE APPOINTMENT OF WILLIAM T. CULPEPPER, III TO THE UTILITIES COMMISSION. TO THE UTILITIES COMMISSION. Second Reading 5/11/2006 11:31 AM PASSED 107 7 4 2 0 114
1258 H 1868 HB 1868 DEPARTMENT OF CORRECTION EMERGENCY FUNDING. Second Reading 5/11/2006 11:34 AM PASSED 114 0 4 2 0 114
1259 H 1844 HB 1844 EXECUTIVE BRANCH ETHICS ACT - 1. A2 Dollar\Second Reading 5/15/2006 8:08 PM PASSED 77 38 2 2 1 115
1260 H 1844 HB 1844 EXECUTIVE BRANCH ETHICS ACT - 1. Second Reading 5/15/2006 8:27 PM PASSED 113 1 3 2 1 114
1261 H 1844 HB 1844 EXECUTIVE BRANCH ETHICS ACT - 1. A3 Hackney\Third Reading 5/16/2006 3:58 PM PASSED 115 0 1 3 1 115
1262 H 1844 HB 1844 EXECUTIVE BRANCH ETHICS ACT - 1. A4 Stam\Third Reading 5/16/2006 4:00 PM PASSED 114 0 2 3 1 114
1263 H 1844 HB 1844 EXECUTIVE BRANCH ETHICS ACT - 1. A5 Starnes\Third Reading 5/16/2006 4:02 PM PASSED 113 1 2 3 1 114
1264 H 1844 HB 1844 EXECUTIVE BRANCH ETHICS ACT - 1. Third Reading 5/16/2006 4:12 PM PASSED 114 1 1 3 1 115
1265 H 1843 HB 1843 REVISE LEGISLATIVE ETHICS ACT - 1. A1 Sutton\Second Reading 5/17/2006 3:36 PM PASSED 59 58 2 0 1 117
1266 H 1843 HB 1843 REVISE LEGISLATIVE ETHICS ACT - 1. A2 Howard\Second Reading 5/17/2006 4:13 PM PASSED 85 31 3 0 1 116
1267 H 1843 HB 1843 REVISE LEGISLATIVE ETHICS ACT - 1. A3 Faison\Second Reading 5/17/2006 4:18 PM PASSED 95 22 2 0 1 117
1268 H 1843 HB 1843 REVISE LEGISLATIVE ETHICS ACT - 1. A4 Hackney\Second Reading 5/17/2006 4:19 PM PASSED 117 0 2 0 1 117
1269 H 1843 HB 1843 REVISE LEGISLATIVE ETHICS ACT - 1. A5 McGee\Second Reading 5/17/2006 4:21 PM PASSED 117 0 2 0 1 117
1270 H 1843 HB 1843 REVISE LEGISLATIVE ETHICS ACT - 1. A6 Stam\Second Reading 5/17/2006 4:47 PM PASSED 115 0 4 0 1 115
1271 H 1843 HB 1843 REVISE LEGISLATIVE ETHICS ACT - 1. Second Reading 5/17/2006 4:52 PM PASSED 114 3 2 0 1 117
1275 H 1843 HB 1843 REVISE LEGISLATIVE ETHICS ACT - 1. Third Reading\M3 Previous\Question 5/18/2006 11:31 AM PASSED 81 29 4 5 1 110
1276 H 1843 HB 1843 REVISE LEGISLATIVE ETHICS ACT - 1. Third Reading 5/18/2006 11:31 AM PASSED 107 3 4 5 1 110
1277 H 2274 HJR 2274 HONOR ALPHA PHI ALPHA FRATERNITY. Second Reading 5/23/2006 2:42 PM PASSED 113 0 1 6 0 113
1278 H 1892 HB 1892 INTERNAL REVENUE CODE UPDATE. Second Reading 5/24/2006 2:34 PM PASSED 113 0 2 5 0 113
1279 H 1898 HB 1898 S CORPORATIONS INCOME TAX ADJUSTMENTS. Second Reading 5/24/2006 2:40 PM PASSED 112 1 2 5 0 113
1280 H 1915 HB 1915 STREAMLINED SALES TAX AGREEMENT SALES TAX DEFINITIONS/SALES TAX PAYMENTS. PAYMENTS. Second Reading 5/24/2006 2:44 PM PASSED 113 0 2 5 0 113
1281 H 1962 HB 1962 FRANCHISE TAX LOOPHOLE CLOSING. Second Reading 5/24/2006 2:45 PM PASSED 100 13 2 5 0 113
1282 H 1938 HB 1938 AMEND TAXATION OF LOGGING MACHINERY. Second Reading 5/24/2006 2:48 PM PASSED 113 1 1 5 0 114
1283 H 2048 HB 2048 EXPANSION OF ROYALTY REPORTING OPTION. Second Reading 5/24/2006 2:50 PM PASSED 113 0 2 5 0 113
1284 H 2311 HJR 2311 KANNAPOLIS' 100TH ANNIVERSARY. Second Reading 5/25/2006 12:40 PM PASSED 108 0 3 9 0 108
1285 H 1892 HB 1892 INTERNAL REVENUE CODE UPDATE. Third Reading 5/25/2006 12:44 PM PASSED 108 0 3 9 0 108
1286 H 1898 HB 1898 S CORPORATIONS INCOME TAX ADJUSTMENTS. Third Reading 5/25/2006 12:45 PM PASSED 104 2 5 9 0 106
1287 H 1915 HB 1915 STREAMLINED SALES TAX AGREEMENT SALES TAX DEFINITIONS/SALES TAX PAYMENTS. PAYMENTS. Third Reading 5/25/2006 12:46 PM PASSED 106 0 5 9 0 106
1288 H 1847 HB 1847 TREASURER TRAINING. Second Reading 5/25/2006 12:58 PM PASSED 95 14 2 9 0 109
1289 H 1951 HJR 1951 AUTHORIZING RESOLUTION/PROPERTY TAX DUE DATE CHANGE. Second Reading 5/25/2006 1:06 PM PASSED 107 1 3 9 0 108
1290 H 1982 HJR 1982 AUTHORIZING RESOLUTION/EMPLOYERS' PROTEST FILING PERIOD. Second Reading 5/25/2006 1:13 PM PASSED 86 21 3 10 0 107
420 H 818 HB 818 WORKERS COMPENSATION/DRIVERS' STATUS. Second Reading 5/17/2005 4:46 PM PASSED 113 0 3 4 0 113
421 H 926 HB 926 CONCEALING A DEATH/CRIMINAL OFFENSE. Second Reading 5/17/2005 4:56 PM PASSED 112 0 4 4 0 112
422 H 944 HB 944 ADOPT THE SALUTE TO THE NC FLAG. Second Reading 5/17/2005 5:02 PM PASSED 110 2 4 4 0 112
423 H 1102 HB 1102 EARLY PREP FOR ONE-STOP COUNT. Second Reading 5/17/2005 5:04 PM PASSED 110 0 6 4 0 110
424 H 926 HB 926 CONCEALING A DEATH/CRIMINAL OFFENSE. A1 Stam\Third Reading 5/17/2005 5:19 PM PASSED 112 0 4 4 0 112
425 H 926 HB 926 CONCEALING A DEATH/CRIMINAL OFFENSE. Third Reading 5/17/2005 5:20 PM PASSED 112 0 4 4 0 112
426 H 1432 HB 1432 REGISTER OF DEEDS-CERTIFICATIONS. Second Reading 5/17/2005 5:41 PM PASSED 107 0 9 4 0 107
427 H 1467 HB 1467 ATTORNEYS' FEES/TRANSFERS TO MINORS. Second Reading 5/17/2005 5:44 PM PASSED 112 0 4 4 0 112
428 H 1552 HB 1552 NORTH CAROLINA AGRICULTURAL AND TECHNICAL UNIVERSITY CAMPUS PARKING. CAMPUS PARKING. Second Reading 5/17/2005 5:47 PM PASSED 111 0 5 4 0 111
429 H 231 HB 231 STATE CONTROLLER/COMPLIANCE REVIEW/PUBLIC RECORDS. M11 Concur 5/18/2005 4:03 PM PASSED 115 0 2 3 0 115
430 H 92 HB 92 UNIVERSITY OF NORTH CAROLINA/BOARD OF GOVERNORS STUDENT MEMBER VOTE VOTE A3 Allred\Third Reading 5/18/2005 4:24 PM FAILED 49 65 2 3 1 114
431 H 92 HB 92 UNIVERSITY OF NORTH CAROLINA/BOARD OF GOVERNORS STUDENT MEMBER VOTE VOTE Third Reading 5/18/2005 4:25 PM PASSED 82 33 1 3 1 115
234 H 803 HB 803 MANUFACTURED HOUSING LICENSE AMENDMENTS. Second Reading 4/26/2005 3:40 PM PASSED 102 14 0 4 0 116
235 H 387 HB 387 SOCIAL SECURITY NUMBER CAN'T BE STUDENT ID NUMBER. A1 Barnhart\Second Reading 4/26/2005 3:42 PM PASSED 116 0 0 4 0 116
236 H 387 HB 387 SOCIAL SECURITY NUMBER CAN'T BE STUDENT ID NUMBER. Second Reading 4/26/2005 3:44 PM PASSED 116 0 0 4 0 116
237 H 771 HB 771 UNC/DUAL OFFICE HOLDING. Second Reading 4/26/2005 3:57 PM PASSED 76 39 1 4 0 115
238 H 1145 HB 1145 PROBATION STAYED/APPEAL FOR TRIAL DE NOVO. Second Reading 4/26/2005 4:00 PM PASSED 115 1 0 4 0 116
239 H 580 HB 580 CITY OF BELMONT OCCUPANCY TAX. Second Reading 4/26/2005 4:02 PM PASSED 93 22 1 4 0 115
240 H 581 HB 581 BELMONT STREET LIGHTING ASSESSMENTS. Second Reading 4/26/2005 4:05 PM PASSED 108 8 0 4 0 116
241 H 676 HB 676 GOVERNMENT E-COMMERCE/APPROVAL OF FEES. Second Reading 4/26/2005 4:08 PM PASSED 114 2 0 4 0 116
242 H 911 HB 911 STREAMLINE SCHOOL TESTING PROGRAM. Second Reading 4/26/2005 4:11 PM PASSED 116 0 0 4 0 116
243 H 1012 HB 1012 HUNTING AND FISHING ON TRIBAL LAND. A1 Sutton\Second Reading 4/26/2005 4:13 PM PASSED 114 0 2 4 0 114
244 H 1012 HB 1012 HUNTING AND FISHING ON TRIBAL LAND. Second Reading 4/26/2005 4:23 PM PASSED 113 3 0 4 0 116
246 H 580 HB 580 CITY OF BELMONT OCCUPANCY TAX. Third Reading 4/27/2005 4:25 PM PASSED 95 16 3 6 0 111
247 H 581 HB 581 BELMONT STREET LIGHTING ASSESSMENTS. Third Reading 4/27/2005 4:25 PM PASSED 95 16 3 6 0 111
249 H 464 HB 464 WINSTON-SALEM MOTOR VEHICLE TAX INCREASE. Second Reading 4/27/2005 4:28 PM PASSED 86 28 0 6 0 114
342 H 1390 HB 1390 AMEND ALCOHOLIC BEVERAGE CONTROL TRANSPORTATION LIMIT. Second Reading 5/10/2005 4:45 PM PASSED 102 11 2 5 0 113
343 H 1395 HB 1395 AMEND BEAR BAITING PROHIBITION. Second Reading 5/10/2005 4:48 PM PASSED 110 3 2 5 0 113
344 H 1434 HB 1434 ELECTRONIC SIGNATURE UNDER RULE 4. Second Reading 5/10/2005 4:50 PM PASSED 113 0 2 5 0 113
345 H 1500 HB 1500 WINE-TASTING CHANGES. A1 Gibson\Second Reading 5/10/2005 4:58 PM PASSED 68 46 1 5 0 114
346 H 1500 HB 1500 WINE-TASTING CHANGES. Second Reading 5/10/2005 5:01 PM PASSED 73 40 2 5 0 113
347 H 1523 HB 1523 IMPLEMENT COASTAL HABITAT PROTECTION PLAN. Second Reading 5/10/2005 5:04 PM PASSED 107 3 5 5 0 110
348 H 946 HB 946 OSSIPEE/MILLS RIVER BUDGETS. M11 Concur 5/10/2005 5:09 PM PASSED 113 0 2 5 0 113
349 H 489 HB 489 PUBLIC-PRIVATE REIMBURSEMENT AGREEMENTS. C Rpt Adopt 5/11/2005 3:33 PM PASSED 115 0 1 4 0 115
350 H 767 HB 767 ENHANCE MIGRANT HOUSING ACT. Second Reading 5/11/2005 4:05 PM PASSED 89 26 2 3 0 115
351 H 1133 HB 1133 COUNTY GOVERNMENT CRIMINAL RECORDS CHECKS. Second Reading 5/11/2005 4:07 PM PASSED 116 0 1 3 0 116
352 H 1030 HB 1030 INCREASE AIRPORT AUTHORITY POWERS. Second Reading 5/11/2005 4:09 PM PASSED 116 0 1 3 0 116
353 H 105 HB 105 MOTOR FUEL TAX CHANGES. Third Reading 5/11/2005 4:13 PM PASSED 113 3 1 3 0 116
354 H 896 HB 896 STATE BAR/APPEAL/FEE. Second Reading 5/11/2005 4:14 PM PASSED 101 14 2 3 0 115
355 H 1217 HB 1217 NOTARY FEE INCREASE. Second Reading 5/11/2005 4:16 PM FAILED 56 60 1 3 0 116
226 H 570 HB 570 KINGS MOUNTAIN ALCOHOLIC BEVERAGE CONTROL BOARD PROFIT DISTRIBUTION. DISTRIBUTION. Second Reading 4/21/2005 10:32 AM PASSED 105 0 5 10 0 105
227 H 997 HB 997 INCREASE DAVIE COUNTY FORCE ACCOUNT LIMIT. Second Reading 4/21/2005 10:34 AM PASSED 105 0 6 9 0 105
228 H 1056 HB 1056 AMEND CARTERET COUNTY OCCUPANCY TAX. Second Reading 4/21/2005 10:35 AM PASSED 96 10 5 9 0 106
229 H 736 HB 736 CODE ENFORCEMENT OFFICIAL EXAM FEES. Third Reading 4/21/2005 10:37 AM PASSED 92 13 6 9 0 105
230 H 766 HB 766 ENHANCE PASSENGER TRAMWAY SAFETY ACT. Third Reading 4/21/2005 10:39 AM PASSED 106 0 5 9 0 106
231 H 1032 HB 1032 PLACING STUDENTS IN SECLUSION. A2 Stam\Third Reading 4/21/2005 10:43 AM PASSED 107 0 4 9 0 107
232 H 1032 HB 1032 PLACING STUDENTS IN SECLUSION. Third Reading 4/21/2005 10:44 AM PASSED 106 1 4 9 0 107
233 H 1562 HR 1562 HONOR THE MEMORY OF JOHN DEERE AND RECOGNIZING THE CONTRIBUTIONS OF DEERE AND COMPANY. CONTRIBUTIONS OF DEERE AND COMPANY. Second Reading 4/26/2005 3:36 PM PASSED 116 0 0 4 0 116
328 H 105 HB 105 MOTOR FUEL TAX CHANGES. Second Reading 5/10/2005 3:55 PM PASSED 105 9 1 5 0 114
329 H 734 HB 734 IMPROVE MANAGED CARE STATUTES. Third Reading 5/10/2005 3:56 PM PASSED 113 0 2 5 0 113
330 H 16 HB 16 SCHOOL CURRICULUM SHALL INCLUDE FINANCIAL LITERACY. Second Reading 5/10/2005 3:59 PM PASSED 114 0 1 5 0 114
331 H 413 HB 413 GLOBAL EDUCATION FOR STUDENTS/STUDY. Second Reading 5/10/2005 4:01 PM PASSED 114 1 0 5 0 115
332 H 658 HB 658 CODE OFFICIALS PROFESSIONALISM. Second Reading 5/10/2005 4:03 PM PASSED 115 0 0 5 0 115
333 H 672 HB 672 REDUCE HOLDING PERIOD FOR UNCLAIMED PROPERTY. Second Reading 5/10/2005 4:09 PM PASSED 104 11 0 5 0 115
334 H 774 HJR 774 HONOR DISMAL SWAMP CANAL 200TH ANNIVERSARY. Second Reading 5/10/2005 4:16 PM PASSED 115 0 0 5 0 115
335 H 800 HB 800 STATE CONTRACTS/REPORT OUTSOURCING. A1 Glazier\Second Reading 5/10/2005 4:19 PM PASSED 115 0 0 5 0 115
336 H 916 HB 916 HEMOPHILIA DRUGS/EXTEND SUNSET ON PRIOR AUTHORIZATION. Second Reading 5/10/2005 4:26 PM PASSED 115 0 0 5 0 115
337 H 1150 HB 1150 EXPEDITE JUVENILE PROCEEDINGS/GUARDIANS AD LITEM. LITEM. Second Reading 5/10/2005 4:28 PM PASSED 114 0 1 5 0 114
338 H 1237 HB 1237 CHANGE LOCAL GOVERNMENTAL RETIREMENT BOARD. Second Reading 5/10/2005 4:34 PM PASSED 110 4 1 5 0 114
339 H 1319 HB 1319 AMEND FAMILY LAW ARBITRATION ACT. Second Reading 5/10/2005 4:36 PM PASSED 114 0 1 5 0 114
340 H 1320 HB 1320 DISCLOSE MONETARY TRANSMISSIONS. Second Reading 5/10/2005 4:40 PM PASSED 113 0 2 5 0 113
341 H 1389 HB 1389 CLARIFY WINERIES WHOLESALE LICENSE. Second Reading 5/10/2005 4:43 PM PASSED 113 1 1 5 0 114
419 H 569 HB 569 DOMESTIC VIOLENCE RECOMMENDATIONS. Second Reading 5/17/2005 4:27 PM PASSED 115 0 1 4 0 115
500 H 583 HB 583 COMMUNITY COLLEGE/LEAD AGENCY FOR JOB TRAINING. M11 Concur 5/26/2005 1:35 PM PASSED 115 0 1 4 0 115
555 H 1095 HB 1095 ENVIRONMENTAL REPORTS AMENDMENTS. Second Reading 5/31/2005 5:48 PM PASSED 112 0 4 4 0 112
1248 H 248 HB 248 METHAMPHETAMINE LAB PREVENTION ACT. M11 Concur 8/31/2005 1:21 PM PASSED 109 0 2 9 0 109
501 H 470 HB 470 TRANSYLVANIA OCCUPANCY TAX. Second Reading 5/26/2005 1:37 PM PASSED 91 23 2 4 0 114
502 H 629 HB 629 OPTION TO FREEZE CREDIT REPORT. Third Reading 5/26/2005 1:42 PM PASSED 113 0 3 4 0 113
503 H 1281 HB 1281 COUNTY CONTROL/NOXIOUS AQUATIC WEEDS. Second Reading 5/26/2005 1:45 PM PASSED 113 0 2 5 0 113
504 H 140 HJR 140 HONOR TOWN OF FRANKLIN 150TH ANNIVERSARY. Second Reading 5/26/2005 1:53 PM PASSED 114 0 1 5 0 114
505 H 635 HB 635 PUBLIC COMMENT AT LOCAL BOARD MEETINGS. A1 Glazier\Second Reading 5/26/2005 1:56 PM PASSED 113 0 2 5 0 113
506 H 635 HB 635 PUBLIC COMMENT AT LOCAL BOARD MEETINGS. Second Reading\M8 Re-Refer\Local\Government II 5/26/2005 2:05 PM FAILED 37 75 3 5 0 112
507 H 635 HB 635 PUBLIC COMMENT AT LOCAL BOARD MEETINGS. Second Reading 5/26/2005 2:06 PM PASSED 88 25 2 5 0 113
508 H 657 HB 657 BROKER COMPENSATION TRANSPARENCY. Second Reading 5/26/2005 2:15 PM PASSED 111 2 2 5 0 113
509 H 1086 HB 1086 GENERAL ASSEMBLY POLICE JURISDICTION. A1 Culpepper\Second Reading 5/26/2005 2:23 PM PASSED 110 0 5 5 0 110
510 H 1086 HB 1086 GENERAL ASSEMBLY POLICE JURISDICTION. Second Reading\M3 Previous\Question 5/26/2005 2:25 PM PASSED 99 10 6 5 0 109
511 H 1086 HB 1086 GENERAL ASSEMBLY POLICE JURISDICTION. Second Reading 5/26/2005 2:25 PM PASSED 110 0 5 5 0 110
512 H 1087 HB 1087 CLARIFY DEFINITION OF SOCIAL WORKER. Second Reading\M3 Previous\Question 5/26/2005 2:32 PM PASSED 68 39 7 6 0 107
513 H 1087 HB 1087 CLARIFY DEFINITION OF SOCIAL WORKER. Second Reading 5/26/2005 2:33 PM PASSED 81 28 5 6 0 109
556 H 1096 HB 1096 ENVIRONMENTAL TECHNICAL CORRECTIONS. Second Reading 5/31/2005 5:50 PM PASSED 112 0 4 4 0 112
557 H 1099 HB 1099 BROWNFIELDS PROPERTY REUSE ACT AMENDMENTS. Second Reading 5/31/2005 5:53 PM PASSED 114 0 3 3 0 114
558 H 877 HB 877 FORECLOSURE NOTICE OF SALE/DISPOSITION OF PROCEEDS. PROCEEDS. A1 Stam\Third Reading 5/31/2005 5:56 PM PASSED 115 0 2 3 0 115
559 H 877 HB 877 FORECLOSURE NOTICE OF SALE/DISPOSITION OF PROCEEDS. PROCEEDS. Third Reading 5/31/2005 5:57 PM PASSED 114 0 3 3 0 114
560 H 1240 HB 1240 VACATION RENTAL ACT AMENDMENTS. Second Reading 5/31/2005 5:59 PM PASSED 114 0 3 3 0 114
561 H 1343 HB 1343 HEALTH INSURERS/PROMPT PAY CORRECTION. Second Reading 5/31/2005 6:01 PM PASSED 115 0 2 3 0 115
562 H 1346 HB 1346 INTERSTATE COMPACT FOR JUVENILES. Second Reading 5/31/2005 6:04 PM PASSED 115 0 1 4 0 115
563 H 1385 HB 1385 UNDERGROUND STORAGE TANK AMENDMENTS. Second Reading 5/31/2005 6:18 PM PASSED 97 14 5 4 0 111
564 H 1417 HB 1417 REVISE JUDICIAL STANDARDS COMMISSION. Second Reading 5/31/2005 6:21 PM PASSED 115 0 1 4 0 115
565 H 1436 HB 1436 DEATH PENALTY/ADD AGGRAVATING FACTOR. Second Reading 5/31/2005 6:22 PM PASSED 112 1 3 4 0 113
566 H 1466 HB 1466 EXPLOITATION/ELDERLY OR DISABLED ADULT. Second Reading 5/31/2005 6:24 PM PASSED 115 0 1 4 0 115
567 H 1489 HB 1489 INDECENT EXPOSURE/INCREASE PENALTY. Second Reading 5/31/2005 6:28 PM PASSED 115 0 1 4 0 115
568 H 1527 HB 1527 CLARIFY MOTOR VEHICLE DEALER FRANCHISE LAWS. Second Reading 5/31/2005 6:32 PM PASSED 115 0 1 4 0 115
804 H 1084 HB 1084 EXPUNGE NONVIOLENT FELONIES/YOUNG OFFENDERS. A4 Stiller\Third Reading 7/7/2005 1:09 PM PASSED 99 9 6 6 0 108
805 H 1084 HB 1084 EXPUNGE NONVIOLENT FELONIES/YOUNG OFFENDERS. Third Reading 7/7/2005 1:45 PM PASSED 59 52 3 6 0 111
1171 H 716 HB 716 STUDY EMPLOYEE MEDIATION/OFFICE OF ADMINISTRATIVE HEARINGS TIME FRAME. TIME FRAME. A1 Stam\Second Reading 8/23/2005 8:59 PM PASSED 112 0 6 2 0 112
1172 H 716 HB 716 STUDY EMPLOYEE MEDIATION/OFFICE OF ADMINISTRATIVE HEARINGS TIME FRAME. TIME FRAME. Second Reading 8/23/2005 8:59 PM PASSED 113 0 5 2 0 113
1173 H 576 HB 576 PROCUREMENT OF PROFESSIONAL SERVICES. C Rpt Adopt 8/23/2005 8:59 PM PASSED 117 0 1 2 0 117
1174 H 99 HB 99 AMEND WORKERS' COMPENSATION ACT. M11 Concur 8/23/2005 8:59 PM PASSED 101 9 7 2 1 110
1175 H 1349 HB 1349 RAISE CEILING ON FEES/BOARD OF PHARMACY. Sen. Amend. #1\R2 Ruled Mat'l\M11 Concur 8/23/2005 8:59 PM PASSED 97 15 6 2 0 112
1177 H 1330 HB 1330 AMEND ELECTROLYSIS PRACTICE ACT/FEES. Second Reading 8/23/2005 8:59 PM PASSED 98 18 2 2 0 116
1181 H 1349 HB 1349 RAISE CEILING ON FEES/BOARD OF PHARMACY. Sen. Amend. #1\R3 Ruled Mat'l\M11 Concur 8/24/2005 12:23 AM PASSED 91 22 4 3 0 113
1182 H 1330 HB 1330 AMEND ELECTROLYSIS PRACTICE ACT/FEES. A1 Glazier\Third Reading 8/24/2005 12:25 AM PASSED 111 2 4 3 0 113
1183 H 1330 HB 1330 AMEND ELECTROLYSIS PRACTICE ACT/FEES. Third Reading 8/24/2005 12:29 AM PASSED 93 20 4 3 0 113
1193 H 876 HB 876 HAYWOOD COUNTY SALES TAX. Second Reading 8/24/2005 1:05 AM PASSED 87 29 1 3 0 116
1189 H 88 HB 88 ELECTORAL FAIRNESS ACT. Third Reading 8/24/2005 1:01 AM PASSED 89 23 5 3 0 112
1190 H 474 HB 474 MILL REHABILITATION TAX CREDIT. Third Reading 8/24/2005 1:02 AM PASSED 106 3 7 3 1 109
1191 H 1413 HB 1413 ENHANCE LOCAL GOVERNMENTS ADMINISTER OF ENVIRONMENTAL PROGRAMS. Third Reading 8/24/2005 1:03 AM PASSED 88 28 1 3 0 116
813 H 196 HB 196 OXFORD WEEDED LOT ORDINANCE. M11 Concur 7/11/2005 7:16 PM PASSED 100 0 5 15 0 100
814 H 1051 HB 1051 MACON-JACKSON REGIONAL AIRPORT AUTHORITY. A1 Haire\Third Reading 7/11/2005 7:17 PM PASSED 98 0 7 15 0 98
815 H 1051 HB 1051 MACON-JACKSON REGIONAL AIRPORT AUTHORITY. Third Reading 7/11/2005 7:18 PM PASSED 100 0 5 15 0 100
819 H 1786 HJR 1786 HONOR TOWN OF GODWIN ON THE TOWN'S 100TH ANNIVERSARY. Second Reading 7/12/2005 2:37 PM PASSED 113 0 3 4 0 113
820 H 254 HB 254 GRANT ANTICIPATION REVENUE VEHICLE BOND ISSUANCE. Second Reading 7/12/2005 2:42 PM PASSED 111 2 3 4 0 113
821 H 1327 HB 1327 CRIMINAL RECORD CHECKS/PSYCHOLOGY PRACTICE ACT. Second Reading 7/12/2005 2:43 PM PASSED 114 0 2 4 0 114
830 H 654 HB 654 CONFIDENTIAL INSURANCE MARKET/FINANCIAL DOCUMENTS M11 Concur 7/13/2005 3:44 PM PASSED 114 0 0 6 0 114
831 H 1032 HB 1032 PLACING STUDENTS IN SECLUSION. M11 Concur 7/13/2005 3:45 PM PASSED 112 1 1 6 0 113
832 H 254 HB 254 GRANT ANTICIPATION REVENUE VEHICLE BOND ISSUANCE. Third Reading 7/13/2005 3:48 PM PASSED 112 2 0 6 0 114
833 H 687 HB 687 PIRATING MOVIES. Second Reading 7/13/2005 3:52 PM PASSED 112 0 2 6 0 112
655 H 1630 HB 1630 2005 CONTINUING BUDGET AUTHORITY/ REVENUE. Second Reading 6/8/2005 3:39 PM PASSED 62 56 1 1 0 118
837 H 1327 HB 1327 CRIMINAL RECORD CHECKS/PSYCHOLOGY PRACTICE ACT. Third Reading 7/13/2005 3:50 PM PASSED 114 0 0 6 0 114
1072 H 1310 HB 1310 TESTING REQUIREMENTS/TEACHER EDUCATION STUDENTS. M11 Concur 8/22/2005 9:59 PM PASSED 114 0 3 3 0 114
1073 H 1316 HB 1316 FRASER FIR OFFICIAL CHRISTMAS TREE. M11 Concur 8/22/2005 9:59 PM PASSED 110 3 4 3 0 113
1074 H 1318 HB 1318 CONSIDER TAX CONSEQUENCES/EQUITABLE DISTRIBUTION. M11 Concur 8/22/2005 9:59 PM PASSED 115 0 2 3 0 115
1075 H 1357 HB 1357 AMEND ACUPUNCTURE LAWS/FEES. M11 Concur 8/22/2005 9:59 PM PASSED 101 14 2 3 0 115
1076 H 1375 HB 1375 CHILD SUPPORT REFORMS. M11 Concur 8/22/2005 9:59 PM PASSED 112 0 5 3 0 112
1077 H 1404 HB 1404 SEIZURE OF DOCUMENTS AND PLATES. M11 Concur 8/22/2005 9:59 PM PASSED 114 0 3 3 0 114
1078 H 1429 HB 1429 WINE SHIPPER FEE/WINE PRIMARY SOURCE. M11 Concur 8/22/2005 9:59 PM PASSED 101 13 2 3 1 114
1079 H 1465 HB 1465 DISPOSAL IN LANDFILLS/ADDITIONAL BANS. SEN. AMEND. #1\M11 Concur 8/22/2005 9:59 PM PASSED 112 1 4 3 0 113
1080 H 1465 HB 1465 DISPOSAL IN LANDFILLS/ADDITIONAL BANS. SEN. AMEND. #2\M11 Concur 8/22/2005 9:59 PM PASSED 115 0 2 3 0 115
1081 H 1468 HB 1468 TELECOMMUNICATION SERVICE PROVIDERS. M11 Concur 8/22/2005 9:59 PM PASSED 114 0 3 3 0 114
1082 H 1491 HB 1491 INSURANCE FOR SCHOOL SOCIAL WORKERS. M11 Concur 8/22/2005 9:59 PM PASSED 112 0 5 3 0 112
1083 H 1493 HB 1493 PHARMACY QUALITY ASSURANCE PROTECTION ACT. M11 Not Concur 8/22/2005 9:59 PM PASSED 115 0 2 3 0 115
1084 H 1517 HB 1517 CLARIFY DEFINITION OF CHILD CARE. M11 Concur 8/22/2005 9:59 PM PASSED 114 0 3 3 0 114
1085 H 1518 HB 1518 ALCOHOLIC BEVERAGE CONTROL LICENSEES TO RECYCLE BEVERAGE CONTAINERS. CONTAINERS. M11 Concur 8/22/2005 9:59 PM PASSED 107 7 3 3 0 114
1086 H 1543 HB 1543 AUTOPSY PHOTOS NOT PUBLIC RECORD. M11 Concur 8/22/2005 9:59 PM PASSED 108 7 2 3 0 115
1087 H 888 HB 888 COCKFIGHTING/INCREASE PENALTY. M11 Concur 8/22/2005 9:59 PM PASSED 105 7 5 3 0 112
1088 H 50 HB 50 STREET GANG PREVENTION ACT. Comm. Amend #1\Second Reading 8/22/2005 9:59 PM PASSED 110 2 5 3 0 112
1089 H 50 HB 50 STREET GANG PREVENTION ACT. A2 Michaux\Second Reading 8/22/2005 9:59 PM PASSED 106 8 3 3 0 114
1090 H 50 HB 50 STREET GANG PREVENTION ACT. Second Reading 8/22/2005 9:59 PM PASSED 112 1 4 3 0 113
1091 H 1415 HB 1415 REPORT DENIAL OF SOME PISTOL PERMITS. A1 Sutton\Second Reading 8/22/2005 9:59 PM PASSED 111 2 4 3 0 113
1092 H 1415 HB 1415 REPORT DENIAL OF SOME PISTOL PERMITS. A2 Sutton\Second Reading 8/22/2005 9:59 PM PASSED 114 0 3 3 0 114
1093 H 1415 HB 1415 REPORT DENIAL OF SOME PISTOL PERMITS. Second Reading\M12 Suspend\Rules 8/22/2005 9:59 PM PASSED 101 11 5 3 0 112
1094 H 1415 HB 1415 REPORT DENIAL OF SOME PISTOL PERMITS. A3 Sherrill\Second Reading 8/22/2005 9:59 PM PASSED 106 6 5 3 0 112
1095 H 1415 HB 1415 REPORT DENIAL OF SOME PISTOL PERMITS. Second Reading 8/22/2005 9:59 PM PASSED 107 7 3 3 0 114
931 H 1466 HB 1466 EXPLOITATION/ELDERLY OR DISABLED ADULT. M11 Concur\Sen. Amd. 1 8/1/2005 7:22 PM PASSED 98 0 6 16 0 98
1796 H 966 HB 966 CANDIDATE-SPECIFIC COMMUNICATIONS. M11 Concur 7/26/2006 5:58 PM PASSED 79 32 1 8 0 111
118 H 752 HB 752 NORTH CAROLINA STATE UNIVERSITY DAIRY SALES. Third Reading 4/7/2005 2:37 PM PASSED 114 0 3 3 0 114
119 H 127 HB 127 STATE EMPLOYEE POLL WORKERS. Second Reading 4/7/2005 2:39 PM PASSED 109 4 4 3 0 113
120 H 664 HB 664 CRIME TO FALSIFY HIGHWAY INSPECTION REPORTS. Second Reading 4/7/2005 2:41 PM PASSED 113 0 4 3 0 113
121 H 702 HB 702 PERSONAL WATERCRAFT CHANGES. Second Reading 4/7/2005 2:43 PM PASSED 99 12 6 3 0 111
122 H 804 HB 804 ORDER OF PAYMENT/EQUITABLE DISTRIBUTION. Second Reading 4/7/2005 2:44 PM PASSED 112 0 5 3 0 112
123 H 821 HB 821 EVIDENCE/SPEED-MEASURING INSTRUMENTS. Second Reading 4/7/2005 2:47 PM PASSED 112 0 5 3 0 112
124 H 862 HB 862 PROHIBIT REMOVAL OF ELECTRONIC COLLARS. Second Reading 4/7/2005 2:51 PM PASSED 112 0 5 3 0 112
125 H 888 HB 888 COCKFIGHTING/INCREASE PENALTY. Second Reading 4/7/2005 2:58 PM PASSED 106 7 4 3 0 113
126 H 933 HJR 933 HONOR CAROLYN AND DOROTHY MCNAIRY. Second Reading 4/11/2005 7:37 PM PASSED 110 0 3 7 0 110
127 H 841 HJR 841 HONOR THADDEUS LOVE ON THE 150TH ANNIVERSARY OF THE TOWN OF WARSAW. WARSAW. Second Reading 4/12/2005 2:26 PM PASSED 117 0 1 2 0 117
1804 H 1048 HB 1048 GOVERNOR'S DWI TASK FORCE RECOMMENDATIONS. C Rpt Adopt 7/26/2006 7:11 PM PASSED 109 0 3 8 0 109
1805 H 1942 HB 1942 VERIFY PUBLIC EMPLOYEE LEGAL STATUS/FUNDS. A2 Cleveland\Third Reading 7/26/2006 8:59 PM PASSED 105 0 5 10 0 105
1806 H 1942 HB 1942 VERIFY PUBLIC EMPLOYEE LEGAL STATUS/FUNDS. Third Reading 7/26/2006 8:59 PM PASSED 104 2 4 10 0 106
1807 H 1896 HB 1896 PROTECT CHILDREN/SEX OFFENDER LAW CHANGES. R2 Ruled Mat'l\C Rpt Adopt 7/26/2006 8:59 PM PASSED 107 0 3 10 0 107
1808 H 267 HB 267 8-YEAR DRIVERS LICENSE RENEWAL. M11 Concur 7/26/2006 8:59 PM PASSED 108 0 2 10 0 108
1809 H 1896 HB 1896 PROTECT CHILDREN/SEX OFFENDER LAW CHANGES. R3 Ruled Mat'l\C Rpt Adopt 7/27/2006 9:55 AM PASSED 108 0 2 10 0 108
1810 H 1825 HB 1825 DOT SECONDARY ROAD FORMULA CHANGE. C Rpt Adopt 7/27/2006 10:08 AM PASSED 90 18 3 9 0 108
1816 H 128 HB 128 ELECTION CHANGES. C Rpt Adopt 7/27/2006 11:27 AM PASSED 107 0 4 9 0 107
1817 H 1843 HB 1843 STATE GOVERNMENT ETHICS ACT - 1. C Rpt Adopt 7/27/2006 2:05 PM PASSED 109 1 1 8 1 110
1818 H 749 HB 749 DOT AGREEMENTS/NO STICKER FEE/LTD. DRIV. PRIV. M11 Not Concur 7/27/2006 2:11 PM PASSED 108 0 4 8 0 108
1819 H 2881 HB 2881 IDENTITY THEFT. A1 Moore\Third Reading 7/27/2006 4:38 PM PASSED 101 4 3 12 0 105
1820 H 643 HB 643 INTERCHANGE DISTRICTS. C Rpt Adopt 7/27/2006 5:25 PM PASSED 106 0 2 12 0 106
195 H 678 HB 678 UNC SERVICE CONTRACTS. Second Reading 4/14/2005 12:47 PM PASSED 103 1 2 14 0 104
196 H 705 HB 705 PRESENT-USE VALUE BUYOUT CREDITS. Second Reading 4/14/2005 12:49 PM PASSED 104 0 2 14 0 104
197 H 740 HB 740 TRANSIT DRUG TESTING. Second Reading 4/14/2005 12:53 PM PASSED 104 0 2 14 0 104
198 H 780 HB 780 NEED-BASED NURSING SCHOLARSHIPS. Second Reading 4/14/2005 12:55 PM PASSED 104 0 2 14 0 104
199 H 891 HB 891 MASTER KEYS/LOCK-PICKING DEVICES REGULATED. Second Reading 4/18/2005 7:29 PM PASSED 106 0 5 9 0 106
200 H 986 HB 986 GREENVILLE/SURF CITY/WINDSOR SATELLITE ANNEXATIONS. Third Reading 4/18/2005 7:30 PM PASSED 106 0 5 9 0 106
933 H 1779 HB 1779 PROPERTY TAX PAID WITH VEHICLE REGISTRATION. A1 Folwell\Third Reading 8/1/2005 7:25 PM PASSED 98 0 6 16 0 98
934 H 1779 HB 1779 PROPERTY TAX PAID WITH VEHICLE REGISTRATION. A2 Cole\Third Reading 8/1/2005 7:27 PM PASSED 97 1 6 16 0 98
935 H 1779 HB 1779 PROPERTY TAX PAID WITH VEHICLE REGISTRATION. Third Reading 8/1/2005 7:28 PM PASSED 97 0 7 16 0 97
949 H 688 HB 688 CERTIFY ON-SITE WASTEWATER CONTRACTORS. Third Reading 8/4/2005 2:18 PM PASSED 109 3 0 8 0 112
950 H 237 HB 237 REVISE MORTGAGE LENDING ACT. Second Reading 8/4/2005 2:20 PM PASSED 112 0 0 8 0 112
292 H 699 HB 699 STATE PROPERTY/GOVERNMENTAL OPERATIONS NOTICE. Sen. Amend. #1\M11 Concur 5/4/2005 4:26 PM PASSED 106 8 5 1 0 114
755 H 1284 HB 1284 IMPROVE REAL ESTATE LICENSING LAW. Third Reading 6/29/2005 1:41 PM PASSED 118 0 2 0 0 118
1370 H 2195 HB 2195 LIABILITY PROTECTION FOR STATE MEDICAL ASSISTANCE TEAMS. Second Reading 6/15/2006 11:31 AM PASSED 113 0 3 4 0 113
1371 H 2439 HB 2439 LONG-TERM DISABILITY AMENDMENT. Second Reading 6/15/2006 11:38 AM PASSED 116 0 0 4 0 116
1372 H 2887 HJR 2887 HONOR CANES FOR STANLEY CUP WIN. Second Reading 6/20/2006 2:37 PM PASSED 115 0 1 4 0 115
1373 H 1820 HB 1820 STEM SATELLITE ANNEXATIONS. A1 Williams\Third Reading 6/20/2006 2:41 PM PASSED 113 0 3 4 0 113
1374 H 1820 HB 1820 STEM SATELLITE ANNEXATIONS. A2 Allen, L.\Third Reading 6/20/2006 2:42 PM PASSED 115 0 1 4 0 115
1375 H 2289 HB 2289 ASHEVILLE FRANCHISE TAX AMENDMENT. Third Reading 6/20/2006 2:43 PM PASSED 114 0 2 4 0 114
1376 H 1993 HB 1993 VARIOUS SPECIAL LICENSE PLATES. Third Reading 6/20/2006 3:05 PM PASSED 108 7 1 4 0 115
1377 H 1896 HB 1896 SEX OFFENDER REGISTRATION CHANGES. Second Reading 6/20/2006 3:30 PM PASSED 115 0 1 4 0 115
1378 H 2891 HJR 2891 HONOR CANES. Second Reading 6/21/2006 1:48 PM PASSED 118 0 0 2 0 118
1379 H 677 HB 677 TREASURER'S DESIGNEE ON COMMUNITY COLLEGE BOARD. M11 Concur 6/21/2006 2:18 PM PASSED 112 0 6 2 0 112
37 H 7 HB 7 URBAN MOBILITY NEEDS STUDY COMMITTEE. Second Reading 3/2/2005 4:03 PM PASSED 110 1 2 7 0 111
39 H 75 HB 75 HENDERSON JUNKED/ABANDONED VEHICLES. Second Reading 3/3/2005 11:17 AM PASSED 106 2 4 8 0 108
40 H 213 HJR 213 HONOR HAROLD LILLARD KENNEDY, JR. Second Reading 3/3/2005 11:34 AM PASSED 108 0 4 8 0 108
41 H 398 HJR 398 HONOR TOWN OF COATS 100TH ANNIVERSARY. Second Reading 3/3/2005 11:47 AM PASSED 109 0 3 8 0 109
42 H 453 HJR 453 HONOR THE FOUNDERS OF THE CIAA BASKETBALL TOURNAMENT/ 60TH ANNIVERSARY. 60TH ANNIVERSARY. Second Reading 3/3/2005 12:01 PM PASSED 109 0 3 8 0 109
43 H 128 HB 128 EARLY PREP FOR ABSENTEE COUNT. Second Reading 3/3/2005 12:10 PM PASSED 108 0 4 8 0 108
44 H 320 HB 320 PROHIBIT SALE OF DOROTHEA DIX PROPERTY. Second Reading 3/3/2005 12:23 PM PASSED 102 6 4 8 0 108
45 H 497 HJR 497 HONOR THE TOWN OF BATH, NC ON ITS 300TH ANNIVERSARY. Viva Voce Per Art. 6, Sec. 5 NC Viva Voce Per Art. 6, Sec. 5 NC Constitution. Second Reading 3/8/2005 11:32 AM PASSED 77 0 16 27 0 77
51 H 27 HB 27 ESC HEARINGS ACCOMMODATE BUSINESS ACTIVITIES. Second Reading 3/15/2005 4:27 PM PASSED 116 0 1 3 0 116
52 H 45 HB 45 ADULT PROTECTIVE SERVICES TASK FORCE/COLLABORATE. Second Reading 3/15/2005 4:36 PM PASSED 117 0 1 2 0 117
53 H 99 HB 99 FORESTRY SPECIAL PLATE BACKGROUND. Second Reading 3/15/2005 4:39 PM PASSED 112 4 2 2 0 116
54 H 217 HB 217 DRIVING FROM/LEAVING SCENE OF ACCIDENT. Second Reading 3/16/2005 4:47 PM PASSED 112 4 0 4 0 116
56 H 317 HB 317 WACO TOWN CENTER. Second Reading 3/17/2005 12:26 PM PASSED 107 5 2 5 0 112
113 H 1113 HJR 1113 HONOR JAMES ALLEN "JIM" GRAHAM FORMER STATE COMMISSIONER OF AGRICULTURE AGRICULTURE Second Reading 4/7/2005 2:09 PM PASSED 114 0 3 3 0 114
114 H 1118 HJR 1118 HONOR JUNE ELIZABETH KAY CAMPBELL FORMER CIVIL RIGHTS LEADER Second Reading 4/7/2005 2:28 PM PASSED 113 0 4 3 0 113
115 H 1118 HJR 1118 HONOR JUNE ELIZABETH KAY CAMPBELL FORMER CIVIL RIGHTS LEADER Third Reading 4/7/2005 2:29 PM PASSED 110 0 7 3 0 110
202 H 678 HB 678 UNC SERVICE CONTRACTS. Third Reading 4/18/2005 7:33 PM PASSED 103 1 7 9 0 104
203 H 75 HB 75 HENDERSON JUNKED/ABANDONED VEHICLES. M11 Concur 4/19/2005 3:51 PM PASSED 113 2 5 0 0 115
204 H 415 HB 415 MAKE UP INSTRUCTIONAL DAYS/HURRICANES. Second Reading 4/19/2005 3:57 PM PASSED 120 0 0 0 0 120
205 H 665 HB 665 AMEND HOUSE MOVER LAWS. Second Reading 4/19/2005 3:59 PM PASSED 119 0 1 0 0 119
206 H 666 HB 666 HIGH OCCUPANCY VEHICLE LANE PENALTIES. Second Reading 4/19/2005 4:01 PM PASSED 111 7 2 0 0 118
207 H 744 HJR 744 HONOR JACQUELINE CARSON "JACKIE" TORRANCE. Second Reading 4/19/2005 4:15 PM PASSED 119 0 1 0 0 119
208 H 761 HB 761 MOTOR CARRIER AMENDMENTS. Second Reading 4/19/2005 4:16 PM PASSED 119 0 1 0 0 119
293 H 35 HB 35 ALCOHOL AND DRUG EDUCATION TRAFFIC SCHOOL/FEE/QUALIFICATIONS INCREASE. INCREASE. Second Reading 5/4/2005 4:29 PM PASSED 113 2 4 1 0 115
294 H 733 HB 733 LICENSE INSURANCE STATISTICAL ORGANIZATIONS. A1 Holliman\Second Reading 5/4/2005 4:31 PM PASSED 115 0 4 1 0 115
295 H 733 HB 733 LICENSE INSURANCE STATISTICAL ORGANIZATIONS. Second Reading 5/4/2005 4:32 PM PASSED 110 4 5 1 0 114
296 H 923 HB 923 AMEND POSTSEPARATION SUPPORT LAWS. Second Reading 5/4/2005 4:34 PM PASSED 115 0 4 1 0 115
297 H 988 HB 988 PROPERTY TAX - VALUE OF MOTOR VEHICLES. Second Reading 5/4/2005 4:36 PM PASSED 116 0 3 1 0 116
298 H 1194 HB 1194 PHYSICAL THERAPISTS/PROFESSIONAL CORPORATIONS. Second Reading 5/4/2005 4:39 PM PASSED 116 0 3 1 0 116
299 H 1230 HB 1230 LOCAL GOVERNMENT OBSOLETE PROPERTY DONATIONS. A1 Stam\Second Reading 5/4/2005 4:43 PM PASSED 115 1 3 1 0 116
300 H 1230 HB 1230 LOCAL GOVERNMENT OBSOLETE PROPERTY DONATIONS. Second Reading 5/4/2005 4:43 PM PASSED 115 0 4 1 0 115
301 H 116 HB 116 PROPERTY TAX CHANGES. Third Reading 5/4/2005 4:49 PM PASSED 114 0 5 1 0 114
1354 H 1820 HB 1820 STEM SATELLITE ANNEXATIONS. Second Reading 6/15/2006 10:54 AM PASSED 113 0 3 4 0 113
1355 H 2289 HB 2289 ASHEVILLE FRANCHISE TAX AMENDMENT. Second Reading 6/15/2006 10:54 AM PASSED 113 0 3 4 0 113
1356 H 1901 HB 1901 STATESVILLE PROPERTY. A1 Ray\Second Reading 6/15/2006 10:57 AM PASSED 114 1 1 4 0 115
1357 H 1901 HB 1901 STATESVILLE PROPERTY. Second Reading 6/15/2006 10:57 AM PASSED 114 0 2 4 0 114
1358 H 2110 HB 2110 REPEAL CRAVEN HOSPITAL LOCAL ACTS. Second Reading 6/15/2006 11:01 AM PASSED 115 0 1 4 0 115
1359 H 1825 HB 1825 DOT SECONDARY ROAD FORMULA CHANGE. Second Reading 6/15/2006 11:03 AM PASSED 113 1 2 4 0 114
1360 H 1834 HB 1834 DOT PERFORMANCE-BASED MAINTENANCE CONTRACT BONDS. Second Reading 6/15/2006 11:07 AM PASSED 115 0 1 4 0 115
1361 H 1835 HB 1835 DOT CONTRACT PROVISION CHANGES. Second Reading 6/15/2006 11:10 AM PASSED 116 0 0 4 0 116
1363 H 1864 HB 1864 ENSURE FAIR COMPETITION IN SCHOOL ATHLETICS. Second Reading 6/15/2006 11:11 AM PASSED 110 3 3 4 0 113
1364 H 2527 HB 2527 CHEROKEE SCHOOL ATTENDANCE. Second Reading 6/15/2006 11:11 AM PASSED 110 3 3 4 0 113
1365 H 1993 HB 1993 VARIOUS SPECIAL LICENSE PLATES. Second Reading 6/15/2006 11:17 AM PASSED 103 12 1 4 0 115
1366 H 1974 HB 1974 REEMPLOYMENT OF CERTAIN RETIRED EMPLOYEES. Second Reading 6/15/2006 11:18 AM PASSED 114 0 2 4 0 114
1367 H 2059 HB 2059 LONG-TERM CARE FINES POSTED ON INTERNET. Second Reading 6/15/2006 11:21 AM PASSED 114 0 2 4 0 114
1368 H 2098 HB 2098 PROTECTION OF ANIMALS. Second Reading 6/15/2006 11:24 AM PASSED 115 0 1 4 0 115
1812 H 643 HB 643 INTERCHANGE DISTRICTS. M11 Not Concur 7/27/2006 11:15 AM PASSED 108 1 2 9 0 109
1813 H 859 HB 859 AMEND TRANSPORTATION CORRIDOR MAP ACT. M11 Concur 7/27/2006 11:17 AM PASSED 110 0 1 9 0 110
1814 H 1155 HB 1155 SAFE TRANSPORTATION FOR SCHOOL STUDENTS. M11 Concur 7/27/2006 11:20 AM PASSED 111 0 0 9 0 111
1801 H 1417 HB 1417 ED REGIONAL PARTNERSHIP ACCOUNTABILITY. M11 Concur 7/26/2006 6:33 PM PASSED 112 0 0 8 0 112
1071 H 1295 HB 1295 NEW MOTOR VEHICLES WARRANTIES. M11 Concur 8/22/2005 9:58 PM PASSED 114 0 3 3 0 114
1319 H 1913 HB 1913 RED CROSS DEANNEXATION. Second Reading 6/7/2006 2:39 PM PASSED 115 0 2 3 0 115
397 H 415 HB 415 MAKE UP INSTRUCTIONAL DAYS/HURRICANES. M11 Concur 5/12/2005 3:52 PM PASSED 97 0 9 14 0 97
398 H 1299 HB 1299 MOTOR VEHICLE REPAIRS/CLARIFY COST OF REPAIR. A2 Bordsen\Second Reading 5/16/2005 7:18 PM PASSED 108 0 4 8 0 108
399 H 1299 HB 1299 MOTOR VEHICLE REPAIRS/CLARIFY COST OF REPAIR. Second Reading 5/16/2005 7:19 PM PASSED 110 0 2 8 0 110
400 H 689 HB 689 MONROE MEALS TAX. Third Reading 5/16/2005 7:22 PM PASSED 59 51 2 8 0 110
401 H 1005 HB 1005 PINEVILLE ANNEXATION. Second Reading 5/16/2005 7:23 PM PASSED 111 0 1 8 0 111
402 H 896 HB 896 STATE BAR/APPEAL/FEE. Third Reading 5/16/2005 7:29 PM PASSED 88 23 1 8 0 111
403 H 1115 HB 1115 ELECTION ADMINISTRATION AMENDMENTS. Second Reading 5/16/2005 7:43 PM PASSED 109 0 3 8 0 109
404 H 1582 HJR 1582 CONFIRMATION OF THE REAPPOINTMENT OF ROBERT V. OWENS, JR. AND THE APPOINTMENT OF DR. ROBERT K. KOGER THE APPOINTMENT OF DR. ROBERT K. KOGER TO UTILITIES COMMISSION. Second Reading 5/16/2005 7:46 PM PASSED 111 0 1 8 0 111
405 H 1357 HB 1357 AMEND ACUPUNCTURE LAWS/FEES. Second Reading 5/16/2005 7:48 PM PASSED 91 20 1 8 0 111
406 H 683 HB 683 INSTRUCTION/INFORMATION TO PROTECT NEWBORN. Second Reading 5/16/2005 7:57 PM PASSED 103 8 1 8 0 111
407 H 833 HB 833 ADDITIONAL STANDARDS FOR COMMUNITY COLLEGE ADMISSION. Second Reading 5/16/2005 7:59 PM PASSED 108 2 2 8 0 110
474 H 967 HB 967 HEALTH CARE POWER OF ATTORNEY/DISPOSITION OF REMAINS. REMAINS. Second Reading 5/23/2005 8:54 PM PASSED 110 1 3 6 0 111
475 H 1248 HB 1248 IDENTITY THEFT PROTECTION ACT OF 2005. Second Reading 5/23/2005 8:58 PM PASSED 111 0 3 6 0 111
476 H 1264 HB 1264 BOARD CERTIFIED TEACHERS SERVE AS SCHOOL LEADERS. Second Reading 5/23/2005 9:04 PM PASSED 107 5 2 6 0 112
477 H 1366 HR 1366 URGING CONGRESS TO ENACT LEGISLATION/E-RATE. R2 For Adopt 5/24/2005 11:39 AM PASSED 117 0 0 3 0 117
479 H 85 HB 85 VARIOUS SPECIAL LICENSE PLATES. Third Reading 5/24/2005 11:46 AM PASSED 113 3 1 3 0 116
480 H 1507 HB 1507 AMEND INTERPRETER/TRANSLITERATOR LICENSE ACT. Second Reading 5/24/2005 11:48 AM PASSED 116 0 1 3 0 116
481 H 1503 HB 1503 REGIONAL PUBLIC TRANSPORTATION LIABILITY. A1 Faison\Second Reading 5/24/2005 11:50 AM PASSED 113 3 1 3 0 116
482 H 1503 HB 1503 REGIONAL PUBLIC TRANSPORTATION LIABILITY. Second Reading 5/24/2005 11:51 AM PASSED 117 0 0 3 0 117
483 H 1468 HB 1468 TELECOMMUNICATION SERVICE PROVIDERS. Second Reading 5/24/2005 11:53 AM PASSED 115 1 1 3 0 116
485 H 890 HB 890 CRIME LAB COST RECOVERY FEE. Third Reading 5/24/2005 12:16 PM PASSED 112 0 4 4 0 112
486 H 1025 HB 1025 WINEMAKING ON PREMISES PERMIT. Third Reading 5/24/2005 12:18 PM PASSED 94 20 2 4 0 114
487 H 1136 HB 1136 MERCURY SWITCH REMOVAL-2. Third Reading 5/24/2005 12:20 PM PASSED 107 7 2 4 0 114
529 H 1394 HB 1394 TESTAMENTARY RECOMMENDATION OF GUARDIAN. Second Reading 5/26/2005 4:27 PM PASSED 109 0 5 6 0 109
530 H 1469 HB 1469 UTILITIES ACCESS TO PUBLIC RIGHTS-OF-WAY. A1 Stam\Third Reading 5/26/2005 4:29 PM PASSED 110 0 4 6 0 110
531 H 1469 HB 1469 UTILITIES ACCESS TO PUBLIC RIGHTS-OF-WAY. Third Reading 5/26/2005 4:30 PM PASSED 109 0 5 6 0 109
532 H 1401 HB 1401 CONCEALED CARRY BY LAW ENFORCEMENT OFFICERS. Second Reading 5/26/2005 4:38 PM PASSED 101 5 8 6 0 106
533 H 1409 HB 1409 BAIL BONDS/BOND SOURCE. Second Reading 5/26/2005 4:41 PM PASSED 106 0 6 8 0 106
534 H 1491 HB 1491 INSURANCE FOR SCHOOL SOCIAL WORKERS. Second Reading 5/26/2005 4:43 PM PASSED 105 0 7 8 0 105
535 H 1206 HB 1206 DOG TRAINING WITH WATERFOWL AND GAME BIRDS. M11 Concur 5/31/2005 3:49 PM PASSED 113 1 3 3 0 114
1204 H 1095 HB 1095 ENVIRONMENTAL REPORTS AMENDMENTS. R3 Ruled Mat'l\M11 Concur 8/24/2005 3:06 AM PASSED 97 7 13 3 0 104
1207 H 1799 HJR 1799 STATE BOARD OF COMMUNITY COLLEGES ELECTION. Second Reading 8/24/2005 3:13 AM PASSED 110 1 6 3 0 111
1208 H 1610 HB 1610 INCORPORATE ROUGEMONT. Second Reading 8/24/2005 3:16 AM PASSED 109 3 5 3 0 112
1212 H 1050 HB 1050 LOCAL TAX FOR PUBLIC SCHOOLS AND COMMUNITY COLLEGES. Second Reading 8/24/2005 3:33 AM PASSED 81 32 4 3 0 113
1216 H 1076 HB 1076 ALTERNATIVE LEARNING PROGRAMS/SCHOOL PROPOSALS. C Rpt Adopt 8/24/2005 3:52 AM PASSED 114 0 3 3 0 114
1217 H 756 HB 756 CHATHAM, LEE, FRANKLIN, AND VANCE LOCAL TAXES. Second Reading 8/24/2005 3:53 AM PASSED 80 35 2 3 0 115
1218 H 650 HB 650 BUSINESS COURT CASES/FEE. M11 Concur 8/24/2005 3:55 AM PASSED 110 5 2 3 0 115
1227 H 947 HB 947 LOCAL TAX FOR PUBLIC SCHOOLS/COMMUNITY. A1 Folwell\Second Reading 8/25/2005 10:11 AM PASSED 55 51 6 8 0 106
1228 H 947 HB 947 LOCAL TAX FOR PUBLIC SCHOOLS/COMMUNITY. Second Reading 8/25/2005 10:12 AM PASSED 73 36 3 8 0 109
1229 H 320 HB 320 MODIFY 2005 APPROPRIATIONS ACT. M11 Concur 8/29/2005 7:42 PM PASSED 67 48 2 3 0 115
1230 H 327 HB 327 2005 TECHNICAL CORRECTIONS ACT. M11 Not Concur 8/29/2005 7:49 PM PASSED 115 0 2 3 0 115
1231 H 947 HB 947 LOCAL TAX FOR PUBLIC SCHOOLS/COMMUNITY COLLEGES-II. A2 Dollar\Third Reading 8/29/2005 8:04 PM FAILED 50 63 4 3 0 113
1232 H 947 HB 947 LOCAL TAX FOR PUBLIC SCHOOLS/COMMUNITY COLLEGES-II. A3 Rhodes\Third Reading 8/29/2005 8:11 PM FAILED 44 70 2 4 0 114
1233 H 947 HB 947 LOCAL TAX FOR PUBLIC SCHOOLS/COMMUNITY COLLEGES-II. A4 Pate\Third Reading 8/29/2005 8:14 PM PASSED 115 0 2 3 0 115
1234 H 947 HB 947 LOCAL TAX FOR PUBLIC SCHOOLS/COMMUNITY COLLEGES-II. A5 Preston\Third Reading 8/29/2005 8:16 PM PASSED 114 0 3 3 0 114
1235 H 947 HB 947 LOCAL TAX FOR PUBLIC SCHOOLS/COMMUNITY COLLEGES-II. A6 Stam\Third Reading 8/29/2005 8:25 PM FAILED 55 60 2 3 0 115
1236 H 947 HB 947 LOCAL TAX FOR PUBLIC SCHOOLS/COMMUNITY COLLEGES-II. Third Reading 8/29/2005 8:41 PM PASSED 73 42 2 3 0 115
1220 H 1800 HR 1800 ELECTION TO STATE BOARD OF COMMUNITY COLLEGES. Second Reading 8/24/2005 5:19 PM PASSED 115 0 2 3 0 115
1221 H 1060 HB 1060 HOSPITAL LICENSE/CONFORMING CHANGE. M11 Concur 8/25/2005 9:14 AM PASSED 97 0 19 4 0 97
1222 H 1207 HB 1207 2005 SPEAKER'S APPOINTMENTS. M11 Concur 8/25/2005 9:15 AM PASSED 102 1 13 4 0 103
1223 H 756 HB 756 CHATHAM, LEE, FRANKLIN, AND VANCE LOCAL TAXES. Third Reading 8/25/2005 9:20 AM PASSED 75 32 9 4 0 107
1224 H 1050 HB 1050 LOCAL TAX FOR PUBLIC SCHOOLS AND COMMUNITY COLLEGES. Third Reading 8/25/2005 9:21 AM PASSED 80 28 8 4 0 108
1225 H 1610 HB 1610 INCORPORATE ROUGEMONT. Third Reading 8/25/2005 9:22 AM PASSED 104 4 8 4 0 108
1238 H 575 HB 575 LUMP-SUM BONUSES FOR CERTAIN STATE EMPLOYEES. Second Reading 8/29/2005 9:51 PM PASSED 109 3 4 4 0 112
1117 H 686 HB 686 UPDATE DISABILITY STATUTES/SERVICE ANIMALS. M11 Concur 8/23/2005 4:56 PM PASSED 115 0 2 3 0 115
1118 H 750 HB 750 SECONDARY ROAD CONSTRUCTION. Sen. Amend. #1\M11 Concur 8/23/2005 5:00 PM PASSED 115 0 2 3 0 115
1119 H 855 HB 855 CHILD NUTRITION STANDARDS. M11 Concur 8/23/2005 5:03 PM PASSED 108 1 8 3 0 109
1120 H 1029 HB 1029 MUNICIPAL STREAM CLEARING/CLARIFY LIABILITY. M11 Concur 8/23/2005 5:22 PM PASSED 102 10 5 3 0 112
1121 H 1115 HB 1115 ELECTION ADMINISTRATION AMENDMENTS. M11 Concur 8/23/2005 5:24 PM PASSED 113 0 4 3 0 113
1122 H 1385 HB 1385 UNDERGROUND STORAGE TANK AMENDMENTS. M11 Concur 8/23/2005 5:25 PM PASSED 109 2 6 3 0 111
1123 H 1409 HB 1409 BAIL BONDS/BOND SOURCE. M11 Concur 8/23/2005 5:26 PM PASSED 114 0 3 3 0 114
1124 H 1527 HB 1527 CLARIFY MOTOR VEHICLE DEALER FRANCHISE LAWS. M11 Concur 8/23/2005 5:28 PM PASSED 114 1 2 3 0 115
1125 H 1539 HB 1539 UNIVERSITY OF NORTH CAROLINA/AMEND UMSTEAD ACT. M11 Concur 8/23/2005 5:29 PM PASSED 112 1 4 3 0 113
1126 H 1541 HB 1541 HOMEOWNER ASSOCIATION AMENDMENTS. M11 Concur 8/23/2005 5:31 PM PASSED 109 3 3 3 2 112
1242 H 1269 HB 1269 THE STUDIES ACT OF 2005. A2 McComas\Second Reading\Perfecting\Amendment 8/30/2005 6:28 PM PASSED 111 2 3 4 0 113
1243 H 1269 HB 1269 THE STUDIES ACT OF 2005. A1 Wainwright\Second Reading 8/30/2005 6:29 PM PASSED 96 14 6 4 0 110
1244 H 1269 HB 1269 THE STUDIES ACT OF 2005. Second Reading 8/30/2005 6:29 PM PASSED 105 8 3 4 0 113
1128 H 1415 HB 1415 REPORT DENIAL OF SOME PISTOL PERMITS. Third Reading 8/23/2005 5:35 PM PASSED 104 12 1 3 0 116
1129 H 535 HB 535 TEACHERS CONVERT PERSONAL LEAVE TO SICK LEAVE. Second Reading 8/23/2005 5:45 PM PASSED 106 6 5 3 0 112
1130 H 105 HB 105 MOTOR FUEL TAX CHANGES & REVENUE LAWS TECHNICAL CHANGES. M6 Reconsider 8/23/2005 5:49 PM PASSED 87 27 3 3 0 114
1131 H 105 HB 105 MOTOR FUEL TAX CHANGES & REVENUE LAWS TECHNICAL CHANGES. R2 Ruled Mat'l\M11 Concur 8/23/2005 5:56 PM PASSED 91 23 3 3 0 114
1134 H 1078 HB 1078 ANGIER WEEDED LOT ORDINANCE. M6 Reconsider 8/23/2005 6:08 PM PASSED 114 1 2 3 0 115
1135 H 1078 HB 1078 ANGIER WEEDED LOT ORDINANCE. M11 Concur 8/23/2005 6:09 PM PASSED 115 2 0 3 0 117
1139 H 1128 HB 1128 CAMPAIGN FINANCE AMENDMENTS C Rpt Adopt 8/23/2005 6:31 PM PASSED 113 3 2 2 0 116
1140 H 1493 HB 1493 PHARMACY QUALITY ASSURANCE PROTECTION ACT. C Rpt Adopt 8/23/2005 6:33 PM PASSED 115 0 3 2 0 115
1141 H 1797 HJR 1797 HONOR THE EARLY SETTLERS OF ROXBORO ON THE OCCASION OF THE 150TH ANNIVERSARY OF THE TOWN'S INCORPORATION. ANNIVERSARY OF THE TOWN'S INCORPORATION. Second Reading 8/23/2005 6:40 PM PASSED 113 0 5 2 0 113
1143 H 1798 HR 1798 HONOR LIFE AND MEMORY OF TODD ALAN BLANCHARD, FALLEN FIRE- FIGHTER FOR THE EASTERN WAKE FIRE- FIGHTER FOR THE EASTERN WAKE FIRE- RESCUE DEPARTMENT. Second Reading 8/23/2005 8:59 PM PASSED 113 0 5 2 0 113
1144 H 1792 HR 1792 URGE CONGRESS TO ENACT LEGISLATION PERTAINING TO SMALL BUSINE PLANS. PLANS. Second Reading\FOR ADOPTION 8/23/2005 8:59 PM PASSED 114 0 4 2 0 114
1145 H 1794 HR 1794 SUPPORTING ENACTMENT OF THE PASSENGER RAIL INVESTMENT AND IMPROVEMENT ACT OF 2005. IMPROVEMENT ACT OF 2005. Second Reading\FOR ADOPTION 8/23/2005 8:59 PM PASSED 113 3 2 2 0 116
1146 H 876 HB 876 HAYWOOD COUNTY SALES TAX. Second Reading 8/23/2005 8:59 PM PASSED 81 32 5 2 0 113
1147 H 768 HB 768 2005 OMNIBUS LABOR LAW CHANGES. M11 Concur 8/23/2005 8:59 PM PASSED 115 0 3 2 0 115
1148 H 1413 HB 1413 ENHANCE LOCAL GOVERNMENTS ADMINISTER OF ENVIRONMENTAL PROGRAMS. Second Reading 8/23/2005 8:59 PM PASSED 95 20 3 2 0 115
1151 H 474 HB 474 MILL REHABILITATION TAX CREDIT. Second Reading 8/23/2005 8:59 PM PASSED 112 2 3 2 1 114
1152 H 88 HB 88 ELECTORAL FAIRNESS ACT. A1 Haire\Second Reading 8/23/2005 8:59 PM PASSED 99 17 2 2 0 116
1153 H 88 HB 88 ELECTORAL FAIRNESS ACT. Second Reading 8/23/2005 8:59 PM PASSED 82 33 3 2 0 115
1154 H 143 HB 143 EXEMPT AGRI-TOURISM FROM PRIVILEGE TAX. Second Reading 8/23/2005 8:59 PM PASSED 114 2 2 2 0 116
1155 H 990 HB 990 DEFINITION OF FARMER FOR SALES AND USE TAX. A1 Harrell\Second Reading 8/23/2005 8:59 PM PASSED 108 0 7 2 3 108
1156 H 990 HB 990 DEFINITION OF FARMER FOR SALES AND USE TAX. A2 Haire\Second Reading 8/23/2005 8:59 PM PASSED 109 0 6 2 3 109
1157 H 990 HB 990 DEFINITION OF FARMER FOR SALES AND USE TAX. Second Reading 8/23/2005 8:59 PM PASSED 108 0 7 2 3 108
1158 H 1231 HB 1231 STATE HIGHWAY PATROL RETIREE PLATE MODIFICATIONS. Second Reading 8/23/2005 8:59 PM PASSED 109 4 5 2 0 113
1024 H 607 HB 607 ENHANCED VOLUNTARY AGRICULTURAL DISTRICTS. M11 Concur 8/22/2005 6:29 PM PASSED 115 0 1 4 0 115
1030 H 766 HB 766 ENHANCE PASSENGER TRAMWAY SAFETY ACT. R2 Ruled Mat'l\M11 Concur 8/22/2005 6:40 PM PASSED 114 0 2 4 0 114
1031 H 1112 HB 1112 CENTRAL LISTING/MENTAL HEALTH BEDS/INVOLUNTARILY COMMITTED. COMMITTED. Second Reading 8/22/2005 6:42 PM PASSED 114 0 2 4 0 114
1037 H 561 HB 561 COMMISSIONS FOR PERSONAL REPRESENTATIVES. M11 Concur 8/22/2005 7:01 PM PASSED 115 0 2 3 0 115
1038 H 569 HB 569 DOMESTIC VIOLENCE RECOMMENDATIONS. SEN. AMEND. #1\M11 Concur 8/22/2005 7:03 PM PASSED 115 0 2 3 0 115
1039 H 636 HB 636 ANATOMIC PATHOLOGY SERVICES/PROVIDER BILLING. M11 Concur 8/22/2005 7:04 PM PASSED 114 0 3 3 0 114
1040 H 661 HB 661 SUBSTANTIATION APPEAL PROCESS/JUVENILE ABUSE/ NEGLECT. NEGLECT. M11 Concur 8/22/2005 7:06 PM PASSED 112 2 3 3 0 114
1041 H 665 HB 665 AMEND HOUSE MOVER LAWS. SEN. AMEND. #1\M11 Concur 8/22/2005 7:07 PM PASSED 113 0 3 4 0 113
1042 H 669 HB 669 OVERSIZE/OVERWEIGHT VEHICLE CHANGES. M11 Concur 8/22/2005 7:08 PM PASSED 111 2 3 4 0 113
1043 H 670 HB 670 COMMERCIAL DRIVERS LICENSES/FEDERAL COMPLIANCE. M11 Concur 8/22/2005 7:10 PM PASSED 112 0 4 4 0 112
1044 H 706 HB 706 FACILITATE HIRING OF TEACHERS. M11 Concur 8/22/2005 7:11 PM PASSED 112 0 4 4 0 112
1045 H 735 HB 735 ACCIDENT & HEALTH INSURANCE/RATE STABILIZATION. M11 Concur 8/22/2005 7:13 PM PASSED 113 0 3 4 0 113
1046 H 747 HB 747 DEFINING STATE ROADS. M11 Concur 8/22/2005 7:14 PM PASSED 110 3 3 4 0 113
1047 H 829 HB 829 DISPLAY OF OFFICIAL GOVERNMENTAL FLAGS. M11 Concur 8/22/2005 7:16 PM PASSED 113 1 2 4 0 114
1048 H 671 HB 671 PLANT REGULATION. M11 Not Concur 8/22/2005 7:18 PM PASSED 114 0 2 4 0 114
1049 H 890 HB 890 CRIME LAB COST RECOVERY FEE. M11 Concur 8/22/2005 7:20 PM PASSED 113 0 3 4 0 113
1050 H 891 HB 891 MASTER KEYS/LOCK-PICKING DEVICES REGULATED. SEN. AMEND. #1\M11 Concur 8/22/2005 7:22 PM PASSED 112 0 4 4 0 112
1051 H 911 HB 911 STREAMLINE SCHOOL TESTING PROGRAM. M11 Concur 8/22/2005 7:24 PM PASSED 114 0 2 4 0 114
1052 H 967 HB 967 HEALTH CARE POWER OF ATTORNEY/DISPOSITION OF REMAINS. REMAINS. M11 Concur 8/22/2005 7:25 PM PASSED 113 0 3 4 0 113
1053 H 1085 HB 1085 CARE OF DOGS ILLEGALLY USED FOR FIGHTING. M11 Concur 8/22/2005 7:28 PM PASSED 113 0 3 4 0 113
1054 H 1086 HB 1086 GENERAL ASSEMBLY POLICE JURISDICTION. M11 Concur 8/22/2005 7:30 PM PASSED 113 0 3 4 0 113
1055 H 1128 HB 1128 CAMPAIGN FINANCE AMENDMENTS. M11 Not Concur 8/22/2005 7:34 PM PASSED 115 0 2 3 0 115
1056 H 1096 HB 1096 ENVIRONMENTAL TECHNICAL CORRECTIONS. M11 Concur 8/22/2005 7:40 PM PASSED 112 2 3 3 0 114
1060 H 1136 HB 1136 MERCURY SWITCH REMOVAL-2. M11 Concur 8/22/2005 7:51 PM PASSED 114 1 2 3 0 115
1061 H 1150 HB 1150 EXPEDITE JUVENILE PROCEEDINGS/GUARDIANS AD LITEM. LITEM. M11 Concur 8/22/2005 7:54 PM PASSED 112 0 5 3 0 112
1062 H 1076 HB 1076 ALTERNATIVE LEARNING PROGRAMS/SCHOOL PROPOSALS. M11 Not Concur 8/22/2005 7:57 PM PASSED 115 0 2 3 0 115
1063 H 1169 HB 1169 INVESTMENTS OF STATE AND LOCAL FUNDS. M11 Concur 8/22/2005 9:36 PM PASSED 111 0 6 3 0 111
1064 H 1174 HB 1174 ALCOHOLIC BEVERAGE CONTROL PERMIT ISSUANCE AND COMPLIANCE. M11 Concur 8/22/2005 9:38 PM PASSED 108 2 6 3 1 110
1065 H 1176 HB 1176 PROPERTY EXEMPT FROM ENFORCEMENT ACTIONS. M11 Concur 8/22/2005 9:39 PM PASSED 88 25 4 3 0 113
1066 H 1213 HB 1213 EXPUNGE MULTIPLE CHARGES/OCCUR WITHIN 1 YEAR. M11 Concur 8/22/2005 9:40 PM PASSED 114 0 3 3 0 114
1067 H 1227 HB 1227 CLARIFICATION OF MOTOR VEHICLE REPAIR ACT. M11 Concur 8/22/2005 9:50 PM PASSED 93 21 3 3 0 114
1068 H 1277 HB 1277 CLARIFY HUNTER SAFETY. M11 Concur 8/22/2005 9:54 PM PASSED 114 1 2 3 0 115
1069 H 1281 HB 1281 COUNTY CONTROL/NOXIOUS AQUATIC WEEDS. M11 Concur 8/22/2005 9:55 PM PASSED 115 0 2 3 0 115
1070 H 1284 HB 1284 IMPROVE REAL ESTATE LICENSING LAW. M11 Concur 8/22/2005 9:57 PM PASSED 114 0 3 3 0 114
909 H 1775 HB 1775 UNIVERSITY OF NORTH CAROLINA NONAPPROPRIATED CAPITAL PROJECTS. PROJECTS. Third Reading 7/27/2005 3:49 PM PASSED 108 6 0 6 0 114
920 H 1297 HB 1297 MEDICAL RESERVE CORPS AND COMMUNITY EMERGENCY RESPONSE TEAM VOLUNTEERS QUALIFIED IMMUNITY. VOLUNTEERS QUALIFIED IMMUNITY. M11 Concur 7/28/2005 11:09 AM PASSED 103 0 10 7 0 103
921 H 1790 HR 1790 CONDEMN DURHAM CROSS BURNINGS. R2 For Adopt 7/28/2005 11:17 AM PASSED 111 0 2 7 0 111
927 H 1779 HB 1779 PROPERTY TAX PAID WITH VEHICLE REGISTRATION. Second Reading 7/28/2005 12:36 PM PASSED 104 1 6 9 0 105
937 H 253 HB 253 NORTH CAROLINA TURNPIKE AUTHORITY CHANGES. M11 Concur 8/2/2005 3:26 PM PASSED 92 16 3 9 0 108
938 H 688 HB 688 CERTIFY ON-SITE WASTEWATER CONTRACTORS. Second Reading 8/3/2005 3:23 PM PASSED 104 2 5 9 0 106
537 H 986 HB 986 GREENVILLE/SURF CITY/WINDSOR SATELLITE ANNEXATIONS. M11 Concur 5/31/2005 3:52 PM PASSED 115 2 0 3 0 117
538 H 470 HB 470 TRANSYLVANIA OCCUPANCY TAX. Third Reading 5/31/2005 3:53 PM PASSED 92 25 0 3 0 117
539 H 1281 HB 1281 COUNTY CONTROL/NOXIOUS AQUATIC WEEDS. Third Reading 5/31/2005 3:54 PM PASSED 116 0 1 3 0 116
540 H 1087 HB 1087 CLARIFY DEFINITION OF SOCIAL WORKER. A1 Howard\Third Reading 5/31/2005 4:00 PM PASSED 68 47 2 3 0 115
541 H 1541 HB 1541 HOMEOWNER ASSOCIATION AMENDMENTS. A2 Weiss\Second Reading 5/31/2005 4:18 PM PASSED 113 0 2 3 2 113
756 H 1429 HB 1429 WINE SHIPPER FEE/WINE PRIMARY SOURCE. Third Reading 6/29/2005 1:46 PM PASSED 104 14 1 0 1 118
757 H 217 HB 217 DRIVING FROM/LEAVING SCENE OF ACCIDENT. M11 Not Concur 6/29/2005 2:00 PM PASSED 118 1 1 0 0 119
758 H 1064 HB 1064 SULLIVAN ACT III - ASHEVILLE PUBLIC ENTERPRISES M11 Concur 6/29/2005 2:09 PM PASSED 112 3 5 0 0 115
759 H 1065 HB 1065 SULLIVAN ACT II M11 Concur 6/29/2005 2:11 PM PASSED 113 3 4 0 0 116
760 H 1630 HB 1630 2005 CONTINUING BUDGET AUTHORITY/ REVENUE. C Rpt Adopt 6/30/2005 1:48 PM PASSED 65 51 1 3 0 116
761 H 510 HB 510 ENFORCEMENT OF POWER OF ATTORNEY. M11 Concur 6/30/2005 1:50 PM PASSED 116 0 1 3 0 116
762 H 1097 HB 1097 DESIGN/BUILD/OPERATE CONTRACT SLUDGE MANAGEMENT. Sen Amend #1\M11 Concur 6/30/2005 1:52 PM PASSED 116 0 1 3 0 116
763 H 1163 HB 1163 HOLD HARMLESS/MOTOR CARRIER CONTRACTS. M11 Concur 6/30/2005 1:53 PM PASSED 115 0 2 3 0 115
764 H 1319 HB 1319 AMEND FAMILY LAW ARBITRATION ACT. M11 Concur 6/30/2005 1:54 PM PASSED 116 0 1 3 0 116
765 H 1392 HB 1392 FAILURE TO RETURN HIRED MOTOR VEHICLES. M11 Concur 6/30/2005 1:56 PM PASSED 116 0 1 3 0 116
776 H 370 HB 370 LANDIS SATELLITE ANNEXATIONS. R2 Ruled Mat'l\M11 Concur 7/6/2005 2:28 PM PASSED 115 1 1 3 0 116
777 H 85 HB 85 VARIOUS SPECIAL LICENSE PLATES. R2 Ruled Mat'l\M11 Concur 7/6/2005 2:33 PM PASSED 108 8 1 3 0 116
778 H 1346 HB 1346 INTERSTATE COMPACT FOR JUVENILES. M11 Concur 7/6/2005 2:34 PM PASSED 116 0 1 3 0 116
787 H 1084 HB 1084 EXPUNGE NONVIOLENT FELONIES/YOUNG OFFENDERS. Second Reading 7/6/2005 4:51 PM PASSED 61 53 3 3 0 114
788 H 370 HB 370 LANDIS SATELLITE ANNEXATIONS. R3 Ruled Mat'l\M11 Concur 7/7/2005 12:38 PM PASSED 107 0 6 7 0 107
789 H 85 HB 85 VARIOUS SPECIAL LICENSE PLATES. R3 Ruled Mat'l\M11 Concur 7/7/2005 12:42 PM PASSED 101 8 4 7 0 109
790 H 563 HB 563 COMMUNITY COLLEGE MAY TRAIN LATERAL ENTRY TEACHERS. M11 Concur 7/7/2005 12:43 PM PASSED 111 0 2 7 0 111
791 H 660 HB 660 INSURANCE FINANCIAL CHANGES. M11 Concur 7/7/2005 12:44 PM PASSED 109 0 4 7 0 109
792 H 733 HB 733 LICENSE INSURANCE STATISTICAL ORGANIZATIONS. M11 Concur 7/7/2005 12:45 PM PASSED 109 0 4 7 0 109
793 H 1400 HB 1400 SCHOOL BUS SAFETY ACT. M11 Concur 7/7/2005 12:46 PM PASSED 111 0 2 7 0 111
795 H 1051 HB 1051 MACON-JACKSON REGIONAL AIRPORT AUTHORITY. Second Reading 7/7/2005 12:48 PM PASSED 94 17 3 6 0 111
801 H 1084 HB 1084 EXPUNGE NONVIOLENT FELONIES/YOUNG OFFENDERS. A1 Ray\Third Reading 7/7/2005 12:58 PM PASSED 112 0 2 6 0 112
802 H 1084 HB 1084 EXPUNGE NONVIOLENT FELONIES/YOUNG OFFENDERS. A2 Stiller\Third Reading 7/7/2005 12:59 PM PASSED 114 0 0 6 0 114
954 H 1723 HB 1723 ALTERNATE METHOD/DISPOSAL OF STATE SURPLUS REAL PROPERTY. A1 Ross\Second Reading 8/4/2005 2:38 PM PASSED 110 0 2 8 0 110
955 H 1723 HB 1723 ALTERNATE METHOD/DISPOSAL OF STATE SURPLUS REAL PROPERTY. Second Reading 8/4/2005 2:43 PM PASSED 108 4 0 8 0 112
1351 H 2877 HJR 2877 HONOR THE LIVE AND MEMORY OF IDA ELIZABETH INMAN CAMERON. Second Reading 6/15/2006 10:47 AM PASSED 116 0 0 4 0 116
395 H 1430 HB 1430 OBSTRUCTING USE OF BOAT RAMP. Second Reading 5/12/2005 3:42 PM PASSED 99 0 7 14 0 99
772 H 1788 HR 1788 ELECT UNC BOARD OF GOVERNORS. Second Reading 6/30/2005 2:25 PM PASSED 97 15 4 3 1 112
961 H 1469 HB 1469 UTILITIES ACCESS TO PUBLIC RIGHTS-OF-WAY. C Rpt Adopt 8/10/2005 4:41 PM PASSED 115 0 4 0 1 115
962 H 20 HB 20 HEALTH INSURANCE CREDIT/MINIMUM WAGE. A1 Holliman\Second Reading 8/10/2005 4:52 PM PASSED 109 1 10 0 0 110
963 H 20 HB 20 HEALTH INSURANCE CREDIT/MINIMUM WAGE. A2 Kiser\Second Reading 8/10/2005 5:08 PM PASSED 120 0 0 0 0 120
964 H 20 HB 20 HEALTH INSURANCE CREDIT/MINIMUM WAGE. Second Reading 8/10/2005 5:59 PM PASSED 62 57 0 1 0 119
965 H 1500 HB 1500 WINE-TASTING/WINERIES WHOLESALE LICENSE CHANGES. R2 Ruled Mat'l\C RPT ADOPT 8/11/2005 2:53 PM PASSED 88 25 1 6 0 113
967 H 237 HB 237 REVISE MORTGAGE LENDING ACT. Third Reading 8/11/2005 2:56 PM PASSED 113 1 0 6 0 114
968 H 1723 HB 1723 ALTERNATE METHOD/DISPOSAL OF STATE SURPLUS REAL PROPERTY. A2 Weiss\Third Reading 8/11/2005 2:59 PM PASSED 112 1 1 6 0 113
969 H 1723 HB 1723 ALTERNATE METHOD/DISPOSAL OF STATE SURPLUS REAL PROPERTY. A3 Crawford\Third Reading 8/11/2005 3:00 PM PASSED 113 0 1 6 0 113
970 H 1723 HB 1723 ALTERNATE METHOD/DISPOSAL OF STATE SURPLUS REAL PROPERTY. A4 Ross\Third Reading 8/11/2005 3:03 PM PASSED 112 1 1 6 0 113
971 H 1723 HB 1723 ALTERNATE METHOD/DISPOSAL OF STATE SURPLUS REAL PROPERTY. A5 Stam\Third Reading 8/11/2005 3:05 PM PASSED 112 0 2 6 0 112
972 H 1723 HB 1723 ALTERNATE METHOD/DISPOSAL OF STATE SURPLUS REAL PROPERTY. Third Reading 8/11/2005 3:11 PM PASSED 108 4 2 6 0 112
973 H 1349 HB 1349 RAISE CEILING ON FEES/BOARD OF PHARMACY. Second Reading 8/11/2005 3:14 PM PASSED 96 18 0 6 0 114
979 H 686 HB 686 UPDATE DISABILITY STATUTES/SERVICE ANIMALS. M6 Reconsider 8/11/2005 3:43 PM PASSED 108 4 2 6 0 112
774 H 288 HB 288 MOTOR VEHICLE MOVE-OVER LAW CHANGES. M11 Concur 7/6/2005 2:26 PM PASSED 116 0 1 3 0 116
983 H 1323 HB 1323 ESTABLISH NC INNOCENCE INQUIRY COMMISSION. A1 Glazier\Second Reading 8/11/2005 5:55 PM PASSED 107 0 3 10 0 107
991 H 1323 HB 1323 ESTABLISH NC INNOCENCE INQUIRY COMMISSION. A2 Kiser\Second Reading 8/11/2005 8:47 PM FAILED 37 67 3 13 0 104
992 H 1323 HB 1323 ESTABLISH NC INNOCENCE INQUIRY COMMISSION. A3 LaRoque\Second Reading 8/11/2005 8:59 PM FAILED 28 73 6 13 0 101
993 H 1323 HB 1323 ESTABLISH NC INNOCENCE INQUIRY COMMISSION. Second Reading 8/11/2005 8:59 PM PASSED 79 21 7 13 0 100
994 H 1323 HB 1323 ESTABLISH NC INNOCENCE INQUIRY COMMISSION. Second Reading\M12 Suspend\Rules 8/11/2005 8:59 PM PASSED 75 26 6 13 0 101
582 H 76 HB 76 REDUCE SMOKING IN RESTAURANTS. Second Reading 6/1/2005 4:17 PM FAILED 57 63 0 0 0 120
583 H 126 HB 126 SCHOOLS BEVERAGE/SNACK VENDING. Second Reading 6/1/2005 4:26 PM PASSED 95 23 2 0 0 118
584 H 253 HB 253 NORTH CAROLINA TURNPIKE AUTHORITY CHANGES. Second Reading 6/1/2005 4:28 PM PASSED 99 19 2 0 0 118
585 H 288 HB 288 MOTOR VEHICLE MOVE-OVER LAW CHANGES. A1 Rapp\Second Reading 6/1/2005 4:32 PM PASSED 119 0 1 0 0 119
586 H 288 HB 288 MOTOR VEHICLE MOVE-OVER LAW CHANGES. A2 Sherrill\Second Reading 6/1/2005 4:33 PM PASSED 118 0 2 0 0 118
587 H 288 HB 288 MOTOR VEHICLE MOVE-OVER LAW CHANGES. Second Reading 6/1/2005 4:34 PM PASSED 117 0 3 0 0 117
588 H 126 HB 126 SCHOOLS BEVERAGE/SNACK VENDING. A1 Allred\Third Reading 6/1/2005 4:42 PM FAILED 21 96 3 0 0 117
589 H 126 HB 126 SCHOOLS BEVERAGE/SNACK VENDING. Third Reading 6/1/2005 4:43 PM PASSED 100 17 3 0 0 117
590 H 327 HB 327 2005 TECHNICAL CORRECTIONS ACT. Second Reading 6/1/2005 4:48 PM PASSED 115 0 5 0 0 115
591 H 550 HB 550 STATE BOARD OF EDUCATION/COMMUNITY COLLEGE/RULEMAKING. Second Reading 6/1/2005 4:52 PM PASSED 114 2 4 0 0 116
592 H 577 HB 577 AMEND UMSTEAD ACT/COMMUNITY COLLEGE FACILITIES. Second Reading 6/1/2005 4:58 PM PASSED 115 0 5 0 0 115
593 H 607 HB 607 ENHANCED VOLUNTARY AGRICULTURAL DISTRICTS. A1 Hill\Second Reading 6/1/2005 5:01 PM PASSED 114 0 6 0 0 114
594 H 607 HB 607 ENHANCED VOLUNTARY AGRICULTURAL DISTRICTS. Second Reading 6/1/2005 5:01 PM PASSED 111 0 9 0 0 111
595 H 636 HB 636 ANATOMIC PATHOLOGY SERVICES/PROVIDER BILLING. A1 Nye\Second Reading 6/1/2005 5:03 PM PASSED 115 0 5 0 0 115
596 H 636 HB 636 ANATOMIC PATHOLOGY SERVICES/PROVIDER BILLING. Second Reading 6/1/2005 5:04 PM PASSED 115 0 5 0 0 115
597 H 725 HB 725 REAL ESTATE RESALE DEALERS. Second Reading 6/1/2005 5:08 PM PASSED 117 0 3 0 0 117
598 H 855 HB 855 CHILD NUTRITION STANDARDS. Second Reading 6/1/2005 5:12 PM PASSED 119 1 0 0 0 120
599 H 1059 HB 1059 PUBLIC SCHOOL HEALTH CURRICULUM. A1 Stam\Second Reading 6/1/2005 5:16 PM PASSED 113 0 7 0 0 113
600 H 1059 HB 1059 PUBLIC SCHOOL HEALTH CURRICULUM. A2 Hilton\Second Reading 6/1/2005 5:18 PM PASSED 115 2 3 0 0 117
601 H 1059 HB 1059 PUBLIC SCHOOL HEALTH CURRICULUM. Second Reading 6/1/2005 5:19 PM PASSED 117 2 1 0 0 119
602 H 1295 HB 1295 NEW MOTOR VEHICLES WARRANTIES. A1 Moore\Second Reading 6/1/2005 5:30 PM FAILED 28 88 4 0 0 116
603 H 1295 HB 1295 NEW MOTOR VEHICLES WARRANTIES. Second Reading 6/1/2005 5:31 PM PASSED 113 6 1 0 0 119
604 H 1318 HB 1318 CONSIDER TAX CONSEQUENCES/EQUITABLE DISTRIBUTION. Second Reading 6/1/2005 5:49 PM PASSED 117 0 3 0 0 117
605 H 1336 HB 1336 PROHIBIT METHYL TERTIARY BUTYL ETHER IN FUELS/REGIONAL COOPERATION. COOPERATION. Second Reading 6/1/2005 5:56 PM PASSED 113 5 2 0 0 118
606 H 1416 HB 1416 AN ACT TO AMEND THE ALCOHOLIC BEVERAGE CONTROL ELECTION LAW. LAW. Second Reading 6/1/2005 7:21 PM PASSED 77 42 1 0 0 119
607 H 1482 HB 1482 SMOKING IN PUBLIC PLACES/LOCAL HEALTH/DEPARTMENT OF SOCIAL SERVICES. SOCIAL SERVICES. Second Reading 6/1/2005 7:24 PM PASSED 104 16 0 0 0 120
608 H 1493 HB 1493 PHARMACY QUALITY ASSURANCE PROTECTION ACT. Second Reading 6/1/2005 7:27 PM PASSED 120 0 0 0 0 120
609 H 1516 HB 1516 FALSE CERTIFICATION AN UNFAIR AND DECEPTIVE ACT. Second Reading 6/1/2005 7:28 PM PASSED 120 0 0 0 0 120
610 H 1518 HB 1518 ALCOHOLIC BEVERAGE CONTROL LICENSEES TO RECYCLE BEVERAGE CONTAINERS. CONTAINERS. Second Reading 6/1/2005 7:30 PM PASSED 116 3 1 0 0 119
611 H 661 HB 661 SUBSTANTIATION APPEAL PROCESS/JUVENILE ABUSE/ NEGLECT. NEGLECT. A1 Moore\Second Reading 6/1/2005 7:46 PM PASSED 119 0 1 0 0 119
612 H 661 HB 661 SUBSTANTIATION APPEAL PROCESS/JUVENILE ABUSE/ NEGLECT. NEGLECT. Second Reading 6/1/2005 7:49 PM PASSED 111 8 1 0 0 119
613 H 1543 HB 1543 AUTOPSY PHOTOS NOT PUBLIC RECORD. Second Reading 6/1/2005 7:50 PM PASSED 111 9 0 0 0 120
614 H 1304 HB 1304 MUNICIPAL MULTIMEMBER DISTRICTS. A1 Allen, L.\Second Reading 6/1/2005 7:54 PM PASSED 113 6 1 0 0 119
615 H 1304 HB 1304 MUNICIPAL MULTIMEMBER DISTRICTS. Second Reading 6/1/2005 8:09 PM FAILED 34 84 2 0 0 118
803 H 1084 HB 1084 EXPUNGE NONVIOLENT FELONIES/YOUNG OFFENDERS. A3 Stam\Third Reading 7/7/2005 1:01 PM PASSED 112 1 1 6 0 113
1331 H 1913 HB 1913 RED CROSS DEANNEXATION. Third Reading 6/12/2006 7:26 PM PASSED 109 0 5 6 0 109
1332 H 1989 HB 1989 PRINCETON/SMITHFIELD SATELLITE ANNEXATIONS. Third Reading 6/12/2006 7:26 PM PASSED 109 0 5 6 0 109
1333 H 1992 HB 1992 SHALLOTTE ANNEXATION. Third Reading 6/12/2006 7:26 PM PASSED 109 0 5 6 0 109
1334 H 2027 HB 2027 GOLF CART REGULATION BY BENSON, CASWELL BEACH AND TABOR CITY. CITY. A2 Stiller\Third Reading 6/12/2006 7:29 PM PASSED 110 1 3 6 0 111
1335 H 2027 HB 2027 GOLF CART REGULATION BY BENSON, CASWELL BEACH AND TABOR CITY. CITY. Third Reading 6/12/2006 7:29 PM PASSED 111 0 3 6 0 111
1336 H 770 HB 770 PARENTAL SAVINGS TRUST FUND TAX DEDUCTION. A1 Stam\Third Reading 6/12/2006 7:33 PM PASSED 110 2 2 6 0 112
1337 H 770 HB 770 PARENTAL SAVINGS TRUST FUND TAX DEDUCTION. Third Reading 6/12/2006 7:34 PM PASSED 112 0 2 6 0 112
1338 H 1963 HB 1963 REVENUE LAWS TECHNICAL AND MOTOR FUEL TAX CHANGES. Third Reading 6/12/2006 7:36 PM PASSED 112 0 2 6 0 112
1339 H 2878 HJR 2878 HONOR NC VETERANS DURING THE OBSERVANCE OF FLAG DAY. Second Reading 6/14/2006 2:35 PM PASSED 117 0 1 2 0 117
128 H 1178 HJR 1178 HONOR UNC AT CHAPEL HILL MEN'S BASKETBALL TEAM - 2005 NCAA CHAMPIONS AND THE MEMORY OF FORMER NCAA CHAMPIONS AND THE MEMORY OF FORMER TAR HEEL PLAYERS/COACHES. Second Reading 4/12/2005 2:34 PM PASSED 116 0 2 2 0 116
129 H 702 HB 702 PERSONAL WATERCRAFT CHANGES. Third Reading 4/12/2005 2:35 PM PASSED 102 14 2 2 0 116
130 H 888 HB 888 COCKFIGHTING/INCREASE PENALTY. A1 Haire\Third Reading 4/12/2005 2:48 PM FAILED 13 103 2 2 0 116
131 H 888 HB 888 COCKFIGHTING/INCREASE PENALTY. Third Reading 4/12/2005 2:48 PM PASSED 108 8 2 2 0 116
132 H 451 HB 451 ADOPTION/CRIMINAL CHECKS/PROSPECTIVE FAMILIES. Second Reading 4/12/2005 2:52 PM PASSED 116 0 2 2 0 116
133 H 510 HB 510 ENFORCEMENT OF POWER OF ATTORNEY. Second Reading 4/12/2005 3:01 PM PASSED 116 0 2 2 0 116
135 H 125 HB 125 WEST JEFFERSON OCCUPANCY TAX. Second Reading 4/12/2005 3:03 PM PASSED 94 20 4 2 0 114
136 H 351 HB 351 MODIFY PASQUOTANK/ELIZABETH CITY OCCUPANCY TAX. Second Reading 4/12/2005 3:03 PM PASSED 94 20 4 2 0 114
137 H 540 HB 540 HALIFAX AND ROANOKE RAPIDS OCCUPANCY TAXES. Second Reading 4/12/2005 3:03 PM PASSED 94 20 4 2 0 114
138 H 544 HB 544 MADISON COUNTY OCCUPANCY TAX. Second Reading 4/12/2005 3:03 PM PASSED 94 20 4 2 0 114
139 H 843 HB 843 DUPLIN OCCUPANCY TAX. Second Reading 4/12/2005 3:03 PM PASSED 94 20 4 2 0 114
141 H 278 HB 278 WALKERTOWN DEANNEXATIONS. Second Reading 4/12/2005 3:04 PM PASSED 115 1 2 2 0 116
142 H 370 HB 370 LANDIS SATELLITE ANNEXATIONS. Second Reading 4/12/2005 3:04 PM PASSED 115 1 2 2 0 116
143 H 478 HB 478 TOBACCOVILLE DEANNEXATION. Second Reading 4/12/2005 3:04 PM PASSED 115 1 2 2 0 116
1701 H 1848 HB 1848 OMNIBUS COURTS ACT. M11 Concur 7/19/2006 2:33 PM PASSED 107 0 2 10 1 107
57 H 350 HB 350 HOLDEN BEACH CANAL DREDGING FEE. Second Reading 3/17/2005 12:26 PM PASSED 107 5 2 5 0 112
58 H 11 HB 11 CLARIFY SCHOOL ADMINISTRATORS CERTIFICATION STANDARDS. Second Reading 3/17/2005 12:29 PM PASSED 110 1 3 5 0 111
59 H 458 HB 458 EXTEND SUNSET/ANIMAL DISEASE PREVENTION. Second Reading 3/17/2005 12:34 PM PASSED 112 0 2 5 0 112
60 H 508 HB 508 ALLOW NAME CHANGE WHERE DIVORCE GRANTED. Second Reading 3/17/2005 12:37 PM PASSED 112 0 2 5 0 112
61 H 239 HB 239 SMOKING IN PUBLIC PLACES/LOCAL HEALTH DEPARTMENTS. A1 Wainwright\Second Reading 3/17/2005 12:42 PM PASSED 96 15 3 5 0 111
62 H 239 HB 239 SMOKING IN PUBLIC PLACES/LOCAL HEALTH DEPARTMENTS. Second Reading 3/17/2005 12:43 PM PASSED 94 18 2 5 0 112
63 H 627 HJR 627 HONOR DR. WILLA B. PLAYER WHILE OBSERVING WOMEN'S HISTORY MONTH. MONTH. Second Reading 3/21/2005 7:47 PM PASSED 109 0 3 7 0 109
64 H 239 HB 239 SMOKING IN PUBLIC PLACES/LOCAL HEALTH DEPARTMENTS. A2 Wainwright\Third Reading 3/22/2005 8:19 AM PASSED 100 3 13 3 0 103
65 H 239 HB 239 SMOKING IN PUBLIC PLACES/LOCAL HEALTH DEPARTMENTS. Third Reading 3/22/2005 8:19 AM PASSED 94 9 13 3 0 103
66 H 511 HJR 511 HONOR TOWN OF CORNELIUS' 100TH ANNIVERSARY. Second Reading 3/22/2005 8:23 AM PASSED 101 0 14 4 0 101
67 H 62 HB 62 ADJUTANT GENERAL CHANGE. Second Reading 3/23/2005 4:31 PM PASSED 113 0 1 5 0 113
68 H 403 HB 403 AMEND LAW ON PURCHASE OF PRELIMINARY SCHOLASTIC APTITUDE TEST FOR SCHOOLS. FOR SCHOOLS. Second Reading 3/23/2005 4:33 PM PASSED 113 0 1 5 0 113
69 H 514 HB 514 MULTICOUNTY SUPERIOR COURT DISTRICT/MOTIONS. Second Reading 3/23/2005 4:35 PM PASSED 113 0 1 5 0 113
985 H 736 HB 736 CODE ENFORCEMENT OFFICIAL EXAM FEES. M11 Concur 8/11/2005 6:06 PM PASSED 101 3 5 11 0 104
986 H 1779 HB 1779 PROPERTY TAX PAID WITH VEHICLE REGISTRATION. M11 Concur 8/11/2005 6:08 PM PASSED 107 0 2 11 0 107
988 H 1121 HB 1121 HOSPITAL AUTHORITY. M11 Concur 8/11/2005 7:58 PM PASSED 105 0 2 13 0 105
1708 H 2035 HB 2035 OFFICE OF ADMINISTRATIVE HEARINGS HEARING FACILITIES. Second Reading 7/19/2006 2:51 PM PASSED 108 0 2 10 0 108
209 H 864 HB 864 MAYO RIVER STATE PARK CONDEMNATION. Second Reading 4/19/2005 4:35 PM PASSED 117 0 2 0 1 117
210 H 878 HB 878 CONFERENCE OF CLERKS OF SUPERIOR COURT. Second Reading 4/19/2005 4:37 PM PASSED 119 0 1 0 0 119
211 H 908 HB 908 RIVER BASIN COMMISSIONS CLARIFYING AMENDS. Second Reading 4/19/2005 4:41 PM PASSED 119 0 1 0 0 119
212 H 1077 HB 1077 BIRTH CERTIFICATE/STILLBORN INFANTS. Second Reading 4/19/2005 4:46 PM PASSED 117 0 3 0 0 117
213 H 813 HB 813 PROHIBITING SOLICITATIONS ON STATE HIGHWAYS. A2 Allred\Second Reading 4/19/2005 4:48 PM PASSED 80 38 2 0 0 118
214 H 813 HB 813 PROHIBITING SOLICITATIONS ON STATE HIGHWAYS. Second Reading 4/19/2005 4:55 PM PASSED 59 58 3 0 0 117
215 H 341 HR 341 TEXTILE TRADE AGREEMENTS. R2 For Adopt 4/20/2005 4:10 PM PASSED 114 0 2 4 0 114
216 H 736 HB 736 CODE ENFORCEMENT OFFICIAL EXAM FEES. Second Reading 4/20/2005 4:14 PM PASSED 105 10 1 4 0 115
217 H 766 HB 766 ENHANCE PASSENGER TRAMWAY SAFETY ACT. Second Reading 4/20/2005 4:17 PM PASSED 114 1 1 4 0 115
218 H 813 HB 813 PROHIBITING SOLICITATIONS ON STATE HIGHWAYS. Third Reading 4/20/2005 4:18 PM PASSED 77 38 1 4 0 115
219 H 371 HB 371 UNC-PEMBROKE/HISTORICALLY AMERICAN INDIAN UNIVERSITY. Second Reading 4/20/2005 4:23 PM PASSED 115 0 1 4 0 115
220 H 660 HB 660 INSURANCE FINANCIAL CHANGES. Second Reading 4/20/2005 4:26 PM PASSED 113 0 3 4 0 113
221 H 801 HB 801 CHILD CUSTODY/GUARDIANSHIP JURISDICTION. Second Reading 4/20/2005 4:30 PM PASSED 116 0 0 4 0 116
542 H 1541 HB 1541 HOMEOWNER ASSOCIATION AMENDMENTS. A3 Gibson\Second Reading 5/31/2005 4:21 PM PASSED 113 0 2 3 2 113
543 H 267 HB 267 8-YEAR DRIVERS LICENSE/INTERNET DRIVERS LICENSES RENEWAL. A1 Allred\Second Reading 5/31/2005 4:32 PM FAILED 35 80 2 3 0 115
544 H 267 HB 267 8-YEAR DRIVERS LICENSE/INTERNET DRIVERS LICENSES RENEWAL. Second Reading 5/31/2005 4:32 PM PASSED 111 5 1 3 0 116
545 H 1541 HB 1541 HOMEOWNER ASSOCIATION AMENDMENTS. A1 Underhill\Second Reading 5/31/2005 4:35 PM PASSED 113 0 2 3 2 113
546 H 1541 HB 1541 HOMEOWNER ASSOCIATION AMENDMENTS. Second Reading 5/31/2005 4:36 PM PASSED 114 1 0 3 2 115
547 H 347 HB 347 AGRICULTURAL DEVELOPMENT/FARMLAND PRESERVATION. Second Reading 5/31/2005 4:38 PM PASSED 117 0 0 3 0 117
548 H 448 HB 448 COMPLAINTS AGAINST SCHOOL BOARD MEMBERS. A1 Glazier\Second Reading 5/31/2005 4:40 PM PASSED 115 0 2 3 0 115
549 H 448 HB 448 COMPLAINTS AGAINST SCHOOL BOARD MEMBERS. Second Reading 5/31/2005 4:41 PM PASSED 115 0 2 3 0 115
550 H 747 HB 747 DEFINING STATE ROADS. Second Reading 5/31/2005 5:28 PM PASSED 110 0 5 5 0 110
551 H 877 HB 877 FORECLOSURE NOTICE OF SALE/DISPOSITION OF PROCEEDS. PROCEEDS. Second Reading 5/31/2005 5:32 PM PASSED 111 3 2 4 0 114
552 H 1026 HB 1026 LEFT TURN ON RED - RALEIGH. Second Reading 5/31/2005 5:43 PM FAILED 47 65 4 4 0 112
553 H 1093 HB 1093 AMEND ENVIRONMENTAL LAWS -1. Second Reading 5/31/2005 5:45 PM PASSED 109 0 7 4 0 109
554 H 1094 HB 1094 RENAME WETLANDS RESTORATION PROGRAM/CODIFY ECOSYSTEM ENHANCEMENT PROGRAM. ENHANCEMENT PROGRAM. Second Reading 5/31/2005 5:47 PM PASSED 106 2 8 4 0 108
488 H 1277 HB 1277 CLARIFY HUNTER SAFETY. A1 Holloway\Third Reading 5/24/2005 12:23 PM PASSED 114 0 2 4 0 114
489 H 1277 HB 1277 CLARIFY HUNTER SAFETY. Third Reading 5/24/2005 12:24 PM PASSED 113 0 3 4 0 113
490 H 629 HB 629 OPTION TO FREEZE CREDIT REPORT. Second Reading 5/24/2005 12:26 PM PASSED 114 0 2 4 0 114
491 H 874 HB 874 TITLE CHANGE/SAFETY AND HEALTH REVIEW BOARD. Second Reading 5/24/2005 12:28 PM PASSED 111 3 2 4 0 114
492 H 1502 HB 1502 SCHOOLCHILDREN'S HEALTH ACT. Second Reading 5/24/2005 12:31 PM PASSED 115 0 1 4 0 115
493 H 1785 HR 1785 HONOR EDENTON'S HISTORICAL LEADERS AND RECOGNIZE THE HISTORICAL SIGNIFICANCE OF THE CHOWAN COUNTY SIGNIFICANCE OF THE CHOWAN COUNTY COURTHOUSE OF 1767. R2 For Adopt 5/25/2005 11:12 AM PASSED 84 0 3 33 0 84
494 H 1019 HJR 1019 HONOR TOWN OF TROUTMAN'S 100TH ANNIVERSARY. Second Reading 5/25/2005 11:30 AM PASSED 80 0 6 34 0 80
495 H 1316 HB 1316 FRASER FIR OFFICIAL CHRISTMAS TREE. Second Reading 5/25/2005 11:47 AM PASSED 80 0 6 34 0 80
1722 H 1891 HB 1891 SIMPLIFY FIRE TAX RATE/OTHER TAX CHANGES. R3 Ruled Mat'l\M11 Concur 7/20/2006 12:10 PM PASSED 102 1 1 16 0 103
1723 H 1523 HB 1523 INCREASE PENALTIES FOR COASTAL AREA MANAGEMENT ACT VIOLATIONS. R2 Ruled Mat'l\M11 Concur 7/20/2006 12:12 PM PASSED 88 13 3 16 0 101
1724 H 1099 HB 1099 P.E. SERVICES FOR PUBLIC WATER SYSTEMS. M11 Concur 7/20/2006 12:15 PM PASSED 103 0 1 16 0 103
1725 H 2699 HB 2699 VISION CARE PROGRAM CHANGES. M11 Concur 7/20/2006 12:20 PM PASSED 88 15 1 16 0 103
1726 H 2882 HB 2882 GENERAL CONTRACTORS/EXTEND LICENSE VALIDITY/LICENSE EXCEPTION M11 Concur 7/20/2006 12:21 PM PASSED 100 0 4 16 0 100
1727 H 2894 HB 2894 PROHIBIT VARIOUS LENDING SUBTERFUGES. M11 Concur 7/20/2006 12:23 PM PASSED 99 0 5 16 0 99
499 H 986 HB 986 GREENVILLE/SURF CITY/WINDSOR SATELLITE ANNEXATIONS. Second Reading\M11 Concur 5/26/2005 1:33 PM PASSED 111 1 3 5 0 112
315 H 35 HB 35 ALCOHOL AND DRUG EDUCATION TRAFFIC SCHOOL/FEE/QUALIFICATIONS INCREASE. INCREASE. Third Reading 5/5/2005 12:18 PM PASSED 104 2 4 10 0 106
316 H 1168 HB 1168 PROHIBIT DECEPTIVE MARKETING/BANKING SERVICES. Third Reading 5/5/2005 12:20 PM PASSED 106 0 4 10 0 106
317 H 1174 HB 1174 ALCOHOLIC BEVERAGE CONTROL PERMIT ISSUANCE AND COMPLIANCE. Third Reading 5/5/2005 12:20 PM PASSED 102 3 5 10 0 105
318 H 669 HB 669 OVERSIZE/OVERWEIGHT VEHICLE CHANGES. A1 Cole\Second Reading 5/5/2005 12:24 PM PASSED 105 0 5 10 0 105
319 H 669 HB 669 OVERSIZE/OVERWEIGHT VEHICLE CHANGES. Second Reading 5/5/2005 12:26 PM PASSED 105 0 5 10 0 105
320 H 750 HB 750 SECONDARY ROAD CONSTRUCTION. Second Reading 5/5/2005 12:41 PM PASSED 78 26 5 11 0 104
321 H 1604 HJR 1604 NASCAR JOINT SESSION TO HONOR WILLIAM HENRY GETTY "BIG BILL" FRANCE. FRANCE. Second Reading 5/5/2005 12:46 PM PASSED 101 0 8 11 0 101
322 H 561 HB 561 COMMISSIONS FOR PERSONAL REPRESENTATIVES. Second Reading 5/9/2005 7:29 PM PASSED 113 0 3 3 1 113
323 H 671 HB 671 PLANT REGULATION. Second Reading 5/9/2005 7:31 PM PASSED 114 1 2 3 0 115
324 H 734 HB 734 IMPROVE MANAGED CARE STATUTES. Second Reading 5/9/2005 7:33 PM PASSED 115 0 2 3 0 115
325 H 1085 HB 1085 CARE OF DOGS ILLEGALLY USED FOR FIGHTING. Second Reading 5/9/2005 7:38 PM PASSED 115 0 2 3 0 115
326 H 198 HJR 198 HONOR LIFE AND MEMORY OF MILTON F. FITCH, SR. AND CORA WHITTED FITCH, DISTINGUISHED CITIZENS WHITTED FITCH, DISTINGUISHED CITIZENS AND CIVIL RIGHTS ACTIVISTS A1 Farmer-B\Second Reading 5/9/2005 7:40 PM PASSED 114 0 3 3 0 114
327 H 198 HJR 198 HONOR LIFE AND MEMORY OF MILTON F. FITCH, SR. AND CORA WHITTED FITCH, DISTINGUISHED CITIZENS WHITTED FITCH, DISTINGUISHED CITIZENS AND CIVIL RIGHTS ACTIVISTS Second Reading 5/9/2005 8:08 PM PASSED 115 0 2 3 0 115
408 H 1411 HB 1411 UPDATE CONSUMER CREDIT SALES CAP. Second Reading 5/16/2005 8:01 PM PASSED 110 0 2 8 0 110
409 H 1783 HR 1783 HONOR HMONG-LAO VETERANS OF THE LAOTIAN ARMY. R2 For Adopt 5/17/2005 3:26 PM PASSED 114 0 2 4 0 114
410 H 852 HJR 852 HONOR TOWN OF NEWTON'S 150TH ANNIVERSARY. Second Reading 5/17/2005 3:33 PM PASSED 115 0 1 4 0 115
617 H 1087 HB 1087 CLARIFY DEFINITION OF SOCIAL WORKER. Third Reading 6/1/2005 8:59 PM PASSED 105 12 3 0 0 117
618 H 716 HB 716 MEDIATE STATE EMPLOYEE GRIEVANCE/TIME FRAME. Second Reading 6/1/2005 8:59 PM PASSED 113 3 4 0 0 116
619 H 829 HB 829 DISPLAY OF OFFICIAL GOVERNMENTAL FLAGS. Second Reading 6/1/2005 8:59 PM PASSED 114 2 4 0 0 116
620 H 1029 HB 1029 MUNICIPAL STREAM CLEARING/CLARIFY LIABILITY. Second Reading 6/1/2005 8:59 PM PASSED 116 0 4 0 0 116
621 H 1074 HB 1074 CLARIFY SCHOOL ADMISSIONS PROCEDURES. Second Reading 6/1/2005 8:59 PM PASSED 117 1 2 0 0 118
622 H 1146 HB 1146 FORECLOSURE REFORM. A1 Haire\Second Reading 6/1/2005 8:59 PM PASSED 101 17 2 0 0 118
623 H 1146 HB 1146 FORECLOSURE REFORM. Second Reading 6/1/2005 8:59 PM PASSED 100 18 2 0 0 118
624 H 1151 HB 1151 PLANNING TIME & DUTY-FREE LUNCH FOR TEACHERS. Second Reading 6/1/2005 8:59 PM PASSED 117 2 1 0 0 119
625 H 1155 HB 1155 SAFE TRANSPORTATION FOR SCHOOL STUDENTS. Second Reading 6/1/2005 8:59 PM PASSED 119 0 1 0 0 119
626 H 1163 HB 1163 HOLD HARMLESS/MOTOR CARRIER CONTRACTS. Second Reading 6/1/2005 8:59 PM PASSED 119 0 1 0 0 119
627 H 1227 HB 1227 CLARIFICATION OF MOTOR VEHICLE REPAIR ACT. Second Reading 6/1/2005 8:59 PM PASSED 117 0 3 0 0 117
628 H 1074 HB 1074 CLARIFY SCHOOL ADMISSIONS PROCEDURES. A1 Glazier\Third Reading 6/1/2005 8:59 PM PASSED 119 0 1 0 0 119
629 H 1074 HB 1074 CLARIFY SCHOOL ADMISSIONS PROCEDURES. Third Reading 6/1/2005 8:59 PM PASSED 115 0 5 0 0 115
630 H 1243 HB 1243 MANUFACTURED HOMES/LONGER TERMINATION NOTICE. Second Reading 6/1/2005 8:59 PM PASSED 104 14 2 0 0 118
631 H 1285 HB 1285 MODIFY BOARD OF GOVERNORS TERMS. Second Reading 6/1/2005 8:59 PM FAILED 26 91 2 0 1 117
632 H 1291 HB 1291 ELIMINATE CONTINUING EDUCATION REQUIREMENTS/LOCKSMITHS. Second Reading 6/1/2005 8:59 PM PASSED 92 25 3 0 0 117
633 H 1388 HB 1388 EXCLUDE INTERNET SALES/AUCTION ACTIVITIES. Second Reading 6/1/2005 8:59 PM PASSED 118 0 2 0 0 118
634 H 1392 HB 1392 FAILURE TO RETURN HIRED MOTOR VEHICLES. Second Reading 6/1/2005 8:59 PM PASSED 117 0 3 0 0 117
635 H 1404 HB 1404 SEIZURE OF DOCUMENTS AND PLATES. Second Reading 6/1/2005 8:59 PM PASSED 118 0 2 0 0 118
636 H 1414 HB 1414 HELP TEACHER ASSISTANTS BECOME TEACHERS. Second Reading 6/1/2005 8:59 PM PASSED 116 0 4 0 0 116
637 H 1517 HB 1517 CLARIFY DEFINITION OF CHILD CARE. Second Reading 6/1/2005 8:59 PM PASSED 117 2 1 0 0 119
638 H 1522 HB 1522 AMEND STATE PORTS ENABLING LEGISLATION. Second Reading 6/1/2005 8:59 PM PASSED 119 0 1 0 0 119
639 H 1524 HB 1524 COMPETITIVE SELECTION/SUPPLEMENTAL INSURANCE. Second Reading 6/1/2005 8:59 PM PASSED 116 0 4 0 0 116
640 H 1146 HB 1146 FORECLOSURE REFORM. A2 Stam\Third Reading 6/1/2005 8:59 PM PASSED 119 0 1 0 0 119
641 H 1146 HB 1146 FORECLOSURE REFORM. Third Reading 6/1/2005 8:59 PM PASSED 115 3 2 0 0 118
642 H 1473 HB 1473 CLAWBACK FAILED INCENTIVES. Second Reading 6/1/2005 8:59 PM PASSED 115 0 5 0 0 115
643 H 1101 HB 1101 PROMPT RELEASE OF ELECTION RESULTS. Second Reading 6/1/2005 8:59 PM PASSED 72 46 2 0 0 118
644 H 330 HB 330 LIVING WAGE ACT. Second Reading 6/1/2005 8:59 PM FAILED 52 66 2 0 0 118
645 H 725 HB 725 REAL ESTATE RESALE DEALERS. Third Reading 6/2/2005 10:39 AM PASSED 119 0 0 1 0 119
646 H 1101 HB 1101 PROMPT RELEASE OF ELECTION RESULTS. Third Reading 6/2/2005 10:42 AM PASSED 75 43 1 1 0 118
647 H 1151 HB 1151 PLANNING TIME & DUTY-FREE LUNCH FOR TEACHERS. Third Reading 6/2/2005 10:44 AM PASSED 115 3 1 1 0 118
648 H 1416 HB 1416 AN ACT TO AMEND THE ALCOHOLIC BEVERAGE CONTROL ELECTION LAW. LAW. Third Reading 6/2/2005 10:47 AM PASSED 79 39 1 1 0 118
649 H 1473 HB 1473 CLAWBACK FAILED INCENTIVES. Third Reading 6/2/2005 10:55 AM PASSED 119 0 0 1 0 119
650 H 653 HB 653 CREDIT INSURANCE CHANGES. Comm. Amend #1\Second Reading 6/2/2005 10:57 AM PASSED 119 0 0 1 0 119
651 H 653 HB 653 CREDIT INSURANCE CHANGES. Second Reading 6/2/2005 11:00 AM PASSED 119 0 0 1 0 119
652 H 631 HB 631 MAGGIE VALLEY SATELLITE ANNEXATIONS. M11 Concur 6/6/2005 7:23 PM PASSED 101 0 6 13 0 101
653 H 945 HB 945 OMNIBUS OCCUPANCY TAXES & DURHAM PUBLIC-PRIVATE PARTNERSHIPS. PARTNERSHIPS. Second Reading 6/8/2005 2:27 PM PASSED 87 30 2 1 0 117
1717 H 2212 HB 2212 LOTTERY OVERSIGHT COMMITTEE. M11 Not Concur 7/19/2006 6:02 PM PASSED 106 0 2 12 0 106
1718 H 143 HB 143 EXEMPT AGRI-TOURISM FROM PRIVILEGE TAX. C Rpt Adopt 7/19/2006 8:51 PM PASSED 97 2 6 15 0 99
1719 H 1843 HB 1843 STATE GOVERNMENT ETHICS ACT - 1. M11 Not Concur 7/19/2006 9:03 PM PASSED 102 0 2 15 1 102
1720 H 2895 HR 2895 HONOR THE TOWN OF CANTON'S 100TH ANNIVERSARY. R2 For Adopt 7/20/2006 12:06 PM PASSED 102 0 2 16 0 102
1738 H 1860 HB 1860 STROKE ADVISORY COUNCIL. M11 Concur 7/20/2006 2:23 PM PASSED 100 0 2 18 0 100
1739 H 2762 HB 2762 DCR EMPLOYEES PERSONNEL ACT. M11 Concur 7/20/2006 2:28 PM PASSED 98 1 3 18 0 99
1740 H 2762 HB 2762 DCR EMPLOYEES PERSONNEL ACT. M12 - Recall\From Enrolling 7/20/2006 3:02 PM PASSED 90 8 2 20 0 98
1741 H 2762 HB 2762 DCR EMPLOYEES PERSONNEL ACT. M6 Reconsider\Concur 7/20/2006 3:06 PM PASSED 95 2 3 20 0 97
1742 H 1965 HB 1965 EMINENT DOMAIN RESTRICTIONS. M11 Concur 7/20/2006 3:10 PM PASSED 97 0 2 21 0 97
412 H 1005 HB 1005 PINEVILLE ANNEXATION. Third Reading 5/17/2005 3:36 PM PASSED 113 1 2 4 0 114
413 H 1579 HJR 1579 HONOR CLARENCE E. "BIG HOUSE" GAINES, SR., LEGENDARY BASKETBALL COACH. COACH. Second Reading 5/17/2005 3:56 PM PASSED 115 0 1 4 0 115
414 H 1115 HB 1115 ELECTION ADMINISTRATION AMENDMENTS. Third Reading 5/17/2005 3:59 PM PASSED 111 0 5 4 0 111
415 H 1357 HB 1357 AMEND ACUPUNCTURE LAWS/FEES. Third Reading 5/17/2005 4:00 PM PASSED 95 16 5 4 0 111
416 H 23 HB 23 FIRE AND RESCUE PENSION ELECTION. Second Reading 5/17/2005 4:03 PM PASSED 114 0 2 4 0 114
417 H 1782 HR 1782 AMEND PERMANENT RULES OF THE HOUSE OF REPRESENTATIVES TO EXTEND THE CROSSOVER DATE. THE CROSSOVER DATE. R2 For Adopt 5/17/2005 4:05 PM PASSED 114 1 1 4 0 115
418 H 92 HB 92 UNIVERSITY OF NORTH CAROLINA/BOARD OF GOVERNORS STUDENT MEMBER VOTE. VOTE. Second Reading 5/17/2005 4:23 PM PASSED 74 40 1 4 1 114
616 H 1650 HJR 1650 HONOR ABRAHAM L. FREELANDER/HAYWOOD COMMUNITY COLLEGE 40TH ANNIVERSARY. ANNIVERSARY. Second Reading 6/1/2005 8:23 PM PASSED 115 0 5 0 0 115
995 H 1323 HB 1323 ESTABLISH NC INNOCENCE INQUIRY COMMISSION. A4 Blust\Third Reading 8/11/2005 8:59 PM FAILED 32 70 5 13 0 102
1320 H 770 HB 770 PARENTAL SAVINGS TRUST FUND TAX DEDUCTION. Second Reading 6/7/2006 2:52 PM PASSED 116 0 1 3 0 116
1321 H 1989 HB 1989 PRINCETON/SMITHFIELD SATELLITE ANNEXATIONS. Second Reading 6/7/2006 2:53 PM PASSED 115 1 1 3 0 116
1322 H 1992 HB 1992 SHALLOTTE ANNEXATION. Second Reading 6/7/2006 2:54 PM PASSED 114 1 2 3 0 115
1714 H 914 HB 914 STATE BUDGET ACT. M11 Concur 7/19/2006 5:46 PM PASSED 102 5 1 12 0 107
1745 H 2692 HR 2692 SUPPORT FEDERAL IMMIGRATION LEGISLATION. R2 For Adopt 7/24/2006 7:29 PM PASSED 105 0 4 11 0 105
1324 H 1963 HB 1963 REVENUE LAWS TECHNICAL AND MOTOR FUEL TAX CHANGES. Second Reading 6/7/2006 2:58 PM PASSED 115 0 2 3 0 115
1325 H 1846 HB 1846 CONTRIBUTION CHANGES. Second Reading 6/7/2006 3:36 PM PASSED 109 5 2 3 1 114
1326 H 2077 HB 2077 STRENGTHEN MENTAL HEALTH/DEVELOPMENT DISABILITIES/SUBSTANCE ABUSE PRIVATE PROVIDERS. ABUSE PRIVATE PROVIDERS. Second Reading 6/7/2006 3:41 PM PASSED 112 0 5 3 0 112
1327 H 2097 HB 2097 PROPERTY TAX CHANGES. Second Reading 6/7/2006 3:46 PM PASSED 116 0 1 3 0 116
657 H 940 HB 940 LELAND/PINEVILLE OVERGROWN VEGETATION ORDINANCE. M11 Concur 6/9/2005 8:48 AM PASSED 111 0 7 2 0 111
658 H 1614 HR 1614 ENDORSE INTERGOVERNMENTAL POLICY ADVISORY COMMITTEE RECOMMENDATIONS. RECOMMENDATIONS. R2 For Adopt 6/9/2005 8:50 AM PASSED 117 0 1 2 0 117
659 H 945 HB 945 OMNIBUS OCCUPANCY TAXES & DURHAM PUBLIC-PRIVATE PARTNERSHIPS. PARTNERSHIPS. Third Reading 6/9/2005 8:52 AM PASSED 85 31 2 2 0 116
661 H 1630 HB 1630 2005 CONTINUING BUDGET AUTHORITY/REVENUE. Third Reading 6/9/2005 9:23 AM PASSED 63 54 1 2 0 117
1430 H 2477 HB 2477 DURHAM COUNTY OCCUPANCY TAX MODIFICATION. Second Reading 6/27/2006 2:42 PM PASSED 96 20 3 1 0 116
173 H 393 HB 393 HOLLY SPRINGS EMINENT DOMAIN. Second Reading 4/13/2005 4:41 PM PASSED 110 4 2 4 0 114
264 H 914 HB 914 STATE BUDGET ACT. M12 Appeal Fro\m The Ruling O\f The Chair 4/27/2005 5:11 PM FAILED 31 81 2 6 0 112
447 H 1465 HB 1465 DISPOSAL IN LANDFILLS/ADDITIONAL BANS. Second Reading 5/19/2005 1:09 PM PASSED 114 1 1 4 0 115
514 H 1176 HB 1176 PROPERTY EXEMPT FROM ENFORCEMENT ACTIONS. A1 LaRoque\Second Reading\M8 Re-Refer to\Commerce 5/26/2005 3:10 PM FAILED 50 62 2 6 0 112
708 H 650 HB 650 BUSINESS COURT CASES/FEE. Second Reading 6/21/2005 2:46 PM PASSED 104 10 3 3 0 114
908 H 1515 HB 1515 MEDICAL SCHOOLS/CRIMINAL BACKGROUND CHECK. Third Reading 7/27/2005 3:40 PM PASSED 113 0 1 6 0 113
1023 H 1500 HB 1500 WINE-TASTING/WINERIES WHOLESALE LICENSE CHANGES. R3 Ruled Mat'l\C RPT ADOPT 8/22/2005 6:27 PM PASSED 83 31 1 4 1 114
1116 H 646 HB 646 INSURANCE COMPANY FEE CONSOLIDATION. M11 Concur 8/23/2005 4:55 PM PASSED 104 13 0 3 0 117
1203 H 105 HB 105 MOTOR FUEL TAX CHANGES & REVENUE LAWS TECHNICAL CHANGES. R3 Ruled Mat'l\M11 Concur 8/24/2005 3:05 AM PASSED 98 11 8 3 0 109
1291 H 2146 HJR 2146 AUTHORIZING RESOLUTION/BUTNER PUBLIC SAFETY/LAW ENFORCEMENT AGENCY COOPERATION AND AGENCY COOPERATION AND ASSISTANCE. Second Reading 5/25/2006 1:16 PM PASSED 106 0 4 10 0 106
1293 H 2174 HB 2174 RAISE MINIMUM WAGE. A1 Glazier\Second Reading 5/25/2006 1:57 PM PASSED 81 24 5 10 0 105
1294 H 2174 HB 2174 RAISE MINIMUM WAGE. A2 Daughtry\Second Reading 5/25/2006 2:08 PM FAILED 48 58 4 10 0 106
1295 H 2174 HB 2174 RAISE MINIMUM WAGE. Second Reading 5/25/2006 2:29 PM PASSED 68 39 3 10 0 107
1296 H 2358 HB 2358 USE OF ACTIVITY BUSES FOR LOCAL EVENTS. A1 Rapp\Second Reading 5/30/2006 2:29 PM PASSED 114 0 3 3 0 114
1297 H 1847 HB 1847 TREASURER TRAINING. A1 Allred\Third Reading 5/30/2006 2:41 PM FAILED 25 88 3 3 1 113
1298 H 1847 HB 1847 TREASURER TRAINING. Third Reading 5/30/2006 2:41 PM PASSED 105 9 2 3 1 114
1299 H 2174 HB 2174 RAISE MINIMUM WAGE. Third Reading\M12 Suspend\Rules 5/30/2006 3:07 PM FAILED 53 62 1 4 0 115
1300 H 2174 HB 2174 RAISE MINIMUM WAGE. Third Reading 5/30/2006 3:33 PM PASSED 72 43 1 4 0 115
1303 H 1848 HB 1848 NO BLANK CONTRIBUTION CHECKS. A1Stam\Second Reading 5/31/2006 3:24 PM PASSED 114 0 1 4 1 114
1304 H 1848 HB 1848 NO BLANK CONTRIBUTION CHECKS. A2Faison\Second Reading 5/31/2006 3:28 PM PASSED 113 0 2 4 1 113
1305 H 1848 HB 1848 NO BLANK CONTRIBUTION CHECKS. Second Reading 5/31/2006 3:29 PM PASSED 114 0 1 4 1 114
1306 H 2120 HB 2120 STRENGTHEN LEGISLATIVE OVERSIGHT COMMITTEE OVERSIGHT ROLE. Second Reading 5/31/2006 3:32 PM PASSED 114 0 2 4 0 114
1307 H 2026 HB 2026 LAW ENFORCEMENT USE OF ALL-TERRAIN VEHICLES. Second Reading 6/1/2006 11:12 AM PASSED 99 0 16 5 0 99
1308 H 1818 HJR 1818 AUTHORIZING RESOLUTION/CLARIFY APPLICATION OF THE CONSUMER FINANCE ACT TO VARIOUS CONSUMER FINANCE ACT TO VARIOUS LENDING SUBTERFUGES. Second Reading 6/1/2006 11:15 AM PASSED 110 0 5 5 0 110
1309 H 1870 HJR 1870 AUTHORIZING RESOLUTION/GENERAL CONTRACTORS/EXTEND LICENSE VALIDITY. VALIDITY. Second Reading 6/1/2006 11:17 AM PASSED 108 0 7 5 0 108
1310 H 2643 HJR 2643 AUTHORIZING RESOLUTION/CHEROKEE TRIBAL COURT CONVICTIONS RECOGNIZED. RECOGNIZED. Second Reading 6/1/2006 11:21 AM PASSED 113 0 2 5 0 113
1311 H 2759 HJR 2759 AUTHORIZING RESOLUTION/GENERIC DRUGS-MEDICAID. Second Reading 6/1/2006 11:22 AM PASSED 112 0 3 5 0 112
1312 H 2852 HJR 2852 AUTHORIZING RESOLUTION/PROTECT MILITARY VETERANS FROM IDENTITY THEFT. IDENTITY THEFT. Second Reading 6/1/2006 11:25 AM PASSED 113 0 2 5 0 113
1313 H 2038 HJR 2038 AUTHORIZING RESOLUTION/IDENTITY THEFT. Second Reading 6/6/2006 2:26 PM PASSED 111 0 7 2 0 111
1314 H 2341 HJR 2341 AUTHORIZING RESOLUTION/NO PRAYER FOR JUDGMENT/BUS STOP ARM VIOLATION. VIOLATION. Second Reading 6/6/2006 2:28 PM PASSED 116 0 2 2 0 116
1315 H 2515 HJR 2515 AUTHORIZING RESOLUTION/EVERY CHILD READY TO LEARN. Second Reading 6/6/2006 2:30 PM PASSED 114 2 2 2 0 116
1316 H 1908 HB 1908 REWRITE SPECIAL EDUCATION LAWS. Second Reading 6/6/2006 2:55 PM PASSED 116 1 1 2 0 117
1317 H 1965 HB 1965 EMINENT DOMAIN RESTRICTIONS. Second Reading 6/6/2006 3:01 PM PASSED 116 0 2 2 0 116
1318 H 1881 HB 1881 PINK HILL DEANNEXATION. Second Reading 6/7/2006 2:37 PM PASSED 114 0 3 3 0 114
265 H 914 HB 914 STATE BUDGET ACT. Second Reading 4/27/2005 5:12 PM PASSED 102 11 1 6 0 113
266 H 1015 HB 1015 CLERKS MAY ORDER MEDIATION. A1 Hackney\Second Reading 4/27/2005 5:14 PM PASSED 113 0 1 6 0 113
267 H 1015 HB 1015 CLERKS MAY ORDER MEDIATION. Second Reading 4/27/2005 5:15 PM PASSED 113 0 1 6 0 113
268 H 914 HB 914 STATE BUDGET ACT. M3 On Motion T\o Susp Rules F\or 3rd Reading 4/27/2005 5:16 PM PASSED 92 17 5 6 0 109
269 H 914 HB 914 STATE BUDGET ACT. M12 To Suspend\Rules To Have\R3 Today 4/27/2005 5:17 PM PASSED 91 19 4 6 0 110
270 H 914 HB 914 STATE BUDGET ACT. Third Reading 4/27/2005 5:20 PM PASSED 105 9 0 6 0 114
1369 H 2129 HB 2129 COMMUNITY CONSERVATION ASSISTANCE PROGRAM. Second Reading 6/15/2006 11:27 AM PASSED 116 0 0 4 0 116
1380 H 1915 HB 1915 STREAMLINED SALES TAX AGREEMENT SALES TAX DEFINITIONS/SALES TAX PAYMENTS. PAYMENTS. R2 Ruled Mat'l\M11 Concur 6/21/2006 2:20 PM PASSED 118 0 0 2 0 118
369 H 1097 HB 1097 DESIGN/BUILD/OPERATE CONTRACT SLUDGE MANAGEMENT. Second Reading 5/12/2005 2:33 PM PASSED 104 0 4 12 0 104
370 H 1120 HB 1120 STRENGTHEN NEIGHBORHOOD WATCH PROGRAMS. Second Reading 5/12/2005 2:38 PM PASSED 104 0 4 12 0 104
371 H 689 HB 689 MONROE MEALS TAX. A1 Blackwood\Second Reading 5/12/2005 2:49 PM FAILED 41 61 6 12 0 102
372 H 689 HB 689 MONROE MEALS TAX. Second Reading 5/12/2005 2:50 PM PASSED 66 38 4 12 0 104
373 H 1202 HB 1202 REGIONAL TRANSPORTATION METROPOLITAN PLANNING ORGANIZATIONS REPRESENTATION. REPRESENTATION. Second Reading 5/12/2005 2:52 PM PASSED 104 0 3 13 0 104
374 H 1266 HB 1266 DEPARTMENT OF TRANSPORTATION RELOCATION ASSISTANCE CHANGE. CHANGE. Second Reading 5/12/2005 2:53 PM PASSED 104 0 3 13 0 104
375 H 1280 HB 1280 DEPARTMENT OF TRANSPORTATION REPORT/FEDERAL RAIL ASSISTANCE TO NC. ASSISTANCE TO NC. Second Reading 5/12/2005 2:56 PM PASSED 103 0 4 13 0 103
376 H 1217 HB 1217 NOTARY FEE INCREASE A2 Sutton\Second Reading 5/12/2005 3:01 PM PASSED 93 11 3 13 0 104
377 H 1217 HB 1217 NOTARY FEE INCREASE Second Reading 5/12/2005 3:02 PM PASSED 73 31 3 13 0 104
378 H 1120 HB 1120 STRENGTHEN NEIGHBORHOOD WATCH PROGRAMS. A1 Stam\Third Reading 5/12/2005 3:06 PM PASSED 103 0 4 13 0 103
379 H 1120 HB 1120 STRENGTHEN NEIGHBORHOOD WATCH PROGRAMS. Third Reading 5/12/2005 3:07 PM PASSED 104 0 3 13 0 104
380 H 1332 HB 1332 ELECTRONIC PURCHASES AND SALES. Second Reading 5/12/2005 3:08 PM PASSED 103 0 4 13 0 103
448 H 1128 HB 1128 CAMPAIGN FINANCE AMENDMENTS. A2 Howard\Third Reading 5/19/2005 1:17 PM PASSED 115 1 0 4 0 116
449 H 1128 HB 1128 CAMPAIGN FINANCE AMENDMENTS. Third Reading 5/19/2005 1:18 PM PASSED 115 1 0 4 0 116
450 H 329 HB 329 LIMIT LIABILITY FOR AGRITOURISM ACTIVITIES. A1 Faison\Second Reading 5/19/2005 1:21 PM PASSED 116 0 0 4 0 116
451 H 329 HB 329 LIMIT LIABILITY FOR AGRITOURISM ACTIVITIES. Second Reading 5/19/2005 1:31 PM PASSED 113 1 1 5 0 114
452 H 1784 HR 1784 HOUSE RESOLUTION PROVIDING THAT THE HOUSE OF REPRESENTATIVES SHALL CONVENE IN EDENTON ON MAY 25, 2005 SHALL CONVENE IN EDENTON ON MAY 25, 2005 R2 For Adopt 5/19/2005 1:32 PM PASSED 115 0 0 5 0 115
453 H 1279 HB 1279 SPEEDING TO ELUDE ARREST. Second Reading 5/19/2005 1:34 PM PASSED 111 0 4 5 0 111
454 H 613 HB 613 UPDATE CERTIFICATION/LICENSURE/ RECREATIONAL THERAPY. Second Reading 5/19/2005 1:36 PM PASSED 94 18 3 5 0 112
455 H 1328 HB 1328 PARDON/EXPUNCTION OF RECORD. Second Reading 5/19/2005 1:39 PM PASSED 112 0 3 5 0 112
456 H 1464 HB 1464 REPEAL SUNSET ON UNIVERSITY OF NORTH CAROLINA DESIGN CONTRACTS/ REPORT. REPORT. Second Reading 5/19/2005 1:42 PM PASSED 109 3 2 6 0 112
457 H 1199 HB 1199 INVOLUNTARY COMMITMENT AFFIDAVIT. Second Reading\VOTE TAKEN VIV\A VOCE 5/19/2005 12:50 PM PASSED 116 0 0 4 0 116
458 H 1121 HB 1121 DIRECT SOLICITATION BY HEALTH CARE PROVIDERS. Second Reading\VOTE TAKEN VIV\A VOCE 5/19/2005 12:37 PM PASSED 111 5 0 4 0 116
459 H 1189 HB 1189 FONTANA LAKE PROTECTION. Second Reading\VOTE TAKEN VIV\A VOCE 5/19/2005 12:44 PM PASSED 113 3 0 4 0 116
460 H 686 HB 686 UPDATE DISABILITY STATUTES/SERVICE ANIMALS. M11 Not Concur 5/23/2005 7:20 PM PASSED 104 1 9 6 0 105
515 H 1176 HB 1176 PROPERTY EXEMPT FROM ENFORCEMENT ACTIONS. A1 LaRoque\Second Reading 5/26/2005 3:11 PM FAILED 36 77 1 6 0 113
516 H 1176 HB 1176 PROPERTY EXEMPT FROM ENFORCEMENT ACTIONS. Second Reading 5/26/2005 3:11 PM PASSED 70 42 2 6 0 112
517 H 1209 HB 1209 SEXUAL BATTERY/SEX OFFENDER REGISTRY/DNA. Second Reading 5/26/2005 3:14 PM PASSED 110 0 4 6 0 110
518 H 1221 HB 1221 PARENTING COORDINATOR ESTABLISHED. A1 Hackney\Second Reading 5/26/2005 3:19 PM PASSED 108 0 6 6 0 108
519 H 1221 HB 1221 PARENTING COORDINATOR ESTABLISHED. Second Reading 5/26/2005 3:19 PM PASSED 110 0 4 6 0 110
520 H 1236 HB 1236 INSURANCE BOARD OF GOVERNORS MEMBERSHIP. Second Reading 5/26/2005 3:21 PM PASSED 109 0 5 6 0 109
521 H 869 HB 869 PUBLIC HOSPITAL AMENDMENTS/DOWNTOWN FACILITY. M11 Concur 5/26/2005 3:23 PM PASSED 108 0 6 6 0 108
522 H 1261 HB 1261 WIRELESS TELEPHONE SERVICE. Second Reading 5/26/2005 3:25 PM PASSED 108 0 6 6 0 108
523 H 1305 HB 1305 MAPS/CHARTERS TO SECRETARY OF STATE. Second Reading 5/26/2005 3:37 PM PASSED 111 0 3 6 0 111
524 H 1311 HB 1311 DOMESTIC VIOLENCE VICTIMS EMPOWERMENT ACT. A1 Hilton\Second Reading 5/26/2005 3:45 PM PASSED 81 28 5 6 0 109
525 H 1311 HB 1311 DOMESTIC VIOLENCE VICTIMS EMPOWERMENT ACT. Second Reading 5/26/2005 4:14 PM PASSED 82 28 4 6 0 110
526 H 1469 HB 1469 UTILITIES ACCESS TO PUBLIC RIGHTS-OF-WAY. Second Reading 5/26/2005 4:19 PM PASSED 109 0 5 6 0 109
272 H 464 HB 464 WINSTON-SALEM MOTOR VEHICLE TAX INCREASE. Third Reading 5/2/2005 7:28 PM PASSED 77 33 5 5 0 110
273 H 488 HB 488 CARY CHARTER REWRITE. Third Reading 5/2/2005 7:29 PM PASSED 110 0 5 5 0 110
275 H 691 HB 691 CARRBORO MOTOR VEHICLE TAX. Third Reading 5/2/2005 7:31 PM PASSED 79 32 4 5 0 111
276 H 1037 HB 1037 INCREASE WRIGHTSVILLE BEACH MOTOR VEHICLE TAX. Third Reading 5/2/2005 7:31 PM PASSED 79 32 4 5 0 111
277 H 771 HB 771 UNC/DUAL OFFICE HOLDING. Third Reading 5/2/2005 7:32 PM PASSED 76 33 5 5 1 109
7 H 26 HJR 26 GREENSBORO SIT-IN ANNIVERSARY. Second Reading 2/1/2005 3:31 PM PASSED 113 0 2 5 0 113
8 H 109 HR 109 HONOR THE FOUNDER OF THE BOY SCOUTS OF AMERICA ON THE ORGANIZATION'S SCOUTING ANNIVERSARY WEEK ORGANIZATION'S SCOUTING ANNIVERSARY WEEK Second Reading 2/8/2005 2:16 PM PASSED 114 0 2 4 0 114
11 H 19 HJR 19 HONOR JAMES DONALD "DON" GOINS. Second Reading 2/14/2005 7:14 PM PASSED 92 0 12 16 0 92
12 H 47 HJR 47 HONOR TOWN OF CREEDMOOR/100TH ANNIVERSARY. Second Reading 2/14/2005 7:21 PM PASSED 91 0 13 16 0 91
569 H 1539 HB 1539 UNIVERSITY OF NORTH CAROLINA/AMEND UMSTEAD ACT. A1 Daughtridge\Second Reading 5/31/2005 6:41 PM PASSED 116 0 0 4 0 116
570 H 1539 HB 1539 UNIVERSITY OF NORTH CAROLINA/AMEND UMSTEAD ACT. A2 Faison\Second Reading 5/31/2005 6:54 PM FAILED 34 82 1 3 0 116
571 H 1539 HB 1539 UNIVERSITY OF NORTH CAROLINA/AMEND UMSTEAD ACT. Second Reading 5/31/2005 6:58 PM PASSED 108 10 0 2 0 118
572 H 1343 HB 1343 HEALTH INSURERS/PROMPT PAY CORRECTION. A1 Nye\Third Reading 5/31/2005 7:01 PM PASSED 117 0 1 2 0 117
573 H 1343 HB 1343 HEALTH INSURERS/PROMPT PAY CORRECTION. Third Reading 5/31/2005 7:02 PM PASSED 117 0 1 2 0 117
574 H 1551 HB 1551 PRESERVICE TRAINING EXEMPTING/CERTAIN CHILD PROTECTIVE SERVICES WORKERS. WORKERS. Second Reading 5/31/2005 7:05 PM PASSED 115 0 3 2 0 115
575 H 1541 HB 1541 HOMEOWNER ASSOCIATION AMENDMENTS. Third Reading 6/1/2005 3:52 PM PASSED 113 2 3 0 2 115
576 H 1385 HB 1385 UNDERGROUND STORAGE TANK AMENDMENTS. Third Reading 6/1/2005 3:54 PM PASSED 115 5 0 0 0 120
577 H 1417 HB 1417 REVISE JUDICIAL STANDARDS COMMISSION. A1 Haire\Third Reading 6/1/2005 3:55 PM PASSED 120 0 0 0 0 120
578 H 1417 HB 1417 REVISE JUDICIAL STANDARDS COMMISSION. Third Reading 6/1/2005 3:56 PM PASSED 119 0 1 0 0 119
579 H 1539 HB 1539 UNIVERSITY OF NORTH CAROLINA/AMEND UMSTEAD ACT. A3 Daughtridge\Third Reading 6/1/2005 3:57 PM PASSED 114 3 3 0 0 117
580 H 1539 HB 1539 UNIVERSITY OF NORTH CAROLINA/AMEND UMSTEAD ACT. Third Reading 6/1/2005 3:58 PM PASSED 113 6 1 0 0 119
581 H 76 HB 76 REDUCE SMOKING IN RESTAURANTS. A1 Holliman\Second Reading 6/1/2005 4:10 PM FAILED 59 59 2 0 0 118
709 H 1635 HB 1635 AMEND DISPLACED HOMEMAKER LAWS/UP FUND FEES. Second Reading 6/21/2005 2:49 PM PASSED 69 45 3 3 0 114
710 H 1776 HB 1776 NORTH CAROLINA TROUT UNLIMITED PLATE/TROUT STATE FISH. Comm Amend #1\Second Reading 6/21/2005 2:52 PM PASSED 107 7 3 3 0 114
711 H 1776 HB 1776 NORTH CAROLINA TROUT UNLIMITED PLATE/TROUT STATE FISH. A2 Haire\Second Reading 6/21/2005 2:53 PM PASSED 113 1 3 3 0 114
712 H 1776 HB 1776 NORTH CAROLINA TROUT UNLIMITED PLATE/TROUT STATE FISH. Second Reading 6/21/2005 2:55 PM PASSED 110 6 1 3 0 116
722 H 1063 HB 1063 KILL DEVIL HILLS ASSESSMENTS. Second Reading 6/22/2005 1:34 PM PASSED 107 12 0 1 0 119
723 H 650 HB 650 BUSINESS COURT CASES/FEE. Third Reading 6/22/2005 1:35 PM PASSED 109 9 1 1 0 118
724 H 1635 HB 1635 AMEND DISPLACED HOMEMAKER LAWS/UP FUND FEES. Third Reading 6/22/2005 1:55 PM PASSED 68 50 1 1 0 118
725 H 1776 HB 1776 NORTH CAROLINA TROUT UNLIMITED PLATE/TROUT STATE FISH. Third Reading 6/22/2005 1:59 PM PASSED 113 5 1 1 0 118
1330 H 1881 HB 1881 PINK HILL DEANNEXATION. Third Reading 6/12/2006 7:26 PM PASSED 109 0 5 6 0 109
719 H 131 HB 131 ONSLOW DEED RECORDING. M11 Concur 6/22/2005 1:30 PM PASSED 118 0 1 1 0 118
720 H 1199 HB 1199 INVOLUNTARY COMMITMENT AFFIDAVIT. M11 Concur 6/22/2005 1:31 PM PASSED 119 0 0 1 0 119
731 H 451 HB 451 ADOPTION/CRIMINAL CHECKS/PROSPECTIVE FAMILIES. M11 Concur 6/23/2005 9:17 AM PASSED 116 0 1 3 0 116
732 H 1063 HB 1063 KILL DEVIL HILLS ASSESSMENTS. Third Reading 6/23/2005 9:18 AM PASSED 107 9 1 3 0 116
748 H 1630 HB 1630 2005 CONTINUING BUDGET AUTHORITY REVENUE. R2 Ruled Mat'l\M11 Not Concur 6/28/2005 10:32 AM PASSED 116 0 2 2 0 116
749 H 514 HB 514 MULTICOUNTY SUPERIOR COURT DISTRICT/MOTIONS. Sen Amend #1\M11 Concur 6/29/2005 1:30 PM PASSED 118 0 2 0 0 118
750 H 1168 HB 1168 PROHIBIT DECEPTIVE MARKETING/BANKING SERVICES. M11 Concur 6/29/2005 1:32 PM PASSED 119 0 1 0 0 119
751 H 1430 HB 1430 OBSTRUCTING USE OF BOAT RAMP. M11 Concur 6/29/2005 1:34 PM PASSED 120 0 0 0 0 120
752 H 1503 HB 1503 REGIONAL PUBLIC TRANSPORTATION LIABILITY. M11 Concur 6/29/2005 1:36 PM PASSED 118 0 2 0 0 118
753 H 1552 HB 1552 NORTH CAROLINA AGRICULTURAL AND TECHNICAL UNIVERSITY CAMPUS PARKING. CAMPUS PARKING. M11 Concur 6/29/2005 1:38 PM PASSED 119 0 1 0 0 119
754 H 1582 HJR 1582 CONFIRMATION OF THE REAPPOINTMENT OF ROBERT V. OWENS, JR. AND THE APPOINTMENT OF DR. ROBERT K. KOGER THE APPOINTMENT OF DR. ROBERT K. KOGER TO UTILITIES COMMISSION. M11 Concur 6/29/2005 1:39 PM PASSED 118 0 2 0 0 118
1747 H 1523 HB 1523 INCREASE PENALTIES FOR COASTAL AREA MANAGEMENT ACT VIOLATIONS. R3 Ruled Mat'l\M11 Concur 7/24/2006 7:32 PM PASSED 88 16 5 11 0 104
1748 H 767 HB 767 PUBLIC HOUSING AUTHORITY/TARGET INCOMES. M11 Concur 7/24/2006 7:34 PM PASSED 104 1 4 11 0 105
1749 H 2445 HB 2445 HALIFAX/AHOSKIE OCCUPANCY TAX. M6 Reconsider 7/24/2006 7:37 PM PASSED 104 1 4 11 0 105
1750 H 2445 HB 2445 HALIFAX/AHOSKIE OCCUPANCY TAX. R2 Ruled Mat'l\M11 Concur 7/24/2006 7:38 PM PASSED 85 21 3 11 0 106
1751 H 1024 HB 1024 RUNOFF CHANGES. M11 Concur 7/24/2006 7:55 PM FAILED 45 61 3 11 0 106
1752 H 1827 HB 1827 GENERAL CONTRACTOR LICENSE EXCEPTIONS/ DEPARTMENT OF TRANSPORTATION. TRANSPORTATION. M11 Not Concur 7/24/2006 8:05 PM PASSED 105 0 3 11 1 105
1753 H 1896 HB 1896 SEX OFFENDER REGISTRATION CHANGES. M11 Not Concur 7/24/2006 8:11 PM PASSED 106 0 3 11 0 106
740 H 532 HB 532 ADJUST ADOPTION PROCEDURE. M11 Concur 6/28/2005 9:57 AM PASSED 113 0 4 3 0 113
741 H 1284 HB 1284 IMPROVE REAL ESTATE LICENSING LAW. A1 Howard\Second Reading 6/28/2005 9:58 AM PASSED 116 0 2 2 0 116
742 H 1284 HB 1284 IMPROVE REAL ESTATE LICENSING LAW. Second Reading 6/28/2005 10:02 AM PASSED 116 0 2 2 0 116
743 H 1429 HB 1429 WINE SHIPPER FEE/WINE PRIMARY SOURCE. A1 Gibson\Second Reading 6/28/2005 10:09 AM PASSED 115 0 3 2 0 115
744 H 1429 HB 1429 WINE SHIPPER FEE/WINE PRIMARY SOURCE. Second Reading 6/28/2005 10:10 AM PASSED 106 10 2 2 0 116
736 H 488 HB 488 CARY CHARTER REWRITE. Sen. Amend. #1\M11 Concur 6/27/2005 7:21 PM PASSED 104 0 8 8 0 104
737 H 702 HB 702 PERSONAL WATERCRAFT CHANGES. M11 Concur 6/27/2005 7:22 PM PASSED 92 14 6 8 0 106
738 H 1102 HB 1102 EARLY PREP FOR ONE-STOP COUNT. M11 Concur 6/27/2005 7:23 PM PASSED 105 0 7 8 0 105
1757 H 1059 HB 1059 STATE HEALTH PLAN CHANGES. M11 Not Concur 7/25/2006 2:39 PM PASSED 113 0 1 6 0 113
1758 H 1323 HB 1323 ESTABLISH NORTH CAROLINA INNOCENCE INQUIRY COMMISSION. C Rpt Adopt 7/25/2006 3:30 PM PASSED 86 28 0 6 0 114
1759 H 2445 HB 2445 HALIFAX/AHOSKIE OCCUPANCY TAX. R3 Ruled Mat'l\M11 Concur 7/25/2006 3:32 PM PASSED 90 24 0 6 0 114
1760 H 1024 HB 1024 Runoff Changes. M6 Reconsider\Motion to\Concur 7/25/2006 3:36 PM PASSED 60 53 1 6 0 113
1762 H 88 HB 88 ELECTORAL FAIRNESS ACT. M11 Concur 7/25/2006 3:42 PM PASSED 93 20 1 6 0 113
1763 H 1413 HB 1413 ENHANCE LOCAL GOVERNMENTS ADMINISTER OF ENVIRONMENTAL PROGRAMS. M11 Concur 7/25/2006 3:44 PM PASSED 93 17 4 6 0 110
1764 H 2170 HB 2170 BILL LEE CHANGES. M11 Concur 7/25/2006 3:48 PM PASSED 105 7 2 6 0 112
1776 H 2147 HB 2147 USE OF EXISTING PLANS FOR STATE CONSTRUCTION. A1 Crawford\Second Reading 7/25/2006 4:48 PM PASSED 110 0 2 8 0 110
1777 H 2147 HB 2147 USE OF EXISTING PLANS FOR STATE CONSTRUCTION. Second Reading 7/25/2006 4:49 PM PASSED 110 0 2 8 0 110
1779 H 1942 HB 1942 VERIFY PUBLIC EMPLOYEE LEGAL STATUS/FUNDS. A1 Cleveland\Second Reading 7/25/2006 5:38 PM PASSED 109 0 3 8 0 109
1780 H 1942 HB 1942 VERIFY PUBLIC EMPLOYEE LEGAL STATUS/FUNDS. Second Reading 7/25/2006 5:45 PM PASSED 107 2 3 8 0 109
1784 H 2881 HB 2881 IDENTITY THEFT. Second Reading 7/26/2006 2:54 PM PASSED 89 22 1 8 0 111
1785 H 2762 HB 2762 DEPARTMENT OF CULTURAL RESOURCES EMPLOYEES/PERSONNEL ACT. M11 Concur 7/26/2006 3:35 PM PASSED 75 37 0 8 0 112
864 H 1776 HB 1776 NORTH CAROLINA TROUT UNLIMITED PLATE/TROUT STATE FISH. M11 Concur 7/19/2005 2:37 PM PASSED 117 0 2 1 0 117
865 H 1117 HB 1117 PUBLIC FINANCE CHANGES. R2 Ruled Mat'l\M11 Concur 7/19/2005 2:39 PM PASSED 117 0 1 2 0 117
866 H 329 HB 329 LIMIT LIABILITY FOR AGRITOURISM ACTIVITIES. M11 Concur 7/19/2005 2:40 PM PASSED 116 0 2 2 0 116
867 H 1221 HB 1221 PARENTING COORDINATOR ESTABLISHED. M11 Concur 7/19/2005 2:42 PM PASSED 116 0 2 2 0 116
868 H 1280 HB 1280 DEPARTMENT OF TRANSPORTATION REPORT/FEDERAL RAIL ASSISTANCE TO NC. ASSISTANCE TO NC. M11 Concur 7/19/2005 2:44 PM PASSED 116 1 1 2 0 117
869 H 1332 HB 1332 ELECTRONIC PURCHASES AND SALES. M11 Concur 7/19/2005 2:45 PM PASSED 115 1 2 2 0 116
870 H 1434 HB 1434 ELECTRONIC SIGNATURE UNDER RULE 4. M11 Concur 7/19/2005 2:46 PM PASSED 116 0 2 2 0 116
871 H 1500 HB 1500 WINE-TASTING CHANGES. M11 Not Concur 7/19/2005 2:48 PM PASSED 117 0 1 2 0 117
1788 H 1024 HB 1024 RUNOFF CHANGES. M6 Reconsider\Motion to\Concur 7/26/2006 3:46 PM PASSED 58 52 1 9 0 110
1789 H 1024 HB 1024 RUNOFF CHANGES. M11 Concur 7/26/2006 3:46 PM PASSED 59 52 0 9 0 111
874 H 1004 HB 1004 EXTEND JDIG AND BILL LEE ACT. R2 Ruled Mat'l\C/Rpt Adopt 7/19/2005 3:55 PM PASSED 74 44 0 2 0 118
875 H 1004 HB 1004 EXTEND JOB DEVELOPMENT INVESTMENT GRANT AND BILL LEE ACT. R3 Ruled Mat'l\C/Rpt Adopt 7/20/2005 2:39 PM PASSED 79 34 3 4 0 113
876 H 1117 HB 1117 PUBLIC FINANCE CHANGES. R3 Ruled Mat'l\M11 Concur 7/20/2005 2:41 PM PASSED 112 0 4 4 0 112
877 H 655 HB 655 BETTER INSURANCE/ANNUITY DISCLOSURE. M11 Concur 7/20/2005 2:42 PM PASSED 112 0 4 4 0 112
878 H 896 HB 896 STATE BAR/APPEAL/FEE. M11 Concur 7/20/2005 2:44 PM PASSED 96 16 4 4 0 112
879 H 1469 HB 1469 UTILITIES ACCESS TO PUBLIC RIGHTS-OF-WAY. M11 Not Concur\Senate Amd. 1 7/20/2005 2:46 PM PASSED 112 0 3 5 0 112
881 H 1048 HB 1048 GOVERNOR'S DRIVING WHILE IMPAIRED TASK FORCE RECOMMENDATIONS. RECOMMENDATIONS. A1 Haire\Second Reading 7/20/2005 3:19 PM FAILED 37 74 4 5 0 111
882 H 1048 HB 1048 GOVERNOR'S DRIVING WHILE IMPAIRED TASK FORCE RECOMMENDATIONS. RECOMMENDATIONS. A2 Sutton\Second Reading 7/20/2005 3:33 PM FAILED 30 83 2 5 0 113
883 H 1048 HB 1048 GOVERNOR'S DRIVING WHILE IMPAIRED TASK FORCE RECOMMENDATIONS. RECOMMENDATIONS. A3 Jones, Ed\Second Reading 7/20/2005 4:01 PM PASSED 74 36 5 5 0 110
884 H 1048 HB 1048 GOVERNOR'S DRIVING WHILE IMPAIRED TASK FORCE RECOMMENDATIONS. RECOMMENDATIONS. Second Reading 7/20/2005 4:04 PM PASSED 112 0 3 5 0 112
885 H 580 HB 580 CITY OF BELMONT OCCUPANCY TAX. R2 Ruled Mat'l\M11 Concur 7/21/2005 11:16 AM PASSED 89 16 4 11 0 105
886 H 666 HB 666 HIGH OCCUPANCY VEHICLE LANE PENALTIES. M11 Not Concur 7/21/2005 11:17 AM PASSED 106 0 3 11 0 106
891 H 1789 HJR 1789 HONOR THE LIFE AND MEMORY OF JAMES BRANTLEY LAMBETH, JR., FORMER CHAPLAIN OF THE NORTH CAROLINA FORMER CHAPLAIN OF THE NORTH CAROLINA HOUSE OF REPRESENTATIVES. Second Reading 7/25/2005 7:30 PM PASSED 112 0 1 7 0 112
892 H 580 HB 580 CITY OF BELMONT OCCUPANCY TAX. R3 Ruled Mat'l\M11 Concur 7/25/2005 7:32 PM PASSED 89 22 2 7 0 111
899 H 1515 HB 1515 MEDICAL SCHOOLS/CRIMINAL BACKGROUND CHECK. Second Reading 7/26/2005 3:00 PM PASSED 116 0 2 2 0 116
900 H 1775 HB 1775 UNIVERSITY OF NORTH CAROLINA NONAPPROPRIATED CAPITAL PROJECTS. PROJECTS. Second Reading 7/26/2005 3:02 PM PASSED 113 3 2 2 0 116
1381 H 2120 HB 2120 STRENGTHEN LEGISLATIVE OVERSIGHT COMMITTEE OVERSIGHT ROLE. M11 Concur 6/21/2006 2:22 PM PASSED 118 0 0 2 0 118
1569 H 1897 HJR 1897 HONOR MUSICAL GROUP WBT BRIARHOPPERS. Second Reading 7/11/2006 4:12 PM PASSED 111 0 6 2 0 111
1570 H 2076 HB 2076 JUVENILE CODE CHANGES. Second Reading 7/11/2006 4:22 PM PASSED 115 0 2 2 0 115
1571 H 2164 HB 2164 AMEND SANITARY DISTRICT AUTHORITY. Second Reading 7/11/2006 4:32 PM PASSED 84 30 3 2 0 114
1572 H 2037 HB 2037 MEDICAID REIMBURSEMENTS FOR OCULAR PROSTHETISTS. A1 Goodwin\Second Reading 7/11/2006 4:35 PM PASSED 112 0 5 2 0 112
1573 H 2037 HB 2037 MEDICAID REIMBURSEMENTS FOR OCULAR PROSTHETISTS. Second Reading 7/11/2006 4:36 PM PASSED 114 0 3 2 0 114
1574 H 2894 HB 2894 PROHIBIT VARIOUS LENDING SUBTERFUGES. Second Reading 7/11/2006 4:40 PM PASSED 116 0 1 2 0 116
1575 H 2181 HB 2181 REVISE CAPITAL IMPROVEMENT PLAN. Second Reading 7/11/2006 4:42 PM PASSED 114 0 1 4 0 114
1576 H 2885 HB 2885 EMPLOYEE SECURITY COMMISSION/EMPLOYERS' PROTEST FILING PERIOD. PROTEST FILING PERIOD. Second Reading 7/11/2006 5:04 PM PASSED 61 48 6 4 0 109
1577 H 1048 HB 1048 GOVERNOR'S DWI TASK FORCE RECOMMENDATIONS. M11 Not Concur 7/11/2006 5:07 PM PASSED 112 0 3 4 0 112
1580 H 1891 HB 1891 SIMPLIFY FIRE AND LIGHTENING TAX RATE. Second Reading 7/11/2006 5:16 PM PASSED 111 0 4 4 0 111
1581 H 2727 HB 2727 RESTORE BOXING COMMISSION. Second Reading 7/11/2006 5:39 PM PASSED 58 55 2 4 0 113
1582 H 2876 HJR 2876 HONOR WARREN CLAUDE "PETE" OLDHAM. Second Reading 7/12/2006 3:14 PM PASSED 115 0 0 5 0 115
1583 H 2727 HB 2727 RESTORE BOXING COMMISSION. Third Reading 7/12/2006 3:16 PM PASSED 64 49 2 5 0 113
1584 H 945 HB 945 OMNIBUS OCCUPANCY TAXES. R2 Ruled Mat'l\C RPT ADOPT 7/12/2006 3:19 PM PASSED 85 28 2 5 0 113
1585 H 845 HB 845 LOCAL ALL-TERRAIN VEHICLES USE/ WHITEVILLE UNSAFE BUILDING M11 Concur 7/12/2006 3:21 PM PASSED 114 0 1 5 0 114
1586 H 2259 HB 2259 ELKIN/PILOT MOUNTAIN/DOBSON OCCUPANCY TAX. M11 Concur 7/12/2006 3:22 PM PASSED 90 25 0 5 0 115
1587 H 1963 HB 1963 REVENUE LAWS TECHNICAL AND MOTOR FUEL TAX CHANGES. R2 Ruled Mat'l\M11 Concur 7/12/2006 4:10 PM PASSED 72 41 0 5 2 113
1594 H 1151 HB 1151 PLANNING TIME & DUTY-FREE LUNCH FOR TEACHERS. M11 Concur 7/12/2006 5:02 PM PASSED 111 3 2 4 0 114
1595 H 1323 HB 1323 ESTABLISH NORTH CAROLINA INNOCENCE INQUIRY COMMISSION. M11 Not Concur 7/12/2006 5:04 PM PASSED 110 0 6 4 0 110
1596 H 1987 HB 1987 HEALTH PLANS/CHANGES TO BASIC AND STANDARD. M11 Concur 7/12/2006 5:05 PM PASSED 111 0 5 4 0 111
1597 H 2188 HB 2188 CANDIDATE CHALLENGE PROCEDURE. M11 Concur 7/12/2006 5:07 PM PASSED 108 1 6 4 1 109
1607 H 2170 HB 2170 BILL LEE CHANGES. Second Reading 7/12/2006 6:18 PM PASSED 106 7 2 5 0 113
1608 H 1891 HB 1891 SIMPLIFY FIRE AND LIGHTNING TAX RATE. Third Reading 7/12/2006 6:19 PM PASSED 113 0 2 5 0 113
1609 H 2468 HB 2468 REGULATION OF GOLF CARTS IN CLARKTON. Second Reading 7/12/2006 6:20 PM PASSED 111 0 4 5 0 111
1610 H 2183 HB 2183 CAPITAL IMPROVEMENTS RESERVE ACCOUNT. Second Reading 7/12/2006 6:24 PM PASSED 111 0 4 5 0 111
302 H 646 HB 646 INSURANCE COMPANY FEE CONSOLIDATION. Third Reading 5/4/2005 4:50 PM PASSED 92 21 6 1 0 113
303 H 1004 HB 1004 MORTGAGE HOSPITAL FACILITIES. Third Reading 5/4/2005 4:51 PM PASSED 116 0 3 1 0 116
304 H 1117 HB 1117 PUBLIC FINANCE CHANGES. Third Reading 5/4/2005 4:52 PM PASSED 115 1 3 1 0 116
305 H 1262 HB 1262 AUTHORIZING SOCIAL WORK BOARD TO EMPLOY PERSONNEL. Second Reading 5/4/2005 4:53 PM PASSED 115 0 4 1 0 115
306 H 392 HB 392 AMEND DEFINITION OF MALT BEVERAGE IN ALCOHOLIC BEVERAGE CONTROL LAW. LAW. Third Reading 5/4/2005 5:02 PM PASSED 68 46 4 1 1 114
307 H 182 HB 182 CHARTER SCHOOL RETIREMENT ELECTION. Second Reading 5/4/2005 5:05 PM PASSED 116 0 3 1 0 116
308 H 485 HB 485 CHARTER SCHOOL RETIREMENT ELECTION. Second Reading 5/4/2005 5:08 PM PASSED 114 0 5 1 0 114
309 H 735 HB 735 ACCIDENT & HEALTH INSURANCE/RATE STABILIZATION. Second Reading 5/4/2005 5:11 PM PASSED 116 0 3 1 0 116
310 H 1168 HB 1168 PROHIBIT DECEPTIVE MARKETING/BANKING SERVICES. Second Reading 5/4/2005 5:17 PM PASSED 115 0 4 1 0 115
311 H 1169 HB 1169 INVESTMENTS OF STATE AND LOCAL FUNDS. Second Reading 5/4/2005 5:19 PM PASSED 116 0 3 1 0 116
312 H 1174 HB 1174 ABC PERMIT ISSUANCE AND COMPLIANCE. Second Reading 5/4/2005 5:24 PM PASSED 113 1 5 1 0 114
313 H 1297 HB 1297 MEDICAL RESERVE CORPS AND COMMUNITY EMERGENCY RESPONSE TEAM VOLUNTEERS QUALIFIED IMMUNITY. VOLUNTEERS QUALIFIED IMMUNITY. Second Reading 5/4/2005 5:26 PM PASSED 113 0 6 1 0 113
314 H 7 HB 7 URBAN MOBILITY NEEDS STUDY COMMITTEE. Sen. Amend. #1\M11 Not Concur 5/5/2005 12:16 PM PASSED 105 0 5 10 0 105
1589 H 2885 HB 2885 EMPLOYEE SECURITY COMMISSION/EMPLOYERS' PROTEST FILING PERIOD. PROTEST FILING PERIOD. A1 Crawford\Third Reading 7/12/2006 4:48 PM PASSED 98 17 0 5 0 115
1590 H 2885 HB 2885 EMPLOYEE SECURITY COMMISSION/EMPLOYERS' PROTEST FILING PERIOD. PROTEST FILING PERIOD. A3 Wainwright\Third Reading\Perfecting\Amendment 7/12/2006 4:50 PM PASSED 112 3 1 4 0 115
1591 H 2885 HB 2885 EMPLOYEE SECURITY COMMISSION/EMPLOYERS' PROTEST FILING PERIOD. PROTEST FILING PERIOD. A2 Daughtridge\Third Reading 7/12/2006 4:53 PM PASSED 115 0 1 4 0 115
1592 H 2885 HB 2885 EMPLOYEE SECURITY COMMISSION/EMPLOYERS' PROTEST FILING PERIOD. PROTEST FILING PERIOD. Third Reading 7/12/2006 4:54 PM PASSED 85 31 0 4 0 116
1602 H 2883 HB 2883 SERVICEMEMBERS AND VETERANS/IDENTITY THEFT. M11 Concur 7/12/2006 5:18 PM PASSED 112 0 4 4 0 112
1828 H 749 HB 749 DOT AGREEMENTS/NO STICKER FEE/LTD. DRIV. PRIV. C Rpt Adopt 7/27/2006 6:41 PM PASSED 102 2 2 14 0 104
1829 H 1025 HB 1025 VARIOUS ABC LAW CHANGES. C Rpt Adopt 7/27/2006 6:52 PM FAILED 52 52 2 14 0 104
1830 H 2881 HB 2881 IDENTITY THEFT. Third Reading 7/27/2006 6:54 PM PASSED 89 14 3 14 0 103
1831 H 1522 HB 1522 FILM INCENTIVE CHANGES. M6 Reconsider\Motion to\Concur 7/27/2006 7:18 PM PASSED 77 25 3 14 1 102
1832 H 1522 HB 1522 FILM INCENTIVE CHANGES. M11 Concur 7/27/2006 7:30 PM PASSED 85 17 3 14 1 102
1833 H 1827 HB 1827 GENERAL CONTRACTOR LICENSE EXCEPTIONS/ DOT. M6 Reconsider\Motion Not To\Concur 7/27/2006 7:34 PM PASSED 80 16 8 15 1 96
1834 H 1827 HB 1827 GENERAL CONTRACTOR LICENSE EXCEPTIONS/ DOT. M11 Concur 7/27/2006 7:35 PM PASSED 90 7 7 15 1 97
1835 H 1025 HB 1025 VARIOUS ABC LAW CHANGES. M6 Reconsider\Motion To\Adopt 7/27/2006 7:40 PM PASSED 58 41 6 15 0 99
1836 H 1025 HB 1025 VARIOUS ABC LAW CHANGES. C Rpt Adopt 7/27/2006 7:41 PM PASSED 56 44 5 15 0 100
1837 H 2212 HB 2212 LOTTERY OVERSIGHT COMMITTEE. C Rpt Adopt 7/27/2006 7:44 PM PASSED 98 2 5 15 0 100
1838 H 1059 HB 1059 STATE HEALTH PLAN CHANGES. C Rpt Adopt 7/27/2006 7:47 PM PASSED 101 0 4 15 0 101
1533 H 1871 HB 1871 SEX OFFENDER/OUT OF STATE REGISTRY/DMV CHECK. Second Reading 7/6/2006 7:30 PM PASSED 106 0 6 8 0 106
1534 H 2043 HB 2043 2006 TECHNICAL CORRECTIONS ACT. Second Reading 7/6/2006 7:32 PM PASSED 105 1 6 8 0 106
1535 H 2212 HB 2212 LOTTERY OVERSIGHT COMMITTEE. Second Reading 7/6/2006 7:36 PM PASSED 106 0 6 8 0 106
1536 H 2212 HB 2212 LOTTERY OVERSIGHT COMMITTEE. A1 Haire\Third Reading 7/6/2006 7:40 PM PASSED 105 0 7 8 0 105
1537 H 2212 HB 2212 LOTTERY OVERSIGHT COMMITTEE. Third Reading 7/6/2006 7:42 PM PASSED 102 1 9 8 0 103
1538 H 1094 HB 1094 WASTEWATER SYSTEM APPROVALS/SMALL COUNTIES. R2 Ruled Mat'l\M11 Concur 7/6/2006 7:45 PM PASSED 98 3 11 8 0 101
1539 H 1094 HB 1094 WASTEWATER SYSTEM APPROVALS/SMALL COUNTIES. R3 Ruled Mat'l\M11 Concur 7/6/2006 7:46 PM PASSED 98 4 10 8 0 102
1540 H 2699 HB 2699 VISION CARE PROGRAM CHANGES. A1 Coleman\Second Reading 7/6/2006 7:57 PM PASSED 102 0 9 9 0 102
1541 H 2699 HB 2699 VISION CARE PROGRAM CHANGES. A2 Hackney\Second Reading 7/6/2006 8:33 PM PASSED 101 0 10 9 0 101
1542 H 2699 HB 2699 VISION CARE PROGRAM CHANGES. Second Reading 7/6/2006 8:34 PM PASSED 90 12 9 9 0 102
1543 H 657 HB 657 REVISE INSURANCE RATE DEVIATIONS. M11 Not Concur 7/10/2006 6:38 PM PASSED 114 0 3 2 0 114
1544 H 1301 HB 1301 PHYSICAL THERAPY BOARD LICENSES/ STRENGTHENING BOARD MEDICAL/PATIENT SAFE ORGANIZATIONS. MEDICAL/PATIENT SAFE ORGANIZATIONS. M11 Concur 7/10/2006 6:40 PM PASSED 115 0 2 2 0 115
1545 H 1388 HB 1388 DEBT COLLECTION LICENSING CHANGES. M11 Concur 7/10/2006 6:42 PM PASSED 115 0 2 2 0 115
1546 H 2127 HB 2127 STATE PARKS SYSTEM ADDITIONS. M11 Concur 7/10/2006 6:43 PM PASSED 115 0 2 2 0 115
1840 H 1723 HB 1723 The Studies Act of 2006. M11 Concur 7/27/2006 8:59 PM PASSED 87 6 10 17 0 93
1523 H 1849 HB 1849 LOBBYING REFORMS 2006. A4 Gibson\Second Reading 7/6/2006 4:37 PM PASSED 107 2 4 6 1 109
1524 H 1849 HB 1849 LOBBYING REFORMS 2006. Second Reading 7/6/2006 5:06 PM PASSED 106 3 4 6 1 109
1782 H 1024 HB 1024 RUNOFF CHANGES. M11 Concur 7/26/2006 2:39 PM FAILED 55 57 0 8 0 112
1530 H 749 HB 749 AGREEMENT FOR TRANSPORTATION IMPROVEMENTS. Second Reading 7/6/2006 7:19 PM PASSED 88 18 6 8 0 106
1531 H 2873 HB 2873 SAFE DRINKING WATER/PRIVATE WELLS. Second Reading 7/6/2006 7:22 PM PASSED 101 5 6 8 0 106
1550 H 749 HB 749 AGREEMENT FOR TRANSPORTATION IMPROVEMENTS. Third Reading 7/10/2006 6:49 PM PASSED 100 15 2 2 0 115
1555 H 2873 HB 2873 SAFE DRINKING WATER/PRIVATE WELLS. A1 McGee\Third Reading 7/10/2006 7:19 PM PASSED 114 0 3 2 0 114
1556 H 2873 HB 2873 SAFE DRINKING WATER/PRIVATE WELLS. Third Reading 7/10/2006 7:19 PM PASSED 111 4 2 2 0 115
1557 H 448 HB 448 COMMUNITY EXEMPT FROM SMOKING RESTRICTIONS. M11 Concur 7/11/2006 2:49 PM PASSED 111 5 1 2 0 116
1558 H 2405 HB 2405 RUTHERFORD COUNTY BOARD OF EDUCATION MEMBERSHIP. M11 Concur\Sen. Amd. 1 7/11/2006 2:51 PM PASSED 117 0 0 2 0 117
1559 H 143 HB 143 EXEMPT AGRI-TOURISM FROM PRIVILEGE TAX. M11 Not Concur 7/11/2006 2:52 PM PASSED 117 0 0 2 0 117
1560 H 2047 HB 2047 VIDEO SERVICE COMPETITION ACT. M11 Concur 7/11/2006 2:53 PM PASSED 111 5 0 2 1 116
1561 H 2170 HB 2170 BILL LEE CHANGES. A1 Harrell\Second Reading 7/11/2006 2:54 PM PASSED 112 0 5 2 0 112
1562 H 2170 HB 2170 BILL LEE CHANGES. A2 Luebke\Second Reading 7/11/2006 3:05 PM PASSED 113 4 0 2 0 117
1563 H 2170 HB 2170 BILL LEE CHANGES. A3 Stam\Second Reading 7/11/2006 3:20 PM FAILED 23 93 1 2 0 116
1564 H 2170 HB 2170 BILL LEE CHANGES. A4 Weiss\Second Reading 7/11/2006 3:37 PM FAILED 27 87 3 2 0 114
1486 H 2868 HB 2868 DOT LEASE PROPERTY NEAR HOLDEN BEACH BRIDGE. Second Reading 6/30/2006 1:18 PM PASSED 104 0 5 11 0 104
1487 H 2098 HB 2098 PROTECTION OF ANIMALS. M11 Concur 6/30/2006 1:20 PM PASSED 103 0 6 11 0 103
1488 H 2882 HB 2882 GENERAL CONTRACTORS/EXTEND LICENSE VALIDITY. Second Reading 6/30/2006 1:22 PM PASSED 102 0 7 11 0 102
1489 H 2054 HB 2054 ADULT DAY AWARENESS/STATUS OF STUDY RECOMMENDATIONS. Second Reading 6/30/2006 1:24 PM PASSED 103 0 6 11 0 103
1490 H 2052 HB 2052 REVIEW OF NC INSTITUTIONAL BIAS REPORT. Second Reading 6/30/2006 1:25 PM PASSED 103 0 6 11 0 103
1491 H 1399 HB 1399 VARIOUS TRANSPORTATION/MOTOR VEHICLE LAW CHANGES. Second Reading 6/30/2006 1:27 PM PASSED 104 0 5 11 0 104
1492 H 2576 HB 2576 SPECIAL ASSISTANCE IN-HOME ASSIGNMENTS. Second Reading 6/30/2006 1:28 PM PASSED 102 0 7 11 0 102
1493 H 2880 HB 2880 NO PRAYER FOR JUDGMENT/BUS STOP ARM VIOLATION. Second Reading 6/30/2006 1:32 PM PASSED 102 0 7 11 0 102
1494 H 1941 HJR 1941 AUTHORIZING RESOLUTION/BRONZE STAR SPECIAL PLATE CHANGES. Second Reading 6/30/2006 1:34 PM PASSED 103 0 6 11 0 103
1497 H 1811 HR 1811 URGE CONGRESS TO INCREASE FUNDING FOR NO CHILD LEFT BEHIND ACT/ HIGHER EDUCATION ACT/INDIVIDUALS WITH HIGHER EDUCATION ACT/INDIVIDUALS WITH DISABILITIES EDUCATION ACT R2 For Adopt 7/5/2006 3:48 PM PASSED 110 3 6 1 0 113
1512 H 2893 HJR 2893 AFRICAN-AMERICAN BREAST CANCER AWARENESS. Second Reading 7/6/2006 2:48 PM PASSED 112 0 3 5 0 112
1513 H 1502 HB 1502 SCHOOLCHILDREN'S HEALTH ACT. M11 Concur 7/6/2006 2:52 PM PASSED 107 0 8 5 0 107
1514 H 2077 HB 2077 MENTAL HEALTH REFORM CHANGES. M11 Concur 7/6/2006 2:58 PM PASSED 112 0 3 5 0 112
1515 H 2744 HB 2744 ECONOMIC DEVELOPMENT PROGRAM MODIFICATIONS. A1 Owens\Second Reading 7/6/2006 3:05 PM PASSED 111 0 4 5 0 111
1516 H 2744 HB 2744 ECONOMIC DEVELOPMENT PROGRAM MODIFICATIONS. Second Reading 7/6/2006 3:35 PM PASSED 97 15 3 5 0 112
1482 H 2351 HB 2351 CONTINUING APPROPRIATIONS. Sen. Amend 1\M11 Concur 6/30/2006 12:34 PM PASSED 103 2 5 10 0 105
1483 H 1133 HB 1133 DESIGNATE GENERAL ASSEMBLY BUILDINGS NONSMOKING. M11 Concur 6/30/2006 12:51 PM PASSED 95 14 1 10 0 109
1484 H 2762 HB 2762 BATTLESHIP COMMISSION STAFF. Second Reading 6/30/2006 12:52 PM PASSED 104 0 5 11 0 104
1520 H 1849 HB 1849 LOBBYING REFORMS 2006. A1 Hackney\Second Reading 7/6/2006 4:16 PM PASSED 106 0 8 5 1 106
1521 H 1849 HB 1849 LOBBYING REFORMS 2006. A2 Hackney\Second Reading 7/6/2006 4:17 PM PASSED 107 0 7 5 1 107
1522 H 1849 HB 1849 LOBBYING REFORMS 2006. A3 Saunders\Second Reading 7/6/2006 4:33 PM PASSED 63 46 5 5 1 109
1396 H 2883 HB 2883 SERVICEMEMBERS AND VETERANS/ID THEFT. Second Reading 6/22/2006 12:39 PM PASSED 115 0 2 3 0 115
1397 H 1845 HB 1845 PERMITTED USE OF CAMPAIGN FUNDS. A3 Michaux\Third Reading 6/22/2006 12:57 PM FAILED 44 70 2 3 1 114
1398 H 1845 HB 1845 PERMITTED USE OF CAMPAIGN FUNDS. A2 Allred\Third Reading 6/22/2006 1:07 PM FAILED 8 101 4 6 1 109
1399 H 1845 HB 1845 PERMITTED USE OF CAMPAIGN FUNDS. Third Reading 6/22/2006 1:08 PM PASSED 105 4 4 6 1 109
1400 H 2047 HB 2047 VIDEO SERVICE COMPETITION ACT. A1 Wainwright\Second Reading 6/22/2006 1:35 PM PASSED 105 1 6 7 1 106
1401 H 2047 HB 2047 VIDEO SERVICE COMPETITION ACT. A2 Bordsen\Second Reading 6/22/2006 1:49 PM FAILED 22 85 5 7 1 107
1402 H 2047 HB 2047 VIDEO SERVICE COMPETITION ACT. A3 Weiss\Second Reading 6/22/2006 2:05 PM FAILED 20 88 4 7 1 108
1403 H 2047 HB 2047 VIDEO SERVICE COMPETITION ACT. A5 Weiss\Second Reading 6/22/2006 2:23 PM FAILED 23 85 3 8 1 108
1404 H 2047 HB 2047 VIDEO SERVICE COMPETITION ACT. A4 Fisher\Second Reading 6/22/2006 2:31 PM FAILED 12 96 3 8 1 108
1405 H 2047 HB 2047 VIDEO SERVICE COMPETITION ACT. Second Reading 6/22/2006 2:44 PM PASSED 97 12 3 7 1 109
1406 H 1915 HB 1915 SSTA SALES TAX DEFINITIONS/SALES TAX PAYMENTS. R3 Ruled Mat'l\M11 Concur 6/22/2006 2:47 PM PASSED 105 0 8 7 0 105
1408 H 1820 HB 1820 VARIOUS MUNICIPALITIES SATELLITE ANNEXATIONS. Third Reading 6/22/2006 2:50 PM PASSED 108 0 5 7 0 108
1409 H 2491 HB 2491 CANDOR ANNEXATION. Third Reading 6/22/2006 2:50 PM PASSED 108 0 5 7 0 108
1410 H 2549 HB 2549 LANDIS ANNEXATION/PLANNING. Third Reading 6/22/2006 2:50 PM PASSED 108 0 5 7 0 108
1411 H 2604 HB 2604 CLAYTON ANNEXATION. Third Reading 6/22/2006 2:50 PM PASSED 108 0 5 7 0 108
1412 H 2656 HB 2656 DORTCHES/MORGANTON DEANNEXATION. Third Reading 6/22/2006 2:50 PM PASSED 108 0 5 7 0 108
1413 H 2658 HB 2658 OAK ISLAND SEWER TREATMENT FEE. Third Reading 6/22/2006 2:50 PM PASSED 108 0 5 7 0 108
1414 H 2725 HB 2725 CHAPEL HILL ANNEXATION. Third Reading 6/22/2006 2:50 PM PASSED 108 0 5 7 0 108
1383 H 1820 HB 1820 VARIOUS MUNICIPALITIES SATELLITE ANNEXATIONS. Second Reading 6/21/2006 2:25 PM PASSED 116 1 1 2 0 117
1384 H 2491 HB 2491 CANDOR ANNEXATION. Second Reading 6/21/2006 2:28 PM PASSED 113 2 3 2 0 115
1385 H 2549 HB 2549 LANDIS ANNEXATION/PLANNING. Second Reading 6/21/2006 2:29 PM PASSED 116 1 1 2 0 117
1386 H 2604 HB 2604 CLAYTON ANNEXATION. Second Reading 6/21/2006 2:30 PM PASSED 117 1 0 2 0 118
1387 H 2656 HB 2656 DORTCHES/MORGANTON DEANNEXATION. Second Reading 6/21/2006 2:31 PM PASSED 117 0 1 2 0 117
1388 H 2658 HB 2658 OAK ISLAND SEWER TREATMENT FEE. Second Reading 6/21/2006 2:33 PM PASSED 116 1 1 2 0 117
1389 H 2725 HB 2725 CHAPEL HILL ANNEXATION. Second Reading 6/21/2006 2:35 PM PASSED 114 4 0 2 0 118
1416 H 2653 HB 2653 ALAMANCE FOX TRAPPING. Second Reading 6/22/2006 2:54 PM PASSED 107 1 5 7 0 108
1417 H 2047 HB 2047 VIDEO SERVICE COMPETITION ACT. Third Reading 6/26/2006 6:35 PM PASSED 101 8 5 5 1 109
1418 H 2127 HB 2127 STATE PARKS SYSTEM ADDITIONS. Second Reading 6/26/2006 6:37 PM PASSED 109 0 6 5 0 109
1419 H 2060 HB 2060 VICTIMS' COMPENSATION CHANGES. Second Reading 6/26/2006 6:41 PM PASSED 110 0 5 5 0 110
1420 H 2125 HB 2125 EXTEND CLIMATE CHANGE COMMISSION. Second Reading 6/26/2006 6:43 PM PASSED 108 2 5 5 0 110
1421 H 2165 HB 2165 ENVIRONMENTAL TECHNICAL CORRECTIONS/REPORTING REQUIREMENTS. REQUIREMENTS. Second Reading 6/26/2006 6:44 PM PASSED 109 1 5 5 0 110
1422 H 2188 HB 2188 CANDIDATE CHALLENGE PROCEDURE. Second Reading 6/26/2006 6:59 PM PASSED 104 6 4 5 1 110
1423 H 2208 HB 2208 CLEAN WATER MANAGEMENT TRUST FUND AMENDMENTS. Second Reading 6/26/2006 7:01 PM PASSED 111 0 4 5 0 111
1424 H 945 HB 945 OMNIBUS OCCUPANCY TAXES. Second Reading\M11 Not Concur 6/27/2006 2:30 PM PASSED 112 1 7 0 0 113
1425 H 474 HB 474 MILL REHABILITATION TAX CREDIT. M11 Concur 6/27/2006 2:32 PM PASSED 115 0 4 0 1 115
1426 H 1237 HB 1237 CHANGE LOCAL GOVERNMENTAL RETIREMENT BOARD. M11 Concur 6/27/2006 2:36 PM PASSED 116 0 4 0 0 116
1391 H 1845 HB 1845 PERMITTED USE OF CAMPAIGN FUNDS. A1 Stam\Second Reading 6/21/2006 3:18 PM PASSED 113 1 3 2 1 114
1392 H 1845 HB 1845 PERMITTED USE OF CAMPAIGN FUNDS. Second Reading 6/21/2006 3:27 PM PASSED 107 8 2 2 1 115
1393 H 2200 HB 2200 ENHANCE EMBARGO AUTHORITY/PROTECT FOOD SUPPLY. Second Reading 6/21/2006 3:32 PM PASSED 114 0 4 2 0 114
1394 H 447 HB 447 LAW ENFORCEMENT OFFICERS CREDITABLE SERVICE/WORKERS' COMPENSATION. COMPENSATION. M11 Concur 6/22/2006 12:02 PM PASSED 115 0 3 2 0 115
1659 H 1860 HB 1860 STROKE ADVISORY COUNCIL. Second Reading 7/17/2006 8:13 PM PASSED 108 0 3 9 0 108
1664 H 1196 HB 1196 REDUCE WHOLESALE DRUG DISTRIBUTOR LICENSE FEE. Second Reading 7/17/2006 8:26 PM PASSED 107 1 2 9 1 108
1668 H 1827 HB 1827 GENERAL CONTRACTOR LICENSE EXCEPTIONS. Second Reading 7/17/2006 8:32 PM PASSED 108 0 2 9 1 108
1669 H 2818 HB 2818 SALES TAX ON OFF-ROAD VEHICLES. Second Reading 7/17/2006 8:35 PM PASSED 104 3 3 9 1 107
1673 H 1895 HB 1895 ESTABLISH HIGH-RISK POOL. Third Reading 7/17/2006 8:59 PM PASSED 95 11 5 9 0 106
1674 H 2688 HB 2688 KURE BEACH/HENDERSONVILLE BLDG. HEIGHT LIMIT. M11 Concur 7/17/2006 9:04 PM PASSED 104 1 5 9 1 105
1675 H 350 HB 350 MARTIN COUNTY OCCUPANCY TAX CHANGES. R3 Ruled Mat'l\M11 Concur 7/18/2006 1:42 PM PASSED 83 25 0 12 0 108
1676 H 882 HB 882 OCRACOKE TOWNSHIP OCCUPANCY TAX. R3 Ruled Mat'l\M11 Concur 7/18/2006 1:43 PM PASSED 81 26 1 12 0 107
1677 H 1269 HB 1269 CHOWAN OCCUPANCY TAX CHANGES. R3 Ruled Mat'l\M11 Concur 7/18/2006 1:44 PM PASSED 82 25 1 12 0 107
1678 H 1820 HB 1820 VARIOUS SATELLITE ANNEXATIONS. R3 Ruled Mat'l\M11 Concur 7/18/2006 1:46 PM PASSED 105 1 2 12 0 106
1679 H 1846 HB 1846 2006 CAMPAIGN FINANCE CHANGES. M11 Concur 7/18/2006 2:10 PM PASSED 105 0 2 12 1 105
1685 H 1196 HB 1196 REDUCE WHOLESALE DRUG DISTRIBUTOR LICENSE FEE. Third Reading 7/18/2006 2:36 PM PASSED 104 3 1 12 0 107
1693 H 1522 HB 1522 FILM INCENTIVE CHANGES. M11 Not Concur 7/18/2006 3:10 PM PASSED 105 0 3 11 1 105
1694 H 2744 HB 2744 ECONOMIC DEVELOPMENT PROGRAM MODIFICATIONS. Sen Amend #1\M11 Concur 7/18/2006 3:16 PM PASSED 97 11 1 11 0 108
1695 H 2873 HB 2873 SAFE DRINKING WATER/PRIVATE WELLS. Sen Amend #1\M11 Concur 7/18/2006 3:28 PM PASSED 101 2 6 11 0 103
1696 H 2027 HB 2027 GOLF CART REGULATION BY BENSON, CASWELL BEACH, CHADBOURN, AND TABOR CITY. AND TABOR CITY. M11 Concur 7/19/2006 2:18 PM PASSED 103 0 7 10 0 103
1697 H 2339 HB 2339 LINCOLN COUNTY TAX CERTIFICATION. SEN AMEND #1\M11 Concur 7/19/2006 2:19 PM PASSED 104 0 6 10 0 104
1698 H 1891 HB 1891 SIMPLIFY FIRE TAX RATE/OTHER TAX CHANGES. R2 Ruled Mat'l\M11 Concur 7/19/2006 2:23 PM PASSED 104 3 3 10 0 107
1699 H 1025 HB 1025 VARIOUS ALCOHOL BEVERAGE CONTROL LAW CHANGES. M11 Not Concur 7/19/2006 2:25 PM PASSED 107 2 1 10 0 109
1700 H 1231 HB 1231 PROHIBIT EXTREME PRICING PRACTICES. M11 Concur 7/19/2006 2:29 PM PASSED 109 0 1 10 0 109
23 H 100 HJR 100 HONOR ROTARY CLUB'S 100TH ANNIVERSARY. Second Reading 2/23/2005 5:52 PM PASSED 112 0 2 6 0 112
24 H 318 HR 318 PERMANENT HOUSE RULES. R2 For Adopt\M3 Previous\Question 2/24/2005 9:27 AM PASSED 76 28 8 8 0 104
25 H 318 HR 318 PERMANENT HOUSE RULES. R2 For Adopt 2/24/2005 9:28 AM PASSED 86 21 5 8 0 107
27 H 361 HJR 361 HONOR DR. CARTER G. WOODSON IN HONOR OF BLACK HISTORY MONTH. Second Reading 2/28/2005 7:26 PM PASSED 114 0 1 5 0 114
31 H 375 HJR 375 HONOR NORTH CAROLINA'S NASCAR LEGENDS/ NASCAR HALL OF FAME. Second Reading 3/1/2005 4:50 PM PASSED 115 0 0 5 0 115
32 H 375 HJR 375 HONOR NORTH CAROLINA'S NASCAR LEGENDS/ NASCAR HALL OF FAME. Third Reading 3/1/2005 4:51 PM PASSED 114 0 1 5 0 114
1429 H 2259 HB 2259 ELKIN/PILOT MOUNTAIN/DOBSON OCCUPANCY TAX. Second Reading 6/27/2006 2:42 PM PASSED 96 20 3 1 0 116
281 H 989 HJR 989 HONOR HUDSON'S 100TH ANNIVERSARY. Second Reading 5/3/2005 3:35 PM PASSED 118 0 1 1 0 118
282 H 489 HB 489 CARY REIMBURSEMENT. M11 Not Concur 5/3/2005 3:38 PM PASSED 118 0 1 1 0 118
284 H 116 HB 116 PROPERTY TAX CHANGES. Second Reading 5/3/2005 3:45 PM PASSED 118 0 1 1 0 118
285 H 646 HB 646 INSURANCE COMPANY FEE CONSOLIDATION. Comm Amend #1\Second Reading 5/3/2005 3:48 PM PASSED 116 0 3 1 0 116
286 H 646 HB 646 INSURANCE COMPANY FEE CONSOLIDATION. Second Reading 5/3/2005 3:49 PM PASSED 101 18 0 1 0 119
287 H 1004 HB 1004 MORTGAGE HOSPITAL FACILITIES. Second Reading 5/3/2005 3:51 PM PASSED 119 0 0 1 0 119
288 H 1117 HB 1117 PUBLIC FINANCE CHANGES. A1 Ross\Second Reading 5/3/2005 3:53 PM PASSED 117 2 0 1 0 119
289 H 1117 HB 1117 PUBLIC FINANCE CHANGES. Second Reading 5/3/2005 3:55 PM PASSED 116 2 1 1 0 118
290 H 392 HB 392 AMEND DEFINITION OF MALT BEVERAGE IN ALCOHOLIC BEVERAGE CONTROL LAW. LAW. Second Reading 5/3/2005 4:08 PM PASSED 73 41 3 2 1 114
291 H 399 HB 399 UNIFIED GOVERNMENT. M11 Concur 5/4/2005 4:23 PM PASSED 114 1 4 1 0 115
381 H 1375 HB 1375 CHILD SUPPORT REFORMS. Second Reading 5/12/2005 3:11 PM PASSED 103 0 4 13 0 103
382 H 1485 HB 1485 SEARCH WARRANTS/AUDIO & VIDEO TRANSMISSION. Second Reading 5/12/2005 3:13 PM PASSED 101 0 6 13 0 101
383 H 1030 HB 1030 INCREASE AIRPORT AUTHORITY POWERS. Third Reading 5/12/2005 3:14 PM PASSED 100 0 7 13 0 100
385 H 630 HB 630 MANUFACTURED HOMES ESCROW ACCOUNTS. Third Reading 5/12/2005 3:19 PM PASSED 101 0 6 13 0 101
386 H 670 HB 670 COMMERCIAL DRIVERS LICENSES/FEDERAL COMPLIANCE. Third Reading 5/12/2005 3:20 PM PASSED 100 0 7 13 0 100
387 H 750 HB 750 SECONDARY ROAD CONSTRUCTION. Third Reading 5/12/2005 3:22 PM PASSED 91 9 7 13 0 100
388 H 767 HB 767 ENHANCE MIGRANT HOUSING ACT. Third Reading 5/12/2005 3:24 PM PASSED 89 12 6 13 0 101
389 H 800 HB 800 STATE CONTRACTS/REPORT OUTSOURCING. A2 Glazier\Second Reading 5/12/2005 3:26 PM PASSED 101 0 6 13 0 101
390 H 800 HB 800 STATE CONTRACTS/REPORT OUTSOURCING. Second Reading 5/12/2005 3:27 PM PASSED 100 0 7 13 0 100
391 H 1206 HB 1206 DOG TRAINING WITH WATERFOWL AND GAME BIRDS. Second Reading 5/12/2005 3:28 PM PASSED 100 1 6 13 0 101
392 H 1213 HB 1213 EXPUNGE MULTIPLE CHARGES/OCCUR WITHIN 1 YEAR. Second Reading 5/12/2005 3:32 PM PASSED 99 0 8 13 0 99
393 H 1271 HB 1271 AMEND AUCTIONEER LICENSING LAWS. Second Reading 5/12/2005 3:35 PM PASSED 101 0 6 13 0 101
394 H 1299 HB 1299 MOTOR VEHICLE REPAIRS/CLARIFY COST OF REPAIR. A1 Bordsen\Second Reading 5/12/2005 3:36 PM PASSED 98 0 8 14 0 98
101 H 583 HB 583 COMMUNITY COLLEGE/LEAD AGENCY FOR JOB TRAINING. A1 Stam\Third Reading 4/4/2005 7:40 PM PASSED 104 0 2 13 0 104
102 H 583 HB 583 COMMUNITY COLLEGE/LEAD AGENCY FOR JOB TRAINING. Third Reading 4/4/2005 7:41 PM PASSED 103 0 3 13 0 103
103 H 496 HB 496 STUDENT ASTHMA MEDICATIONS. Second Reading 4/4/2005 7:42 PM PASSED 104 0 2 13 0 104
104 H 859 HB 859 CONTINUING EDUCATION OF MORTGAGE BROKERS. Second Reading 4/4/2005 7:44 PM PASSED 102 2 2 13 0 104
105 H 706 HB 706 FACILITATE HIRING OF TEACHERS. Second Reading 4/5/2005 2:03 PM PASSED 113 0 2 5 0 113
180 H 986 HB 986 GREENVILLE/SURF CITY SATELLITE ANNEXATIONS. Second Reading 4/14/2005 12:27 PM PASSED 104 1 1 14 0 105
188 H 856 HB 856 CRAVEN COUNTY REGIONAL AIRPORT AUTHORITY. Second Reading 4/14/2005 12:32 PM PASSED 105 0 1 14 0 105
189 H 887 HB 887 BURLINGTON CHARTER AMENDMENT. Second Reading 4/14/2005 12:32 PM PASSED 105 0 1 14 0 105
190 H 1010 HB 1010 WILSON COUNTY HUNTING. Second Reading 4/14/2005 12:32 PM PASSED 105 0 1 14 0 105
191 H 1028 HB 1028 HIGH POINT CHARTER AMENDMENTS. Second Reading 4/14/2005 12:32 PM PASSED 105 0 1 14 0 105
192 H 449 HB 449 GIFT TAX CHANGES. Third Reading 4/14/2005 12:34 PM PASSED 104 0 2 14 0 104
193 H 355 HB 355 RESTRICT USE OF BLUE AND RED VEHICLE LIGHTS. Second Reading 4/14/2005 12:37 PM PASSED 103 0 3 14 0 103
194 H 532 HB 532 ADJUST ADOPTION PROCEDURE. Second Reading 4/14/2005 12:42 PM PASSED 105 0 1 14 0 105
461 H 197 HJR 197 HONOR JOHN W. JONES Second Reading 5/23/2005 7:34 PM PASSED 113 0 1 6 0 113
462 H 1609 HJR 1609 HONOR WILLIAM "BILL" SETH HIATT FORMER COMMISSIONER OF NC DMV AND FORMER MEMBER OF THE NC GENERAL AND FORMER MEMBER OF THE NC GENERAL ASSEMBLY. Second Reading 5/23/2005 7:57 PM PASSED 114 0 0 6 0 114
463 H 613 HB 613 UPDATE CERTIFICATION/LICENSURE/ RECREATIONAL THERAPY. Third Reading 5/23/2005 7:59 PM PASSED 101 13 0 6 0 114
464 H 890 HB 890 CRIME LAB COST RECOVERY FEE. Second Reading 5/23/2005 8:03 PM PASSED 113 0 1 6 0 113
465 H 85 HB 85 VARIOUS SPECIAL LICENSE PLATES. A1 Womble\Second Reading 5/23/2005 8:05 PM PASSED 112 0 2 6 0 112
466 H 85 HB 85 VARIOUS SPECIAL LICENSE PLATES. Second Reading 5/23/2005 8:06 PM PASSED 111 2 1 6 0 113
467 H 1025 HB 1025 WINEMAKING ON PREMISES PERMIT. Second Reading 5/23/2005 8:08 PM PASSED 94 17 3 6 0 111
107 H 1023 HB 1023 NORTH CAROLINA STATE LOTTERY ACT. Second Reading 4/6/2005 2:26 PM PASSED 61 59 0 0 0 120
108 H 277 HB 277 ESTABLISH CHILD ASSESSMENT RESPONSES. Second Reading 4/6/2005 2:37 PM PASSED 119 0 0 1 0 119
109 H 686 HB 686 UPDATE DISABILITY STATUTES/SERVICE ANIMALS. Second Reading 4/6/2005 2:38 PM PASSED 118 0 1 1 0 118
110 H 752 HB 752 NORTH CAROLINA STATE UNIVERSITY DAIRY SALES. Second Reading 4/6/2005 2:41 PM PASSED 117 1 1 1 0 118
111 H 772 HB 772 BAN INTERNET HUNTING. Second Reading 4/6/2005 2:44 PM PASSED 119 0 0 1 0 119
174 H 930 HJR 930 HONOR TOWN OF GARNER'S 100TH ANNIVERSARY. Second Reading 4/14/2005 12:20 PM PASSED 104 0 1 15 0 104
176 H 393 HB 393 HOLLY SPRINGS EMINENT DOMAIN. Third Reading 4/14/2005 12:24 PM PASSED 97 8 1 14 0 105
177 H 871 HB 871 EMERALD ISLE CANAL DREDGING FEE. Third Reading 4/14/2005 12:24 PM PASSED 97 8 1 14 0 105
178 H 1080 HB 1080 DORTCHES DEANNEXATION. Third Reading 4/14/2005 12:24 PM PASSED 97 8 1 14 0 105
469 H 1136 HB 1136 MERCURY SWITCH REMOVAL-2. Second Reading 5/23/2005 8:20 PM PASSED 106 8 0 6 0 114
470 H 1277 HB 1277 CLARIFY HUNTER SAFETY. Second Reading 5/23/2005 8:23 PM PASSED 113 0 1 6 0 113
471 H 329 HB 329 LIMIT LIABILITY FOR AGRITOURISM ACTIVITIES. Third Reading 5/23/2005 8:26 PM PASSED 112 0 2 6 0 112
472 H 563 HB 563 COMMUNITY COLLEGE MAY TRAIN LATERAL ENTRY TEACHERS. Second Reading 5/23/2005 8:46 PM PASSED 106 7 1 6 0 113
473 H 768 HB 768 2005 OMNIBUS LABOR LAW CHANGES. Second Reading 5/23/2005 8:48 PM PASSED 112 0 2 6 0 112
1624 H 2208 HB 2208 CLEAN WATER MANAGEMENT TRUST FUND AMENDMENTS. M11 Concur 7/13/2006 1:36 PM PASSED 113 0 2 5 0 113
1625 H 2170 HB 2170 BILL LEE CHANGES. Third Reading 7/13/2006 1:38 PM PASSED 105 8 2 5 0 113
1618 H 945 HB 945 OMNIBUS OCCUPANCY TAXES. R3 Ruled Mat'l\C RPT ADOPT 7/13/2006 12:44 PM PASSED 94 20 1 5 0 114
1619 H 1963 HB 1963 REVENUE LAWS TECHNICAL AND MOTOR FUEL TAX CHANGES. R3 Ruled Mat'l\M11 Concur 7/13/2006 12:56 PM PASSED 77 36 0 5 2 113
1620 H 1825 HB 1825 DOT SECONDARY ROAD FORMULA CHANGE. SEN AMEND #1\M11 Not Concur 7/13/2006 12:58 PM PASSED 113 1 1 5 0 114
1621 H 1845 HB 1845 PERMITTED USE OF CAMPAIGN FUNDS. M11 Concur 7/13/2006 1:02 PM PASSED 111 2 1 5 1 113
1622 H 1847 HB 1847 ELECTIONEERING COMMUNICATIONS. M11 Concur 7/13/2006 1:28 PM PASSED 87 27 0 5 1 114
1636 H 2164 HB 2164 AMEND SANITARY DISTRICT AUTHORITY. Third Reading 7/13/2006 2:53 PM PASSED 96 17 2 5 0 113
1646 H 350 HB 350 MARTIN COUNTY OCCUPANCY TAX CHANGES. R2 Ruled Mat'l\M11 Concur 7/17/2006 7:20 PM PASSED 75 30 6 9 0 105
1647 H 882 HB 882 OCRACOKE TOWNSHIP OCCUPANCY TAX. R2 Ruled Mat'l\M11 Concur 7/17/2006 7:22 PM PASSED 81 25 5 9 0 106
1648 H 1269 HB 1269 CHOWAN OCCUPANCY TAX CHANGES. R2 Ruled Mat'l\M11 Concur 7/17/2006 7:23 PM PASSED 81 25 5 9 0 106
1649 H 1820 HB 1820 VARIOUS SATELLITE ANNEXATIONS. R2 Ruled Mat'l\M11 Concur 7/17/2006 7:24 PM PASSED 107 0 4 9 0 107
1650 H 2445 HB 2445 HALIFAX/AHOSKIE OCCUPANCY TAX. R2 Ruled Mat'l\M11 Not Concur 7/17/2006 7:25 PM PASSED 107 0 4 9 0 107
1651 H 853 HB 853 OPTIONAL RETIREMENT PROGRAM CHANGES. M11 Concur 7/17/2006 7:31 PM PASSED 105 3 3 9 0 108
1652 H 1120 HB 1120 STRENGTHEN NEIGHBORHOOD WATCH PROGRAMS. SEN AMEND #1\M11 Concur 7/17/2006 7:32 PM PASSED 108 0 3 9 0 108
1653 H 1248 HB 1248 AMEND IDENTITY THEFT PROTECTION ACT OF 2005. M11 Concur 7/17/2006 7:34 PM PASSED 107 0 4 9 0 107
1654 H 1327 HB 1327 CRIMINAL RECORD CHECKS/PSYCHOLOGY PRACTICE ACT. M11 Concur 7/17/2006 7:35 PM PASSED 107 0 4 9 0 107
1655 H 2060 HB 2060 VICTIMS' COMPENSATION CHANGES. M11 Concur 7/17/2006 7:37 PM PASSED 108 0 3 9 0 108
1633 H 2468 HB 2468 REGULATION OF GOLF CARTS IN CLARKTON. Third Reading 7/13/2006 2:46 PM PASSED 110 0 5 5 0 110
1643 H 1895 HB 1895 ESTABLISH HIGH-RISK POOL. A1 McGee\Second Reading 7/13/2006 4:11 PM PASSED 103 3 4 10 0 106
1644 H 1895 HB 1895 ESTABLISH HIGH-RISK POOL. Second Reading 7/13/2006 4:28 PM PASSED 95 10 5 10 0 105
1 H 1 HR 1 Proceed To Election Of Speaker By Resolution. M3 Previous\Question 1/26/2005 12:21 PM PASSED 105 15 0 0 0 120
2 H 1 HR 1 Proceed To Election Of Speaker By Resolution. Motion 12 1/26/2005 12:22 PM PASSED 101 19 0 0 0 120
3 H 1 HR 1 Proceed To Election Of Speaker By Resolution - House Resolution 1. Resolution 1. M3 Previous\Question 1/26/2005 12:28 PM PASSED 98 21 1 0 0 119
4 H 1 HR 1 Election Of Speaker and Speaker Pro Tempore For The House 2005 Session. 2005 Session. R2 For Adopt\Viva Voce Per\Art.6, Sec.5 N\C Constitution 1/26/2005 12:37 PM PASSED 100 20 0 0 0 120
1645 S 1428 SB 1428 VARIOUS SATELLITE ANNEXATIONS/REFERENDUM Third Reading 7/13/2006 4:58 PM PASSED 109 0 5 5 1 109
1635 S 1666 SB 1666 SUNSET BEACH/SEWAGE COLLECTION SYSTEM. Second Reading 7/13/2006 2:50 PM PASSED 109 1 5 5 0 110
1656 S 1587 SB 1587 AMEND ENVIRONMENTAL AND NATURAL RESOURCES LAWS. A4 Luebke\Third Reading 7/17/2006 8:02 PM FAILED 21 89 1 9 0 110
1637 S 948 SB 948 AMEND BOATING SAFETY/VESSEL TITLING LAW. A1 Daughtridge\Second Reading 7/13/2006 2:57 PM PASSED 111 1 3 5 0 112
1638 S 948 SB 948 AMEND BOATING SAFETY/VESSEL TITLING LAW. Second Reading 7/13/2006 3:05 PM PASSED 81 32 3 4 0 113
1639 S 2009 SB 2009 PUBLIC-PRIVATE PARTNERSHIPS FOR SCHOOLS. Second Reading 7/13/2006 3:24 PM PASSED 113 0 2 5 0 113
1640 S 2010 SB 2010 AIRCRAFT MECHANICS' LIEN/WINEMAKING. Second Reading 7/13/2006 3:33 PM PASSED 96 13 3 8 0 109
1641 S 2043 SB 2043 INCREASE MORTGAGE LENDING FEES. Second Reading 7/13/2006 3:35 PM PASSED 96 11 5 8 0 107
1642 S 1621 SB 1621 SPECIAL INDEBTEDNESS PROJECTS. Third Reading 7/13/2006 3:36 PM PASSED 106 1 5 8 0 107
1623 S 862 SB 862 SPECIAL DIPLOMAS TO KOREA AND VIETNAM VETS. Second Reading 7/13/2006 1:32 PM PASSED 115 0 0 5 0 115
1626 S 402 SB 402 WATER/UTILITIES SAVINGS IN GOVERNMENT FACILITIES. Third Reading 7/13/2006 1:39 PM PASSED 114 0 1 5 0 114
1627 S 1442 SB 1442 RUTHERFORD SUBDIVISIONS REPEAL/RED LIGHT CAMERA STUDY. Second Reading 7/13/2006 1:45 PM PASSED 104 11 0 5 0 115
1628 S 1587 SB 1587 AMEND ENVIRONMENTAL AND NATURAL RESOURCES LAWS. A1 Allen, L.\Second Reading 7/13/2006 1:49 PM PASSED 110 2 3 5 0 112
1629 S 1587 SB 1587 AMEND ENVIRONMENTAL AND NATURAL RESOURCES LAWS. A2 Gibson\Second Reading 7/13/2006 2:03 PM PASSED 114 0 1 5 0 114
1630 S 1587 SB 1587 AMEND ENVIRONMENTAL AND NATURAL RESOURCES LAWS. A3 Allen, L.\Second Reading 7/13/2006 2:23 PM PASSED 110 1 4 5 0 111
1631 S 1587 SB 1587 AMEND ENVIRONMENTAL AND NATURAL RESOURCES LAWS. Second Reading 7/13/2006 2:28 PM PASSED 105 8 2 5 0 113
1611 S 2012 SB 2012 STATE UNEMPLOYMENT TAX AVOIDANCE MODIFICATIONS. COMM AMEND #1\Second Reading 7/12/2006 6:28 PM PASSED 106 4 5 5 0 110
1612 S 2012 SB 2012 STATE UNEMPLOYMENT TAX AVOIDANCE MODIFICATIONS. A2 Faison\Second Reading 7/12/2006 6:29 PM PASSED 112 0 3 5 0 112
1613 S 2012 SB 2012 STATE UNEMPLOYMENT TAX AVOIDANCE MODIFICATIONS. Second Reading 7/12/2006 6:30 PM PASSED 114 0 1 5 0 114
1614 S 1428 SB 1428 VARIOUS SATELLITE ANNEXATIONS/REFERENDUM. COMM AMEND #1\Second Reading 7/12/2006 6:32 PM PASSED 112 0 2 5 1 112
1615 S 1428 SB 1428 VARIOUS SATELLITE ANNEXATIONS/REFERENDUM. Second Reading 7/12/2006 6:33 PM PASSED 112 1 1 5 1 113
1616 S 383 SB 383 AMEND WINSTON-SALEM FIREMEN'S RETIREMENT FUND. Second Reading 7/12/2006 6:35 PM PASSED 113 0 2 5 0 113
1617 S 402 SB 402 WATER/UTILITIES SAVINGS IN GOVERNMENT FACILITIES. Second Reading 7/12/2006 6:38 PM PASSED 110 0 5 5 0 110
179 S 16 SB 16 TABOR CITY SATELLITE ANNEXATION. Third Reading 4/14/2005 12:24 PM PASSED 97 8 1 14 0 105
112 S 161 SJR 161 HONOR CHARLIE POOLE, MUSICIAN. Second Reading 4/7/2005 1:40 PM PASSED 113 0 4 3 0 113
468 S 510 SB 510 WESTERN PIEDMONT COMMUNITY COLLEGE/UMSTEAD ACT. Second Reading 5/23/2005 8:10 PM PASSED 112 0 2 6 0 112
106 S 1166 SJR 1166 JOINT SESSION/HONOR VETERANS/INVITE GOVERNOR. Second Reading 4/6/2005 1:17 PM PASSED 119 0 1 0 0 119
384 S 348 SB 348 NORTH WILKESBORO/LAND FOR PRISONS. Second Reading 5/12/2005 3:16 PM PASSED 102 0 5 13 0 102
283 S 474 SB 474 GREENVILLE/HIGH POINT UNFIT HOUSING. Third Reading 5/3/2005 3:39 PM PASSED 112 6 1 1 0 118
1657 S 1587 SB 1587 AMEND ENVIRONMENTAL AND NATURAL RESOURCES LAWS. A5 Crawford\Third Reading 7/17/2006 8:09 PM PASSED 72 36 3 9 0 108
1658 S 1587 SB 1587 AMEND ENVIRONMENTAL AND NATURAL RESOURCES LAWS. Third Reading 7/17/2006 8:11 PM PASSED 91 15 5 9 0 106
279 S 474 SB 474 CARY/GREENVILLE UNFIT HOUSING. A2 Weiss\Second Reading 5/2/2005 7:36 PM PASSED 108 2 5 5 0 110
280 S 474 SB 474 CARY/GREENVILLE UNFIT HOUSING. Second Reading 5/2/2005 7:37 PM PASSED 106 4 5 5 0 110
28 S 133 SB 133 RECONFIRMING PROVISIONAL VOTING. A1 Moore\Second Reading 2/28/2005 7:47 PM FAILED 53 61 1 5 0 114
29 S 133 SB 133 RECONFIRMING PROVISIONAL VOTING. A2 Moore\Second Reading 2/28/2005 8:07 PM FAILED 53 61 1 5 0 114
30 S 133 SB 133 RECONFIRMING PROVISIONAL VOTING. Second Reading 2/28/2005 8:21 PM PASSED 60 54 1 5 0 114
26 S 82 SB 82 ELECTION CONTESTS. Third Reading 2/24/2005 9:29 AM PASSED 59 49 4 8 0 108
19 S 82 SB 82 ELECTION CONTESTS. A3 Blust\Second Reading 2/23/2005 5:18 PM FAILED 52 60 2 6 0 112
20 S 82 SB 82 ELECTION CONTESTS. A4 Starnes\Second Reading 2/23/2005 5:35 PM FAILED 51 60 3 6 0 111
21 S 82 SB 82 ELECTION CONTESTS. A5 Starnes\Second Reading 2/23/2005 5:38 PM FAILED 51 61 2 6 0 112
22 S 82 SB 82 ELECTION CONTESTS. Second Reading 2/23/2005 5:48 PM PASSED 60 52 2 6 0 112
1686 S 1479 SB 1479 UNINCORPORATED NONPROFIT ASSOCIATION ACT/GENERAL STATUTES COMMISSION TECHNICAL CORRECTIONS. COMMISSION TECHNICAL CORRECTIONS. Third Reading 7/18/2006 2:37 PM PASSED 108 0 0 12 0 108
1687 S 1431 SB 1431 BURGAW/NEW HANOVER/WILMINGTON OCCUPANCY TAX. A1 Wright\Third Reading 7/18/2006 2:40 PM PASSED 97 10 1 12 0 107
1688 S 1431 SB 1431 BURGAW/NEW HANOVER/WILMINGTON OCCUPANCY TAX. Third Reading 7/18/2006 2:41 PM PASSED 75 31 2 12 0 106
1689 S 1804 SB 1804 TRYON/BOILING SPRINGS OCCUPANCY TAX. Second Reading 7/18/2006 2:42 PM PASSED 81 24 3 12 0 105
1690 S 1381 SB 1381 REPEAL TOLL BRIDGE AUTHORITY. A1 Wilkins\Second Reading 7/18/2006 2:46 PM PASSED 79 28 1 12 0 107
1691 S 1381 SB 1381 REPEAL TOLL BRIDGE AUTHORITY. A2 Stam\Second Reading 7/18/2006 2:58 PM PASSED 76 30 3 11 0 106
1692 S 1381 SB 1381 REPEAL TOLL BRIDGE AUTHORITY. Second Reading 7/18/2006 3:00 PM PASSED 93 14 2 11 0 107
1680 S 1487 SB 1487 DENTAL HYGIENE LAW CHANGES. Second Reading 7/18/2006 2:16 PM PASSED 104 0 4 12 0 104
1681 S 489 SB 489 COSMETIC ART DEFINITIONS/EXAM FACILITIES. A1 Underhill\Second Reading 7/18/2006 2:22 PM PASSED 105 1 2 12 0 106
1682 S 489 SB 489 COSMETIC ART DEFINITIONS/EXAM FACILITIES. Second Reading 7/18/2006 2:26 PM PASSED 103 3 2 12 0 106
1683 S 951 SB 951 PUBLIC-PRIVATE SOLID WASTE COLLECTION. A1 Gibson\Third Reading 7/18/2006 2:33 PM PASSED 107 0 1 12 0 107
1684 S 951 SB 951 PUBLIC-PRIVATE SOLID WASTE COLLECTION. Third Reading 7/18/2006 2:33 PM PASSED 105 3 0 12 0 108
1670 S 729 SB 729 USED MOTOR VEHICLE DEALER COURSES. Second Reading 7/17/2006 8:37 PM PASSED 107 0 4 9 0 107
1671 S 951 SB 951 PUBLIC-PRIVATE SOLID WASTE COLLECTION. Second Reading 7/17/2006 8:43 PM PASSED 103 5 3 9 0 108
1672 S 1187 SB 1187 TRYON PALACE FUND/INTEREST-BEARING. Second Reading 7/17/2006 8:44 PM PASSED 106 2 3 9 0 108
1665 S 948 SB 948 AMEND BOATING SAFETY/VESSEL TITLING LAW. Third Reading 7/17/2006 8:27 PM PASSED 94 14 3 9 0 108
1666 S 2009 SB 2009 PUBLIC-PRIVATE PARTNERSHIPS FOR SCHOOLS. Third Reading 7/17/2006 8:28 PM PASSED 108 1 2 9 0 109
1667 S 2010 SB 2010 AIRCRAFT MECHANICS' LIEN/WINEMAKING. Third Reading 7/17/2006 8:30 PM PASSED 93 15 3 9 0 108
1660 S 1479 SB 1479 UNINCORPORATED NONPROFIT ASSOCIATION ACT/GENERAL STATUTES COMMISSION TECHNICAL CORRECTIONS. COMMISSION TECHNICAL CORRECTIONS. Second Reading 7/17/2006 8:16 PM PASSED 109 0 2 9 0 109
1661 S 1862 SB 1862 LIMIT NUTRIENT OFFSET PAYMENTS. Third Reading 7/17/2006 8:18 PM PASSED 95 14 2 9 0 109
1662 S 1666 SB 1666 SUNSET BEACH/SEWAGE COLLECTION SYSTEM. Third Reading 7/17/2006 8:20 PM PASSED 106 2 3 9 0 108
1663 S 1431 SB 1431 BURGAW/NEW HANOVER/WILMINGTON OCCUPANCY TAX. Second Reading 7/17/2006 8:22 PM PASSED 78 30 3 9 0 108
1395 S 2060 SJR 2060 HONOR JOEY CHEEK. Second Reading 6/22/2006 12:21 PM PASSED 117 0 1 2 0 117
1427 S 1121 SB 1121 BROWNFIELDS PROPERTY REUSE ACT AMENDMENTS. Second Reading 6/27/2006 2:39 PM PASSED 116 0 4 0 0 116
1390 S 1734 SB 1734 HARRISBURG DEANNEXATION. Second Reading 6/21/2006 2:36 PM PASSED 117 0 1 2 0 117
1415 S 1734 SB 1734 HARRISBURG DEANNEXATION. Third Reading 6/22/2006 2:50 PM PASSED 108 0 5 7 0 108
1382 S 329 SB 329 PARTNERSHIP FOR CHILDREN/BOARD APPOINTMENTS. C Rpt Adopt 6/21/2006 2:24 PM PASSED 116 1 1 2 0 117
1485 S 837 SB 837 STATE HEALTH PLAN/20-YEAR VESTING. Second Reading 6/30/2006 1:17 PM PASSED 96 6 7 11 0 102
1517 S 1809 SB 1809 UNIVERSITY INDEBTEDNESS PROJECTS. Second Reading 7/6/2006 3:48 PM PASSED 111 0 4 5 0 111
1518 S 774 SB 774 SEAT BELT USE ENHANCEMENTS. A2a Moore\Third Reading 7/6/2006 4:00 PM FAILED 41 69 5 5 0 110
1519 S 1156 SB 1156 DAIRY STABILIZATION AND GROWTH PROGRAM. Third Reading 7/6/2006 4:04 PM PASSED 108 1 6 5 0 109
1498 S 277 SB 277 MOTOR VEHICLE SELF-INSURERS. Second Reading 7/5/2006 3:52 PM PASSED 117 0 2 1 0 117
1499 S 774 SB 774 SEAT BELT USE ENHANCEMENTS. A1 Sutton\Second Reading 7/5/2006 4:29 PM FAILED 50 66 3 1 0 116
1500 S 774 SB 774 SEAT BELT USE ENHANCEMENTS. Second Reading 7/5/2006 4:30 PM PASSED 76 40 3 1 0 116
1501 S 1156 SB 1156 DAIRY STABILIZATION AND GROWTH PROGRAM. Second Reading 7/5/2006 4:32 PM PASSED 111 4 4 1 0 115
1502 S 1277 SB 1277 NC NEW ORGANIZATIONAL VISION AWARD-SPECIAL VOLUNTARY LICENSURE DESIGNATION. LICENSURE DESIGNATION. Second Reading 7/5/2006 4:34 PM PASSED 114 0 5 1 0 114
1503 S 1832 SJR 1832 ENABLING/MILITARY FUNERAL/UNLAWFUL PROTEST. Second Reading 7/5/2006 4:36 PM PASSED 114 0 5 1 0 114
1504 S 1857 SB 1857 HALIWA-SAPONI TRIBE NAME CHANGE. Second Reading 7/5/2006 4:37 PM PASSED 115 1 3 1 0 116
1505 S 1276 SB 1276 COMMUNITY ALTERNATIVES PROGRAM FOR DISABLED ADULTS REVIEW AND REPORT. REPORT. Second Reading 7/5/2006 4:39 PM PASSED 114 0 5 1 0 114
1506 S 1216 SB 1216 DSS DISCLOSURE OF INFORMATION/ABUSE/NEGLECT. Second Reading 7/5/2006 4:41 PM PASSED 117 0 2 1 0 117
1507 S 1278 SB 1278 ADULT DAY AWARENESS/STATUS OF STUDY RECOMMENDATIONS. Second Reading 7/5/2006 4:43 PM PASSED 115 0 4 1 0 115
1508 S 1279 SB 1279 REVIEW OF NC INSTITUTIONAL BIAS REPORT. Second Reading 7/5/2006 4:44 PM PASSED 116 0 3 1 0 116
1509 S 1378 SB 1378 AMEND THE FORFEITURE OF PROPERTY RIGHTS LAW. Second Reading 7/5/2006 4:47 PM PASSED 117 0 2 1 0 117
1510 S 1555 SB 1555 REVISE ARTICLES 1 AND 7 OF THE UNIFORM COMMERCIAL CODE. Second Reading 7/5/2006 4:49 PM PASSED 117 0 2 1 0 117
1511 S 1741 SB 1741 MODIFY APPROPRIATIONS ACT OF 2005. R3 Ruled Mat'l\C RPT ADOPT 7/6/2006 2:23 PM PASSED 83 31 1 5 0 114
1495 S 1741 SB 1741 MODIFY APPROPRIATIONS ACT OF 2005. R2 Ruled Mat'l\C Rpt Adopt 7/5/2006 3:34 PM PASSED 82 35 2 1 0 117
1496 S 2057 SJR 2057 HONOR LIFE AND MEMORY OF JOHN CLARENCE "J.C." SCARBOROUGH, SR. Second Reading 7/5/2006 3:42 PM PASSED 115 0 4 1 0 115
1565 S 1862 SB 1862 LIMIT NUTRIENT OFFSET PAYMENTS. A1 Harrison\Second Reading 7/11/2006 3:46 PM FAILED 20 96 1 2 0 116
1566 S 1862 SB 1862 LIMIT NUTRIENT OFFSET PAYMENTS. A2 Luebke\Second Reading 7/11/2006 3:58 PM FAILED 21 93 3 2 0 114
1567 S 1862 SB 1862 LIMIT NUTRIENT OFFSET PAYMENTS. Second Reading 7/11/2006 4:03 PM PASSED 94 22 1 2 0 116
1568 S 491 SB 491 BUTNER WATER/SEWER SYSTEM TRANSFER/ PUBLIC SAFETY. Second Reading 7/11/2006 4:06 PM PASSED 116 0 1 2 0 116
1479 S 1451 SB 1451 DELINQUENT PROPERTY TAX/INVENTORY/STUDY. Third Reading 6/29/2006 5:13 PM PASSED 106 0 5 9 0 106
1480 S 1991 SB 1991 DISTRICT 13 COUNTY RESIDENT JUDGESHIPS. Second Reading 6/30/2006 12:06 PM PASSED 107 1 1 11 0 108
1481 S 700 SB 700 FLAG/PLEDGE OF ALLEGIANCE IN SCHOOLS. Second Reading 6/30/2006 12:31 PM PASSED 107 1 2 10 0 108
1551 S 1373 SB 1373 VARIOUS SPECIAL PLATES. Third Reading 7/10/2006 6:52 PM PASSED 108 7 2 2 0 115
1552 S 1809 SB 1809 UNIVERSITY INDEBTEDNESS PROJECTS. Third Reading 7/10/2006 6:55 PM PASSED 114 0 3 2 0 114
1553 S 686 SB 686 METHAMPHETAMINE LAB PREVENTION ACT. C Rpt Adopt\M6 Reconsider 7/10/2006 6:58 PM PASSED 115 0 2 2 0 115
1554 S 837 SB 837 STATE HEALTH PLAN/20-YEAR VESTING. A1 Folwell\Third Reading 7/10/2006 7:03 PM PASSED 103 10 4 2 0 113
1532 S 1373 SB 1373 VARIOUS SPECIAL PLATES. Second Reading 7/6/2006 7:24 PM PASSED 102 4 6 8 0 106
1783 S 1161 SB 1161 HOSPICE BRANCH OFFICE NOT NEW INSTITUTIONAL HEALTH SERVICE. SERVICE. Second Reading 7/26/2006 2:48 PM FAILED 31 79 1 8 1 110
1525 S 774 SB 774 SEAT BELT USE ENHANCEMENTS. A3 Weiss\Third Reading\Perfecting\Amendment 7/6/2006 6:41 PM PASSED 103 1 8 8 0 104
1526 S 774 SB 774 SEAT BELT USE ENHANCEMENTS. A2b Moore\Third Reading 7/6/2006 6:42 PM PASSED 102 3 7 8 0 105
1527 S 774 SB 774 SEAT BELT USE ENHANCEMENTS. A4 Daughtridge\Third Reading 7/6/2006 6:54 PM PASSED 56 51 5 8 0 107
1528 S 774 SB 774 SEAT BELT USE ENHANCEMENTS. A4 Daughtridge\Third Reading\M6 Reconsider 7/6/2006 7:05 PM FAILED 45 62 5 8 0 107
1529 S 774 SB 774 SEAT BELT USE ENHANCEMENTS. Third Reading 7/6/2006 7:16 PM PASSED 61 44 7 8 0 105
1841 S 1523 SB 1523 2006 TECHNICAL CORRECTIONS ACT. Third Reading 7/27/2006 8:59 PM PASSED 90 0 13 17 0 90
1842 S 198 SB 198 REVISE 2006 BUDGET ACT. C Rpt Adopt 7/28/2006 12:52 AM PASSED 81 1 15 23 0 82
1843 S 2066 SJR 2066 ADJOURNMENT SINE DIE OF THE 2005 REGULAR SESSION OF THE GENERAL ASSEMBLY. GENERAL ASSEMBLY. A1 Cole\Second Reading 7/28/2006 12:55 AM PASSED 84 0 13 23 0 84
1844 S 2066 SJR 2066 ADJOURNMENT SINE DIE OF THE 2005 REGULAR SESSION OF THE GENERAL ASSEMBLY. GENERAL ASSEMBLY. Second Reading 7/28/2006 12:56 AM PASSED 82 1 14 23 0 83
1548 S 1433 SB 1433 ALLOW OCEAN ISLE BEACH TO MOVE ABC STORE. Second Reading 7/10/2006 6:47 PM PASSED 113 0 4 2 0 113
1549 S 1928 SB 1928 CLAYTON/REIDSVILLE CLEAR-CUTTING. Second Reading 7/10/2006 6:47 PM PASSED 113 0 4 2 0 113
1839 S 1523 SB 1523 2006 TECHNICAL CORRECTIONS ACT. A8 Hackney\Third Reading 7/27/2006 8:47 PM PASSED 75 4 24 17 0 79
1603 S 1289 SB 1289 CELL PHONE USE BY DRIVERS UNDER 18 PROHIBITED. Second Reading\M8 Re-Refer\Rules Calendar\& Operations 7/12/2006 5:44 PM FAILED 41 73 1 5 0 114
1604 S 1289 SB 1289 CELL PHONE USE BY DRIVERS UNDER 18 PROHIBITED. A1 Sutton\Second Reading 7/12/2006 5:50 PM PASSED 113 0 2 5 0 113
1605 S 1289 SB 1289 CELL PHONE USE BY DRIVERS UNDER 18 PROHIBITED. Second Reading\M12 Suspend\Rules 7/12/2006 5:59 PM FAILED 39 75 1 5 0 114
1606 S 1289 SB 1289 CELL PHONE USE BY DRIVERS UNDER 18 PROHIBITED. Second Reading 7/12/2006 6:11 PM PASSED 89 22 4 5 0 111
1593 S 837 SB 837 STATE HEALTH PLAN/20-YEAR VESTING. Third Reading 7/12/2006 4:55 PM PASSED 109 5 2 4 0 114
1821 S 350 SB 350 2006 VARIOUS LOCAL ACTS. C Rpt Adopt 7/27/2006 5:30 PM PASSED 72 32 4 12 0 104
1822 S 264 SB 264 2006 APPOINTMENTS BILL. A1 Cole\Second Reading 7/27/2006 5:33 PM PASSED 102 0 5 12 1 102
1823 S 264 SB 264 2006 APPOINTMENTS BILL. Second Reading 7/27/2006 5:34 PM PASSED 100 1 6 12 1 101
1824 S 1523 SB 1523 2006 TECHNICAL CORRECTIONS ACT. A4 Hackney\Third Reading 7/27/2006 6:32 PM PASSED 104 0 2 14 0 104
1825 S 1523 SB 1523 2006 TECHNICAL CORRECTIONS ACT. A5 Hackney\Third Reading 7/27/2006 6:33 PM PASSED 103 0 3 14 0 103
1826 S 1523 SB 1523 2006 TECHNICAL CORRECTIONS ACT. A6 Cleveland\Third Reading 7/27/2006 6:35 PM PASSED 102 2 2 14 0 104
1827 S 1523 SB 1523 2006 TECHNICAL CORRECTIONS ACT. A7 Cole\Third Reading 7/27/2006 6:39 PM PASSED 103 0 3 14 0 103
1598 S 488 SB 488 ASSAULT HANDICAPPED/INCREASE PENALTY. Second Reading 7/12/2006 5:08 PM PASSED 111 0 5 4 0 111
1599 S 571 SB 571 SCHOOL COUNSELORS AND DROPOUT PREVENTION/STUDY. Second Reading 7/12/2006 5:14 PM PASSED 114 0 2 4 0 114
1600 S 571 SB 571 SCHOOL COUNSELORS AND DROPOUT PREVENTION/STUDY. Third Reading 7/12/2006 5:15 PM PASSED 112 0 4 4 0 112
1601 S 846 SB 846 MODERNIZE BAIL BONDSMAN REGISTRATION. Second Reading 7/12/2006 5:16 PM PASSED 112 1 3 4 0 113
1588 S 2064 SJR 2064 HONOR THE LIFE AND MEMORY OF HAMILTON COWLES HORTON, JR. Second Reading 7/12/2006 4:39 PM PASSED 114 0 1 5 0 114
1578 S 1621 SB 1621 SPECIAL INDEBTEDNESS PROJECTS. A1 Gibson\Second Reading 7/11/2006 5:11 PM PASSED 107 0 8 4 0 107
1579 S 1621 SB 1621 SPECIAL INDEBTEDNESS PROJECTS. Second Reading 7/11/2006 5:13 PM PASSED 107 4 4 4 0 111
901 S 592 SB 592 INDIGENT DEFENSE TECHNICAL REVISIONS. Second Reading 7/26/2005 3:04 PM PASSED 116 0 2 2 0 116
902 S 594 SB 594 RECOUPMENT BY COURT-APPOINTED ATTORNEYS. Second Reading 7/26/2005 3:07 PM PASSED 116 1 1 2 0 117
903 S 341 SB 341 MODERN ESCHEAT INVESTMENT PROGRAM. Second Reading 7/26/2005 3:12 PM PASSED 116 1 1 2 0 117
904 S 593 SB 593 COPY COSTS IN INDIGENT CASES. Second Reading 7/26/2005 3:14 PM PASSED 115 0 3 2 0 115
905 S 1011 SB 1011 RANDLEMAN DAM BONDS. Second Reading 7/26/2005 3:16 PM PASSED 116 0 2 2 0 116
906 S 1178 SJR 1178 HONOR FRANK HOWE MCDUFFIE, SR. Second Reading 7/27/2005 3:35 PM PASSED 114 0 0 6 0 114
907 S 420 SB 420 OAK RIDGE VOLUNTARY ANNEXATIONS/RED CROSS BUDGET ORDINANCES. Third Reading 7/27/2005 3:39 PM PASSED 111 0 3 6 0 111
893 S 565 SB 565 AMEND UMSTEAD ACT/COMMUNITY COLLEGE FACILITIES. A1 Yongue\Second Reading 7/25/2005 7:34 PM PASSED 111 0 2 7 0 111
894 S 565 SB 565 AMEND UMSTEAD ACT/COMMUNITY COLLEGE FACILITIES. Second Reading 7/25/2005 7:36 PM PASSED 112 0 1 7 0 112
895 S 369 SB 369 OMNIBUS OCCUPANCY TAXES. R3 Ruled Mat'l\C RPT ADOPT 7/26/2005 2:33 PM PASSED 95 22 1 2 0 117
896 S 420 SB 420 OAK RIDGE VOLUNTARY ANNEXATIONS/RED CROSS BUDGET ORDINANCES. Second Reading 7/26/2005 2:35 PM PASSED 117 0 1 2 0 117
897 S 98 SB 98 ORANGE COUNTY VOTING CENTERS. A1 Moore\Second Reading 7/26/2005 2:50 PM FAILED 57 60 1 2 0 117
898 S 98 SB 98 ORANGE COUNTY VOTING CENTERS. Second Reading 7/26/2005 2:59 PM PASSED 61 56 1 2 0 117
887 S 32 SB 32 FIRE SERVICE DISTRICT TAX RATE. Third Reading 7/21/2005 11:19 AM PASSED 107 0 2 11 0 107
888 S 692 SB 692 GREEN SQUARE PROJECT. A1 Ross\Second Reading 7/21/2005 11:20 AM PASSED 107 0 2 11 0 107
889 S 692 SB 692 GREEN SQUARE PROJECT. Second Reading 7/21/2005 11:29 AM PASSED 106 1 2 11 0 107
890 S 369 SB 369 OMNIBUS OCCUPANCY TAXES. R2 Ruled Mat'l\C RPT ADOPT 7/25/2005 7:20 PM PASSED 87 22 3 8 0 109
880 S 32 SB 32 FIRE SERVICE DISTRICT TAX RATE. Second Reading 7/20/2005 2:48 PM PASSED 113 0 3 4 0 113
1790 S 1242 SB 1242 STRIPED BASS PERMIT. Third Reading 7/26/2006 5:15 PM PASSED 95 15 2 8 0 110
1791 S 1087 SB 1087 LIMITED DRIVING PRIVILEGES - DRIVING WHILE LICENSE REVOKED. Third Reading 7/26/2006 5:31 PM FAILED 44 64 4 8 0 108
1792 S 1523 SB 1523 2006 TECHNICAL CORRECTIONS ACT. A1 Hackney\Second Reading\ARO-67V1 7/26/2006 5:34 PM PASSED 109 1 2 8 0 110
872 S 482 SB 482 INDOOR ARENA SMOKING REGULATIONS. Second Reading 7/19/2005 2:50 PM PASSED 104 14 0 2 0 118
873 S 533 SB 533 CHILD'S ALLOWANCE FROM ESTATE. Second Reading 7/19/2005 2:52 PM PASSED 118 0 0 2 0 118
1786 S 1862 SB 1862 LIMIT NUTRIENT OFFSET PAYMENTS. R3 Ruled Mat'l\C Rpt Adopt 7/26/2006 3:38 PM PASSED 103 9 0 8 0 112
1787 S 927 SB 927 NUTRIENT OFFSET PAYMENTS. Second Reading 7/26/2006 3:40 PM PASSED 108 1 2 9 0 109
1781 S 1564 SB 1564 AMEND SOLID WASTE FRANCHISE STATUTES. Third Reading 7/25/2006 5:55 PM PASSED 109 0 3 8 0 109
1778 S 1087 SB 1087 LIMITED DRIVING PRIVILEGES - DRIVING WHILE LICENSE REVOKED. Second Reading 7/25/2006 5:17 PM PASSED 56 54 2 8 0 110
1765 S 1242 SB 1242 STRIPED BASS PERMIT. Second Reading 7/25/2006 4:09 PM PASSED 74 38 2 6 0 112
1766 S 198 SB 198 REVISE 2006 BUDGET ACT. A3 Hilton\Third Reading 7/25/2006 4:12 PM PASSED 109 0 4 6 1 109
1767 S 198 SB 198 REVISE 2006 BUDGET ACT. Third Reading 7/25/2006 4:12 PM PASSED 99 13 2 6 0 112
1768 S 2051 SB 2051 STATE ENERGY USE PLANNING/ENERGY ASSISTANCE. A1 Saunders\Second Reading\M3 Previous\Question 7/25/2006 4:32 PM PASSED 60 44 9 7 0 104
1769 S 2051 SB 2051 STATE ENERGY USE PLANNING/ENERGY ASSISTANCE. A1 Saunders\Second Reading 7/25/2006 4:32 PM PASSED 70 40 3 7 0 110
1770 S 2051 SB 2051 STATE ENERGY USE PLANNING/ENERGY ASSISTANCE. A2 Hill\Second Reading 7/25/2006 4:34 PM PASSED 110 1 2 7 0 111
1771 S 2051 SB 2051 STATE ENERGY USE PLANNING/ENERGY ASSISTANCE. Second Reading 7/25/2006 4:37 PM PASSED 103 9 1 7 0 112
1772 S 1295 SB 1295 JUNK FAXES. Second Reading 7/25/2006 4:40 PM PASSED 112 0 1 7 0 112
1773 S 1566 SB 1566 STORMWATER MANAGEMENT 2006. A1 Preston\Third Reading 7/25/2006 4:43 PM PASSED 111 0 1 8 0 111
1774 S 1566 SB 1566 STORMWATER MANAGEMENT 2006. A2 Stiller\Third Reading 7/25/2006 4:45 PM PASSED 110 0 2 8 0 110
1775 S 1566 SB 1566 STORMWATER MANAGEMENT 2006. Third Reading 7/25/2006 4:45 PM PASSED 103 6 3 8 0 109
1761 S 489 SB 489 COSMETIC ART DEFINITIONS/EXAM FACILITIES. C Rpt Adopt 7/25/2006 3:40 PM PASSED 113 0 1 6 0 113
739 S 388 SB 388 WATHA TOWN COUNCIL/BOLTON ANNEXATION. Third Reading 6/27/2005 7:25 PM PASSED 105 1 6 8 0 106
745 S 461 SB 461 UNITRUST AMENDMENTS. Second Reading 6/28/2005 10:13 AM PASSED 116 0 2 2 0 116
746 S 461 SB 461 UNITRUST AMENDMENTS. Third Reading 6/28/2005 10:14 AM PASSED 116 0 2 2 0 116
747 S 806 SB 806 MEDIATION AMENDMENTS. Second Reading 6/28/2005 10:16 AM PASSED 114 0 4 2 0 114
1754 S 198 SB 198 REVISE 2006 BUDGET ACT. A1 Crawford\Second Reading 7/24/2006 8:13 PM PASSED 106 0 3 11 0 106
1755 S 198 SB 198 REVISE 2006 BUDGET ACT. A2 Stam\Second Reading 7/24/2006 8:24 PM FAILED 38 66 4 11 1 104
1756 S 198 SB 198 REVISE 2006 BUDGET ACT. Second Reading 7/24/2006 8:27 PM PASSED 87 18 4 11 0 105
733 S 1059 SB 1059 PERFUSIONISTS LICENSURE. Third Reading 6/23/2005 9:19 AM PASSED 116 0 1 3 0 116
734 S 512 SB 512 ELECTRIC SERVICE CONFLICTS. Second Reading 6/23/2005 9:20 AM PASSED 116 0 1 3 0 116
735 S 388 SB 388 WATHA TOWN COUNCIL/BOLTON ANNEXATION. Second Reading 6/23/2005 9:23 AM PASSED 115 1 1 3 0 116
721 S 407 SB 407 CABARRUS LOCAL ACTS. Third Reading 6/22/2005 1:33 PM PASSED 95 24 0 1 0 119
1343 S 1741 SB 1741 MODIFY APPROPRIATIONS ACT OF 2005. A4 Crawford\Second Reading\ALR-34 (v.2) 6/14/2006 4:27 PM PASSED 115 0 3 2 0 115
1352 S 1741 SB 1741 MODIFY APPROPRIATIONS ACT OF 2005. Third Reading 6/15/2006 10:51 AM PASSED 91 23 2 4 0 114
726 S 178 SB 178 AMEND CERTAIN LICENSURE REQUIREMENTS/PLUMBING/ HEATING CONTRACTORS. HEATING CONTRACTORS. Third Reading 6/22/2005 1:59 PM PASSED 118 1 0 1 0 119
727 S 682 SB 682 ADD AGENCIES TO SET-OFF DEBT COLLECT. Third Reading 6/22/2005 2:00 PM PASSED 118 1 0 1 0 119
728 S 685 SB 685 REVISE PROFESSIONAL EMPLOYER ORGANIZATION ACT. Third Reading 6/22/2005 2:02 PM PASSED 118 1 0 1 0 119
729 S 1059 SB 1059 PERFUSIONISTS LICENSURE. Second Reading 6/22/2005 2:07 PM PASSED 119 0 0 1 0 119
730 S 537 SB 537 ALLOW PAYMENT OF TAX BY OFFSET. Second Reading 6/22/2005 2:08 PM PASSED 119 0 0 1 0 119
713 S 178 SB 178 AMEND CERTAIN LICENSURE REQUIREMENTS/PLUMBING/HEAT CONTRACTORS. CONTRACTORS. Second Reading 6/21/2005 2:57 PM PASSED 115 0 2 3 0 115
714 S 682 SB 682 ADD AGENCIES TO SET-OFF DEBT COLLECT. Second Reading 6/21/2005 2:59 PM PASSED 115 0 2 3 0 115
715 S 685 SB 685 REVISE PROFESSIONAL EMPLOYER ORGANIZATION ACT. Second Reading 6/21/2005 3:01 PM PASSED 113 1 3 3 0 114
716 S 321 SB 321 JURY EXEMPTIONS/72 AND OLDER. Second Reading 6/21/2005 3:14 PM PASSED 82 33 2 3 0 115
717 S 465 SB 465 CIVIL RULES-FILING OF PAPERS CLARIFIED. Second Reading 6/21/2005 3:16 PM PASSED 114 0 3 3 0 114
718 S 689 SB 689 COPIES OF FILES/APPOINTED APPELLATE ATTORNEYS. Second Reading 6/21/2005 3:18 PM PASSED 115 0 2 3 0 115
13 S 71 SJR 71 STATE OF THE STATE ADDRESS/INVITING GOVERNOR. Second Reading 2/17/2005 10:31 AM PASSED 103 0 4 13 0 103
14 S 180 SJR 180 SALEMBURG - 100TH ANNIVERSARY. Second Reading 2/22/2005 3:40 PM PASSED 109 0 5 6 0 109
15 S 7 SB 7 HURRICANE RECOVERY ACT - 2005. Second Reading 2/22/2005 4:05 PM PASSED 108 0 6 6 0 108
16 S 182 SJR 182 JOINT SESSION IN BATH, NC TO COMMEMORATE THE TOWN'S TRICENTENNIAL. TRICENTENNIAL. Second Reading 2/23/2005 4:22 PM PASSED 112 0 2 6 0 112
17 S 82 SB 82 ELECTION CONTESTS. A1 Ross\Second Reading 2/23/2005 4:38 PM PASSED 111 1 2 6 0 112
18 S 82 SB 82 ELECTION CONTESTS. A2 Blust\Second Reading 2/23/2005 4:50 PM FAILED 52 60 2 6 0 112
9 S 81 SJR 81 HONOR FOUNDERS/TOWN OF FRANKLIN 150TH ANNIVERSARY. Second Reading 2/9/2005 2:39 PM PASSED 116 0 1 3 0 116
10 S 84 SJR 84 HONOR HUBERT HUMPHREY/FORMER GENERAL ASSEMBLY MEMBER. Second Reading 2/9/2005 2:46 PM PASSED 115 0 2 3 0 115
278 S 474 SB 474 CARY/GREENVILLE UNFIT HOUSING. A1 Wiley\Second Reading 5/2/2005 7:35 PM PASSED 109 1 5 5 0 110
527 S 884 SB 884 STATE TRADITIONAL POTTERY BIRTHPLACE. A1 Brubaker\Second Reading 5/26/2005 4:21 PM PASSED 108 0 6 6 0 108
271 S 586 SB 586 TWO ADDITIONS TO STATE PARKS SYSTEM. Second Reading 4/27/2005 5:27 PM PASSED 113 1 0 6 0 114
1301 S 912 SB 912 PHASE OUT VIDEO POKER/EXCEPT BY COMPACT. A1Stam\Second Reading 5/31/2006 3:08 PM PASSED 110 4 1 4 1 114
1302 S 912 SB 912 PHASE OUT VIDEO POKER/EXCEPT BY COMPACT. Second Reading 5/31/2006 3:11 PM PASSED 114 1 0 4 1 115
1431 S 1506 SB 1506 ADDITIONAL ST. PAULS OCCUPANCY TAX. Second Reading 6/27/2006 2:42 PM PASSED 96 20 3 1 0 116
1432 S 1526 SB 1526 REIDSVILLE DEANNEXATION. Second Reading 6/27/2006 2:43 PM PASSED 114 0 5 1 0 114
1433 S 1852 SB 1852 INCORPORATE MIDWAY. Second Reading 6/27/2006 2:46 PM PASSED 114 2 3 1 0 116
1434 S 1905 SB 1905 ASHEVILLE ANNEXATION. Second Reading 6/27/2006 2:47 PM PASSED 115 0 4 1 0 115
1435 S 1283 SB 1283 FRANCHISE TAX BASE CALCULATION. Second Reading 6/27/2006 2:55 PM PASSED 116 0 3 1 0 116
660 S 368 SB 368 FRANKLIN SCHOOL ELECTIONS NONPARTISAN. Second Reading 6/9/2005 8:53 AM PASSED 114 3 1 2 0 117
1328 S 1377 SB 1377 AMEND TRANSITION PROVISIONS ARTICLE 9/UNIFORM COMMERCIAL CODE. Second Reading 6/7/2006 3:48 PM PASSED 116 0 1 3 0 116
1746 S 1373 SB 1373 VARIOUS SPECIAL PLATES. R3 Ruled Mat'l\C RPT. ADOPT 7/24/2006 7:31 PM PASSED 99 7 3 11 0 106
1715 S 542 SB 542 ACCESS TO STATE FACILITIES. A1 Insko\Second Reading 7/19/2006 5:54 PM PASSED 103 1 4 12 0 104
1716 S 542 SB 542 ACCESS TO STATE FACILITIES. Second Reading 7/19/2006 5:57 PM PASSED 78 25 5 12 0 103
1323 S 1208 SB 1208 REPEAL SUNSET/STATE HEALTH PLAN LOCAL OPTION. Second Reading 6/7/2006 2:56 PM PASSED 115 0 2 3 0 115
1743 S 1862 SB 1862 LIMIT NUTRIENT OFFSET PAYMENTS. R2 Ruled Mat'l\C RPT ADOPT 7/20/2006 3:32 PM PASSED 64 29 6 21 0 93
1744 S 1431 SB 1431 BURGAW/NEW HANOVER/WILMINGTON OCCUPANCY TAX. C Rpt Adopt 7/20/2006 3:48 PM PASSED 65 26 8 21 0 91
1721 S 1373 SB 1373 VARIOUS SPECIAL PLATES. R2 Ruled Mat'l\C RPT ADOPT 7/20/2006 12:09 PM PASSED 93 7 4 16 0 100
654 S 472 SB 472 CHILD EXPLOITATION PREVENTION ACT. Second Reading 6/8/2005 2:30 PM PASSED 119 0 0 1 0 119
411 S 572 SB 572 LICENSE ASSISTED LIVING FACILITY/ELDERLY. Second Reading 5/17/2005 3:35 PM PASSED 112 0 4 4 0 112
1728 S 881 SB 881 LAPSE IN LIABILITY INSURANCE. Third Reading 7/20/2006 12:26 PM PASSED 102 0 2 16 0 102
1729 S 542 SB 542 ACCESS TO STATE FACILITIES. A2 Ross\Third Reading 7/20/2006 12:29 PM PASSED 102 0 2 16 0 102
1730 S 542 SB 542 ACCESS TO STATE FACILITIES. A3 Tolson\Third Reading 7/20/2006 12:46 PM PASSED 59 44 1 16 0 103
1731 S 542 SB 542 ACCESS TO STATE FACILITIES. Third Reading 7/20/2006 1:58 PM PASSED 84 12 5 19 0 96
1732 S 1584 SB 1584 UNDERGROUND STORAGE TANK PROGRAM ADMINISTER FUNDS. Second Reading 7/20/2006 2:01 PM PASSED 99 0 2 19 0 99
1733 S 1566 SB 1566 STORMWATER MANAGEMENT 2006. Second Reading 7/20/2006 2:03 PM PASSED 92 8 2 18 0 100
1734 S 1564 SB 1564 AMEND SOLID WASTE FRANCHISE STATUTES. Second Reading 7/20/2006 2:13 PM PASSED 101 0 1 18 0 101
1735 S 1122 SB 1122 LAND AND WATER CONSERVATION STUDY. A1 Allen, L.\Second Reading 7/20/2006 2:16 PM PASSED 100 1 1 18 0 101
1736 S 1122 SB 1122 LAND AND WATER CONSERVATION STUDY. Second Reading 7/20/2006 2:17 PM PASSED 99 0 3 18 0 99
1737 S 1621 SB 1621 YOUTH DEVELOPMENT CENTERS,PURCHASE OF STATE GAME LANDS, RALEIGH PARKING FACILITY, EXEMPT SALES OF TIMBER PARKING FACILITY, EXEMPT SALES OF TIMBER FROM SERVICE CHARGE. C Rpt Adopt 7/20/2006 2:20 PM PASSED 100 0 2 18 0 100
496 S 116 SB 116 VENUS FLYTRAP OFFICIAL CARNIVOROUS PLANT. Second Reading 5/25/2005 11:54 AM PASSED 76 4 6 34 0 80
497 S 1170 SJR 1170 UNIVERSITY OF NORTH CAROLINA-CHAPEL HILL MEN'S BASKETBALL TEAM Second Reading 5/25/2005 12:05 PM PASSED 80 0 6 34 0 80
498 S 525 SB 525 NATIONAL ASSOCIATION FOR STOCK CAR AUTOMOBILE RACING. Third Reading 5/26/2005 1:32 PM PASSED 90 20 5 5 0 110
1709 S 1375 SB 1375 NOTARY PUBLIC CORRECTIONS. Second Reading 7/19/2006 2:55 PM PASSED 109 0 1 10 0 109
1710 S 1833 SB 1833 DISORDERLY CONDUCT/FUNERAL/MILITARY SERVICES. Second Reading 7/19/2006 2:59 PM PASSED 108 0 2 10 0 108
1711 S 2012 SB 2012 SUTA MODIFICATIONS. C Rpt Adopt 7/19/2006 3:03 PM PASSED 108 0 2 10 0 108
1712 S 1216 SB 1216 DSS DISCLOSURE OF INFORMATION/ABUSE/ NEGLECT. C Rpt Adopt 7/19/2006 3:05 PM PASSED 108 0 2 10 0 108
1713 S 686 SB 686 METH LAB PREVENTION ACT. C Rpt Adopt 7/19/2006 5:28 PM PASSED 103 0 6 11 0 103
989 S 223 SB 223 PUBLIC CONFIDENCE IN ELECTIONS. Comm. Amend. 1\Second Reading 8/11/2005 8:01 PM PASSED 103 0 4 13 0 103
990 S 223 SB 223 PUBLIC CONFIDENCE IN ELECTIONS. Second Reading 8/11/2005 8:12 PM PASSED 104 0 3 13 0 104
987 S 856 SB 856 ACCESS TO PUBLIC TRIAL PREPARATION MATERIAL. Second Reading 8/11/2005 6:11 PM PASSED 106 0 3 11 0 106
70 S 426 SJR 426 CONFIRMATION OF THE APPOINTMENT OF HOWARD N. LEE TO THE UTILITIES COMMISSION. UTILITIES COMMISSION. Second Reading 3/23/2005 4:37 PM PASSED 111 0 3 5 0 111
1702 S 1280 SB 1280 DEPARTMENT OF HEALTH AND HUMAN SERVICES EVALUATE TELEMONITORING/HOME CARE LICENSES. TELEMONITORING/HOME CARE LICENSES. Second Reading 7/19/2006 2:38 PM PASSED 106 3 1 10 0 109
1703 S 2043 SB 2043 INCREASE MORTGAGE LENDING FEES. Third Reading 7/19/2006 2:41 PM PASSED 93 13 4 10 0 106
1704 S 1804 SB 1804 TRYON/BOILING SPRINGS OCCUPANCY TAX. Third Reading 7/19/2006 2:42 PM PASSED 87 22 1 10 0 109
1705 S 1487 SB 1487 DENTAL HYGIENE LAW CHANGES. Third Reading 7/19/2006 2:43 PM PASSED 109 0 1 10 0 109
1706 S 881 SB 881 LAPSE IN LIABILITY INSURANCE. A1 Womble\Second Reading 7/19/2006 2:45 PM PASSED 109 0 1 10 0 109
1707 S 881 SB 881 LAPSE IN LIABILITY INSURANCE. Second Reading 7/19/2006 2:49 PM PASSED 109 0 1 10 0 109
1340 S 1741 SB 1741 MODIFY APPROPRIATIONS ACT OF 2005. A1 Wainwright\Second Reading\ALE-66 (v.1) 6/14/2006 4:03 PM FAILED 26 91 1 2 0 117
1341 S 1741 SB 1741 MODIFY APPROPRIATIONS ACT OF 2005. A2 Luebke\Second Reading\ALH-67 (v.7) 6/14/2006 4:22 PM FAILED 9 106 3 2 0 115
1342 S 1741 SB 1741 MODIFY APPROPRIATIONS ACT OF 2005. A3 Sherrill\Second Reading\ALL-45 (v.4) 6/14/2006 4:25 PM PASSED 115 0 3 2 0 115
984 S 705 SB 705 AMEND SUBSTANCE ABUSE LAWS. Second Reading 8/11/2005 6:04 PM PASSED 103 2 4 11 0 105
775 S 532 SB 532 CONSTRUCTION SITE THEFT/AGGRAVATE PENALTY. Third Reading 7/6/2005 2:27 PM PASSED 115 1 1 3 0 116
980 S 796 SB 796 CRIMINAL RECORD CHECKS/ARCHAEOLOGICAL OPERATIONS. A1 Haire\Second Reading 8/11/2005 3:45 PM PASSED 113 0 1 6 0 113
981 S 796 SB 796 CRIMINAL RECORD CHECKS/ARCHAEOLOGICAL OPERATIONS. Second Reading 8/11/2005 3:47 PM PASSED 112 0 2 6 0 112
982 S 1124 SB 1124</